Provisional Data: Chest Creek near Patton, PA


Please select a monitoring station.
Please select start date.
Please select start date.

Toggle Unit: C/F Toggle Unit: C/F
Sample Time Temperature (C) Temperature (F) Specific Conductivity (mS/cm) pH   Turbidity (NTU+) DO (mg/L)
3/23/2021 12:00:00 AM 6.51 43.718 0.18 6.98 6.38 11.26
3/23/2021 12:15:00 AM 6.45 43.61 0.18 6.98 6.51 11.26
3/23/2021 12:30:00 AM 6.4 43.52 0.18 6.98 6.56 11.26
3/23/2021 12:45:00 AM 6.34 43.412 0.18 6.98 6.4 11.28
3/23/2021 1:00:00 AM 6.28 43.304 0.18 6.98 6.55 11.28
3/23/2021 1:15:00 AM 6.22 43.196 0.18 6.98 6.37 11.29
3/23/2021 1:30:00 AM 6.16 43.088 0.18 6.98 6.65 11.3
3/23/2021 1:45:00 AM 6.09 42.962 0.18 6.98 6.42 11.31
3/23/2021 2:00:00 AM 6.03 42.854 0.181 6.98 6.36 11.32
3/23/2021 2:15:00 AM 5.97 42.746 0.18 6.98 6.37 11.32
3/23/2021 2:30:00 AM 5.91 42.638 0.181 6.98 6.5 11.34
3/23/2021 2:45:00 AM 5.86 42.548 0.181 6.99 6.52 11.34
3/23/2021 3:00:00 AM 5.81 42.458 0.181 6.98 6.46 11.35
3/23/2021 3:15:00 AM 5.76 42.368 0.181 6.99 6.48 11.36
3/23/2021 3:30:00 AM 5.71 42.278 0.181 6.98 6.55 11.37
3/23/2021 3:45:00 AM 5.66 42.188 0.181 6.98 6.41 11.37
3/23/2021 4:00:00 AM 5.61 42.098 0.181 6.98 6.35 11.39
3/23/2021 4:15:00 AM 5.56 42.008 0.181 6.99 6.5 11.39
3/23/2021 4:30:00 AM 5.51 41.918 0.181 6.99 6.47 11.4
3/23/2021 4:45:00 AM 5.47 41.846 0.181 6.98 6.57 11.41
3/23/2021 5:00:00 AM 5.42 41.756 0.181 6.98 6.42 11.41
3/23/2021 5:15:00 AM 5.38 41.684 0.181 6.98 6.33 11.42
3/23/2021 5:30:00 AM 5.34 41.612 0.182 6.98 6.65 11.43
3/23/2021 5:45:00 AM 5.3 41.54 0.182 6.98 6.4 11.44
3/23/2021 6:00:00 AM 5.26 41.468 0.182 6.98 6.31 11.45
3/23/2021 6:15:00 AM 5.22 41.396 0.182 6.99 6.51 11.45
3/23/2021 6:30:00 AM 5.18 41.324 0.182 6.99 6.23 11.46
3/23/2021 6:45:00 AM 5.14 41.252 0.182 6.99 6.9 11.47
3/23/2021 7:00:00 AM 5.11 41.198 0.182 6.98 6.5 11.48
3/23/2021 7:15:00 AM 5.07 41.126 0.182 6.98 6.15 11.5
3/23/2021 7:30:00 AM 5.04 41.072 0.182 6.99 6.35 11.51
3/23/2021 7:45:00 AM 5.01 41.018 0.182 6.99 6.25 11.53
3/23/2021 8:00:00 AM 4.99 40.982 0.182 6.99 6.34 11.57
3/23/2021 8:15:00 AM 4.99 40.982 0.182 7 6.24 11.61
3/23/2021 8:30:00 AM 5 41 0.182 7.01 6.08 11.67
3/23/2021 8:45:00 AM 5.02 41.036 0.182 7.01 6.21 11.71
3/23/2021 9:00:00 AM 5.05 41.09 0.182 7.01 6.15 11.74
3/23/2021 9:15:00 AM 5.1 41.18 0.182 7.02 6.21 11.77
3/23/2021 9:30:00 AM 5.18 41.324 0.182 7.02 5.96 11.8
3/23/2021 9:45:00 AM 5.28 41.504 0.182 7.03 5.95 11.82
3/23/2021 10:00:00 AM 5.41 41.738 0.182 7.04 6.23 11.83
3/23/2021 10:15:00 AM 5.54 41.972 0.182 7.04 5.73 11.84
3/23/2021 10:30:00 AM 5.69 42.242 0.182 7.04 5.91 11.85
3/23/2021 10:45:00 AM 5.85 42.53 0.182 7.04 5.77 11.86
3/23/2021 11:00:00 AM 6 42.8 0.182 7.05 5.87 11.85
3/23/2021 11:15:00 AM 6.16 43.088 0.182 7.04 5.78 11.85
3/23/2021 11:30:00 AM 6.29 43.322 0.182 7.04 5.71 11.85
3/23/2021 11:45:00 AM 6.43 43.574 0.182 7.05 5.73 11.86
3/23/2021 12:00:00 PM 6.51 43.718 0.182 7.04 5.73 11.85
3/23/2021 12:15:00 PM 6.66 43.988 0.182 7.05 5.78 11.86
3/23/2021 12:30:00 PM 6.8 44.24 0.182 7.05 5.87 11.86
3/23/2021 12:45:00 PM 6.92 44.456 0.182 7.05 5.78 11.86
3/23/2021 1:00:00 PM 7.02 44.636 0.182 7.05 5.66 11.86
3/23/2021 1:15:00 PM 7.11 44.798 0.182 7.05 5.81 11.86
3/23/2021 1:30:00 PM 7.14 44.852 0.182 7.04 5.77 11.85
3/23/2021 1:45:00 PM 7.17 44.906 0.182 7.05 5.77 11.86
3/23/2021 2:00:00 PM 7.28 45.104 0.182 7.06 5.79 11.87
3/23/2021 2:15:00 PM 7.34 45.212 0.182 7.06 5.73 11.86
3/23/2021 2:30:00 PM 7.43 45.374 0.183 7.06 5.84 11.85
3/23/2021 2:45:00 PM 7.46 45.428 0.182 7.06 5.68 11.85
3/23/2021 3:00:00 PM 7.49 45.482 0.183 7.06 5.7 11.84
3/23/2021 3:15:00 PM 7.59 45.662 0.183 7.07 5.88 11.84
3/23/2021 3:30:00 PM 7.7 45.86 0.183 7.08 5.93 11.83
3/23/2021 3:45:00 PM 7.8 46.04 0.183 7.08 5.93 11.82
3/23/2021 4:00:00 PM 7.85 46.13 0.183 7.07 5.78 11.79
3/23/2021 4:15:00 PM 7.89 46.202 0.183 7.07 5.78 11.79
3/23/2021 4:30:00 PM 7.91 46.238 0.183 7.07 5.9 11.77
3/23/2021 4:45:00 PM 7.95 46.31 0.182 7.07 5.86 11.76
3/23/2021 5:00:00 PM 7.99 46.382 0.183 7.07 5.7 11.75
3/23/2021 5:15:00 PM 7.98 46.364 0.183 7.07 5.85 11.73
3/23/2021 5:30:00 PM 7.95 46.31 0.183 7.07 5.66 11.7
3/23/2021 5:45:00 PM 7.92 46.256 0.183 7.07 5.81 11.68
3/23/2021 6:00:00 PM 7.9 46.22 0.183 7.07 5.9 11.66
3/23/2021 6:15:00 PM 7.85 46.13 0.183 7.06 5.79 11.62
3/23/2021 6:30:00 PM 7.81 46.058 0.183 7.06 5.95 11.6
3/23/2021 6:45:00 PM 7.77 45.986 0.183 7.05 5.74 11.56
3/23/2021 7:00:00 PM 7.72 45.896 0.183 7.05 5.76 11.52
3/23/2021 7:15:00 PM 7.68 45.824 0.183 7.05 5.87 11.47
3/23/2021 7:30:00 PM 7.65 45.77 0.183 7.04 5.82 11.42
3/23/2021 7:45:00 PM 7.62 45.716 0.184 7.03 5.98 11.37
3/23/2021 8:00:00 PM 7.6 45.68 0.184 7.02 5.94 11.32
3/23/2021 8:15:00 PM 7.58 45.644 0.184 7.02 5.98 11.28
3/23/2021 8:30:00 PM 7.57 45.626 0.184 7.01 6.13 11.25
3/23/2021 8:45:00 PM 7.55 45.59 0.184 7.01 5.99 11.22
3/23/2021 9:00:00 PM 7.53 45.554 0.184 7.01 6.17 11.19
3/23/2021 9:15:00 PM 7.5 45.5 0.184 7 6.28 11.18
3/23/2021 9:30:00 PM 7.48 45.464 0.184 7 6.36 11.16
3/23/2021 9:45:00 PM 7.46 45.428 0.184 7 6.18 11.13
3/23/2021 10:00:00 PM 7.44 45.392 0.184 7 6.3 11.12
3/23/2021 10:15:00 PM 7.43 45.374 0.184 6.99 6.07 11.11
3/23/2021 10:30:00 PM 7.41 45.338 0.185 6.99 6.19 11.09
3/23/2021 10:45:00 PM 7.39 45.302 0.185 6.99 6.03 11.08
3/23/2021 11:00:00 PM 7.38 45.284 0.184 6.99 6.12 11.06
3/23/2021 11:15:00 PM 7.37 45.266 0.185 6.99 6.26 11.04
3/23/2021 11:30:00 PM 7.36 45.248 0.185 6.99 6.44 11.04
3/23/2021 11:45:00 PM 7.35 45.23 0.185 6.98 6.38 11.03
3/24/2021 12:00:00 AM 7.34 45.212 0.185 6.99 6.21 11.01
3/24/2021 12:15:00 AM 7.33 45.194 0.185 6.98 6.42 11.01
3/24/2021 12:30:00 AM 7.33 45.194 0.185 6.98 6.32 10.99
3/24/2021 12:45:00 AM 7.33 45.194 0.185 6.98 6.52 10.99
3/24/2021 1:00:00 AM 7.32 45.176 0.185 6.98 6.19 10.98
3/24/2021 1:15:00 AM 7.32 45.176 0.185 6.98 6.27 10.98
3/24/2021 1:30:00 AM 7.31 45.158 0.185 6.98 6.13 10.97
3/24/2021 1:45:00 AM 7.3 45.14 0.185 6.98 6.12 10.96
3/24/2021 2:00:00 AM 7.29 45.122 0.185 6.98 6.18 10.95
3/24/2021 2:15:00 AM 7.29 45.122 0.186 6.98 6.2 10.95
3/24/2021 2:30:00 AM 7.28 45.104 0.185 6.99 6.28 10.94
3/24/2021 2:45:00 AM 7.28 45.104 0.186 6.98 6.13 10.94
3/24/2021 3:00:00 AM 7.28 45.104 0.186 6.98 6.2 10.93
3/24/2021 3:15:00 AM 7.28 45.104 0.186 6.98 6.15 10.93
3/24/2021 3:30:00 AM 7.28 45.104 0.186 6.98 6.18 10.92
3/24/2021 3:45:00 AM 7.28 45.104 0.186 6.98 6.28 10.92
3/24/2021 4:00:00 AM 7.29 45.122 0.186 6.97 6.27 10.91
3/24/2021 4:15:00 AM 7.29 45.122 0.186 6.98 6.29 10.9
3/24/2021 4:30:00 AM 7.29 45.122 0.186 6.98 6.35 10.9
3/24/2021 4:45:00 AM 7.29 45.122 0.187 6.97 6.13 10.89
3/24/2021 5:00:00 AM 7.29 45.122 0.186 6.97 6.18 10.89
3/24/2021 5:15:00 AM 7.29 45.122 0.186 6.97 6.18 10.88
3/24/2021 5:30:00 AM 7.29 45.122 0.187 6.97 6.17 10.88
3/24/2021 5:45:00 AM 7.29 45.122 0.186 6.97 6.09 10.88
3/24/2021 6:00:00 AM 7.29 45.122 0.186 6.97 6.33 10.87
3/24/2021 6:15:00 AM 7.28 45.104 0.187 6.98 7.1 10.86
3/24/2021 6:30:00 AM 7.29 45.122 0.187 6.97 6.86 10.86
3/24/2021 6:45:00 AM 7.31 45.158 0.191 6.98 11.29 10.85
3/24/2021 7:00:00 AM 7.31 45.158 0.189 6.98 9.18 10.84
3/24/2021 7:15:00 AM 7.31 45.158 0.19 6.96 8.75 10.82
3/24/2021 7:30:00 AM 7.3 45.14 0.189 6.97 9.23 10.81
3/24/2021 7:45:00 AM 7.3 45.14 0.188 6.96 8.22 10.81
3/24/2021 8:00:00 AM 7.3 45.14 0.188 6.96 7.61 10.83
3/24/2021 8:15:00 AM 7.3 45.14 0.187 6.96 7.44 10.84
3/24/2021 8:30:00 AM 7.31 45.158 0.187 6.96 6.99 10.85
3/24/2021 8:45:00 AM 7.32 45.176 0.187 6.96 6.57 10.87
3/24/2021 9:00:00 AM 7.33 45.194 0.187 6.96 6.31 10.88
3/24/2021 9:15:00 AM 7.36 45.248 0.187 6.96 6.33 10.92
3/24/2021 9:30:00 AM 7.38 45.284 0.187 6.97 6.22 10.95
3/24/2021 9:45:00 AM 7.41 45.338 0.187 6.98 6.17 10.97
3/24/2021 10:00:00 AM 7.43 45.374 0.187 6.99 6.07 10.98
3/24/2021 10:15:00 AM 7.45 45.41 0.187 6.98 6.31 11
3/24/2021 10:30:00 AM 7.48 45.464 0.186 6.99 5.96 11.02
3/24/2021 10:45:00 AM 7.52 45.536 0.186 6.99 5.93 11.05
3/24/2021 11:00:00 AM 7.56 45.608 0.186 7 5.82 11.08
3/24/2021 11:15:00 AM 7.6 45.68 0.186 7.01 5.83 11.11
3/24/2021 11:30:00 AM 7.66 45.788 0.186 7.02 5.97 11.15
3/24/2021 11:45:00 AM 7.74 45.932 0.186 7.03 5.92 11.18
3/24/2021 12:00:00 PM 7.81 46.058 0.186 7.04 5.82 11.21
3/24/2021 12:15:00 PM 7.87 46.166 0.185 7.04 6.02 11.23
3/24/2021 12:30:00 PM 7.95 46.31 0.186 7.04 6.05 11.25
3/24/2021 12:45:00 PM 8.04 46.472 0.186 7.05 5.86 11.27
3/24/2021 1:00:00 PM 8.1 46.58 0.186 7.07 5.87 11.27
3/24/2021 1:15:00 PM 8.17 46.706 0.186 7.06 5.88 11.28
3/24/2021 1:30:00 PM 8.23 46.814 0.186 7.06 5.79 11.29
3/24/2021 1:45:00 PM 8.33 46.994 0.185 7.08 5.71 11.31
3/24/2021 2:00:00 PM 8.41 47.138 0.185 7.07 5.79 11.31
3/24/2021 2:15:00 PM 8.55 47.39 0.185 7.08 5.61 11.33
3/24/2021 2:30:00 PM 8.72 47.696 0.184 7.11 6.01 11.34
3/24/2021 2:45:00 PM 8.84 47.912 0.184 7.09 5.84 11.34
3/24/2021 3:00:00 PM 8.98 48.164 0.184 7.1 6.12 11.33
3/24/2021 3:15:00 PM 9.11 48.398 0.184 7.12 5.85 11.32
3/24/2021 3:30:00 PM 9.25 48.65 0.184 7.11 5.96 11.32
3/24/2021 3:45:00 PM 9.32 48.776 0.184 7.11 5.94 11.33
3/24/2021 4:00:00 PM 9.32 48.776 0.184 7.09 5.93 11.32
3/24/2021 4:15:00 PM 9.38 48.884 0.183 7.1 5.88 11.32
3/24/2021 4:30:00 PM 9.44 48.992 0.183 7.1 5.92 11.31
3/24/2021 4:45:00 PM 9.54 49.172 0.183 7.12 6.35 11.3
3/24/2021 5:00:00 PM 9.54 49.172 0.182 7.11 6.09 11.28
3/24/2021 5:15:00 PM 9.61 49.298 0.183 7.12 6.21 11.27
3/24/2021 5:30:00 PM 9.56 49.208 0.183 7.1 6.18 11.24
3/24/2021 5:45:00 PM 9.54 49.172 0.182 7.1 6.38 11.21
3/24/2021 6:00:00 PM 9.54 49.172 0.183 7.1 6.04 11.17
3/24/2021 6:15:00 PM 9.56 49.208 0.182 7.1 6.32 11.15
3/24/2021 6:30:00 PM 9.54 49.172 0.182 7.09 6.27 11.11
3/24/2021 6:45:00 PM 9.52 49.136 0.182 7.08 6.2 11.06
3/24/2021 7:00:00 PM 9.48 49.064 0.182 7.07 6.51 11.01
3/24/2021 7:15:00 PM 9.44 48.992 0.182 7.07 6.25 10.94
3/24/2021 7:30:00 PM 9.37 48.866 0.182 7.05 6.52 10.88
3/24/2021 7:45:00 PM 9.31 48.758 0.182 7.04 7.52 10.81
3/24/2021 8:00:00 PM 9.26 48.668 0.182 7.02 6.65 10.75
3/24/2021 8:15:00 PM 9.24 48.632 0.182 7.02 6.79 10.71
3/24/2021 8:30:00 PM 9.23 48.614 0.183 7.02 7.17 10.67
3/24/2021 8:45:00 PM 9.23 48.614 0.182 7.01 6.75 10.64
3/24/2021 9:00:00 PM 9.25 48.65 0.183 7.02 6.68 10.61
3/24/2021 9:15:00 PM 9.27 48.686 0.183 7.01 6.88 10.59
3/24/2021 9:30:00 PM 9.28 48.704 0.183 7.01 6.7 10.57
3/24/2021 9:45:00 PM 9.29 48.722 0.183 7 6.92 10.55
3/24/2021 10:00:00 PM 9.3 48.74 0.183 7.01 6.89 10.52
3/24/2021 10:15:00 PM 9.29 48.722 0.183 7.01 7.07 10.51
3/24/2021 10:30:00 PM 9.28 48.704 0.183 7 6.84 10.49
3/24/2021 10:45:00 PM 9.26 48.668 0.183 6.99 6.72 10.47
3/24/2021 11:00:00 PM 9.25 48.65 0.183 6.99 7.18 10.45
3/24/2021 11:15:00 PM 9.24 48.632 0.183 6.98 7.03 10.44
3/24/2021 11:30:00 PM 9.23 48.614 0.183 6.99 6.89 10.42
3/24/2021 11:45:00 PM 9.22 48.596 0.183 6.99 6.97 10.41
3/25/2021 12:00:00 AM 9.2 48.56 0.184 6.99 7.03 10.4
3/25/2021 12:15:00 AM 9.18 48.524 0.183 6.99 6.91 10.4
3/25/2021 12:30:00 AM 9.16 48.488 0.183 6.99 7.27 10.39
3/25/2021 12:45:00 AM 9.15 48.47 0.184 6.99 7.11 10.38
3/25/2021 1:00:00 AM 9.14 48.452 0.184 6.99 7.04 10.37
3/25/2021 1:15:00 AM 9.12 48.416 0.184 6.99 6.88 10.37
3/25/2021 1:30:00 AM 9.1 48.38 0.184 6.99 7.04 10.36
3/25/2021 1:45:00 AM 9.08 48.344 0.184 6.98 7.17 10.35
3/25/2021 2:00:00 AM 9.07 48.326 0.184 6.99 7.29 10.35
3/25/2021 2:15:00 AM 9.05 48.29 0.184 6.98 7.29 10.34
3/25/2021 2:30:00 AM 9.03 48.254 0.184 6.98 7.09 10.34
3/25/2021 2:45:00 AM 9.01 48.218 0.185 6.99 7.37 10.34
3/25/2021 3:00:00 AM 8.98 48.164 0.185 6.98 7.18 10.34
3/25/2021 3:15:00 AM 8.95 48.11 0.185 6.98 7.27 10.34
3/25/2021 3:30:00 AM 8.91 48.038 0.185 6.98 7.07 10.34
3/25/2021 3:45:00 AM 8.88 47.984 0.185 6.98 7.47 10.34
3/25/2021 4:00:00 AM 8.85 47.93 0.185 6.98 7.5 10.34
3/25/2021 4:15:00 AM 8.82 47.876 0.185 6.98 7.12 10.34
3/25/2021 4:30:00 AM 8.8 47.84 0.186 6.98 7.16 10.34
3/25/2021 4:45:00 AM 8.78 47.804 0.186 6.99 7.44 10.33
3/25/2021 5:00:00 AM 8.77 47.786 0.186 6.98 7.62 10.33
3/25/2021 5:15:00 AM 8.77 47.786 0.186 6.99 7.12 10.33
3/25/2021 5:30:00 AM 8.76 47.768 0.186 6.98 7.42 10.33
3/25/2021 5:45:00 AM 8.76 47.768 0.186 6.98 7.37 10.33
3/25/2021 6:00:00 AM 8.76 47.768 0.187 6.98 7.07 10.33
3/25/2021 6:15:00 AM 8.76 47.768 0.187 6.98 7.22 10.32
3/25/2021 6:30:00 AM 8.76 47.768 0.187 6.97 7.4 10.31
3/25/2021 6:45:00 AM 8.76 47.768 0.187 6.97 7.31 10.32
3/25/2021 7:00:00 AM 8.75 47.75 0.187 6.97 7.26 10.32
3/25/2021 7:15:00 AM 8.73 47.714 0.188 6.97 7.31 10.32
3/25/2021 7:30:00 AM 8.71 47.678 0.188 6.97 7.09 10.34
3/25/2021 7:45:00 AM 8.7 47.66 0.188 6.98 7.06 10.37
3/25/2021 8:00:00 AM 8.7 47.66 0.188 6.99 7.15 10.42
3/25/2021 8:15:00 AM 8.68 47.624 0.188 7 7.01 10.48
3/25/2021 8:30:00 AM 8.69 47.642 0.188 7 7.11 10.54
3/25/2021 8:45:00 AM 8.7 47.66 0.188 7.01 6.87 10.61
3/25/2021 9:00:00 AM 8.75 47.75 0.188 7.02 6.89 10.67
3/25/2021 9:15:00 AM 8.81 47.858 0.188 7.03 6.97 10.73
3/25/2021 9:30:00 AM 8.89 48.002 0.188 7.04 6.96 10.78
3/25/2021 9:45:00 AM 8.98 48.164 0.188 7.05 7.08 10.83
3/25/2021 10:00:00 AM 9.11 48.398 0.188 7.07 6.82 10.87
3/25/2021 10:15:00 AM 9.25 48.65 0.188 7.08 6.58 10.89
3/25/2021 10:30:00 AM 9.42 48.956 0.188 7.08 6.81 10.92
3/25/2021 10:45:00 AM 9.57 49.226 0.188 7.08 6.39 10.93
3/25/2021 11:00:00 AM 9.74 49.532 0.188 7.1 6.79 10.95
3/25/2021 11:15:00 AM 9.92 49.856 0.188 7.11 6.88 10.96
3/25/2021 11:30:00 AM 10.06 50.108 0.188 7.1 6.64 10.97
3/25/2021 11:45:00 AM 10.17 50.306 0.188 7.1 6.95 10.98
3/25/2021 12:00:00 PM 10.25 50.45 0.188 7.09 6.83 10.99
3/25/2021 12:15:00 PM 10.31 50.558 0.188 7.1 6.68 11
3/25/2021 12:30:00 PM 10.39 50.702 0.188 7.11 6.45 11.03
3/25/2021 12:45:00 PM 10.49 50.882 0.188 7.12 6.5 11.04
3/25/2021 1:00:00 PM 10.6 51.08 0.188 7.12 6.97 11.05
3/25/2021 1:15:00 PM 10.73 51.314 0.188 7.12 6.59 11.07
3/25/2021 1:30:00 PM 10.88 51.584 0.188 7.14 6.71 11.08
3/25/2021 1:45:00 PM 11.04 51.872 0.189 7.14 6.32 11.08
3/25/2021 2:00:00 PM 11.17 52.106 0.189 7.13 6.45 11.09
3/25/2021 2:15:00 PM 11.27 52.286 0.189 7.15 6.7 11.08
3/25/2021 2:30:00 PM 11.37 52.466 0.188 7.14 6.69 11.07
3/25/2021 2:45:00 PM 11.42 52.556 0.189 7.14 6.54 11.08
3/25/2021 3:00:00 PM 11.48 52.664 0.189 7.14 6.86 11.06
3/25/2021 3:15:00 PM 11.52 52.736 0.189 7.15 6.43 11.07
3/25/2021 3:30:00 PM 11.56 52.808 0.189 7.16 6.78 11.06
3/25/2021 3:45:00 PM 11.57 52.826 0.189 7.15 6.51 11.06
3/25/2021 4:00:00 PM 11.56 52.808 0.189 7.15 6.69 11.03
3/25/2021 4:15:00 PM 11.54 52.772 0.189 7.14 6.5 11.01
3/25/2021 4:30:00 PM 11.52 52.736 0.189 7.13 6.74 10.99
3/25/2021 4:45:00 PM 11.51 52.718 0.189 7.13 6.68 10.96
3/25/2021 5:00:00 PM 11.51 52.718 0.19 7.13 6.62 10.94
3/25/2021 5:15:00 PM 11.47 52.646 0.189 7.12 6.75 10.88
3/25/2021 5:30:00 PM 11.43 52.574 0.19 7.11 6.59 10.81
3/25/2021 5:45:00 PM 11.38 52.484 0.19 7.1 6.99 10.72
3/25/2021 6:00:00 PM 11.32 52.376 0.19 7.09 6.64 10.66
3/25/2021 6:15:00 PM 11.27 52.286 0.19 7.07 6.78 10.58
3/25/2021 6:30:00 PM 11.23 52.214 0.19 7.06 6.82 10.53
3/25/2021 6:45:00 PM 11.19 52.142 0.19 7.05 6.61 10.47
3/25/2021 7:00:00 PM 11.16 52.088 0.191 7.04 6.58 10.41
3/25/2021 7:15:00 PM 11.13 52.034 0.191 7.03 6.48 10.35
3/25/2021 7:30:00 PM 11.1 51.98 0.191 7.02 6.58 10.31
3/25/2021 7:45:00 PM 11.08 51.944 0.191 7.02 6.98 10.26
3/25/2021 8:00:00 PM 11.06 51.908 0.191 7.01 6.69 10.22
3/25/2021 8:15:00 PM 11.05 51.89 0.191 7.01 7.13 10.18
3/25/2021 8:30:00 PM 11.05 51.89 0.185 7.01 7.32 10.15
3/25/2021 8:45:00 PM 11.05 51.89 0.191 7 7.05 10.12
3/25/2021 9:00:00 PM 11.04 51.872 0.191 6.99 6.97 10.09
3/25/2021 9:15:00 PM 11.02 51.836 0.191 6.99 7.09 10.06
3/25/2021 9:30:00 PM 11 51.8 0.192 6.99 7.14 10.03
3/25/2021 9:45:00 PM 10.99 51.782 0.191 6.98 7.19 10.02
3/25/2021 10:00:00 PM 10.99 51.782 0.191 6.99 7.16 9.99
3/25/2021 10:15:00 PM 10.98 51.764 0.192 6.98 6.94 9.98
3/25/2021 10:30:00 PM 10.98 51.764 0.192 6.98 6.89 9.96
3/25/2021 10:45:00 PM 10.97 51.746 0.192 6.97 6.97 9.93
3/25/2021 11:00:00 PM 10.95 51.71 0.193 6.97 7.39 9.91
3/25/2021 11:15:00 PM 10.95 51.71 0.193 6.97 6.93 9.9
3/25/2021 11:30:00 PM 10.96 51.728 0.193 6.97 7.24 9.89
3/25/2021 11:45:00 PM 10.95 51.71 0.193 6.97 6.8 9.87
3/26/2021 12:00:00 AM 10.95 51.71 0.193 6.97 7.06 9.86
3/26/2021 12:15:00 AM 10.95 51.71 0.193 6.97 6.92 9.85
3/26/2021 12:30:00 AM 10.95 51.71 0.193 6.96 6.92 9.83
3/26/2021 12:45:00 AM 10.95 51.71 0.193 6.96 7.05 9.82
3/26/2021 1:00:00 AM 10.94 51.692 0.193 6.96 7.17 9.81
3/26/2021 1:15:00 AM 10.94 51.692 0.193 6.96 7.08 9.79
3/26/2021 1:30:00 AM 10.93 51.674 0.193 6.97 7.19 9.79
3/26/2021 1:45:00 AM 10.93 51.674 0.193 6.97 7.35 9.78
3/26/2021 2:00:00 AM 10.93 51.674 0.194 6.96 7.29 9.77
3/26/2021 2:15:00 AM 10.93 51.674 0.194 6.97 7.21 9.76
3/26/2021 2:30:00 AM 10.94 51.692 0.193 6.97 7.26 9.76
3/26/2021 2:45:00 AM 10.94 51.692 0.193 6.97 7.33 9.76
3/26/2021 3:00:00 AM 10.95 51.71 0.194 6.97 8.15 9.75
3/26/2021 3:15:00 AM 10.92 51.656 0.195 6.96 7.88 9.74
3/26/2021 3:30:00 AM 10.89 51.602 0.195 6.95 7.58 9.73
3/26/2021 3:45:00 AM 10.86 51.548 0.195 6.95 7.93 9.72
3/26/2021 4:00:00 AM 10.84 51.512 0.195 6.95 8.23 9.7
3/26/2021 4:15:00 AM 10.83 51.494 0.195 6.95 7.73 9.7
3/26/2021 4:30:00 AM 10.81 51.458 0.195 6.94 7.78 9.7
3/26/2021 4:45:00 AM 10.79 51.422 0.195 6.95 7.54 9.7
3/26/2021 5:00:00 AM 10.76 51.368 0.195 6.95 7.42 9.7
3/26/2021 5:15:00 AM 10.75 51.35 0.195 6.95 7.5 9.69
3/26/2021 5:30:00 AM 10.72 51.296 0.196 6.95 7.42 9.7
3/26/2021 5:45:00 AM 10.72 51.296 0.196 6.95 7.15 9.69
3/26/2021 6:00:00 AM 10.72 51.296 0.195 6.95 7.26 9.69
3/26/2021 6:15:00 AM 10.72 51.296 0.196 6.96 7.82 9.69
3/26/2021 6:30:00 AM 10.72 51.296 0.196 6.96 7.98 9.69
3/26/2021 6:45:00 AM 10.73 51.314 0.197 6.95 7.46 9.67
3/26/2021 7:00:00 AM 10.72 51.296 0.196 6.95 7.9 9.67
3/26/2021 7:15:00 AM 10.69 51.242 0.196 6.95 7.62 9.67
3/26/2021 7:30:00 AM 10.66 51.188 0.196 6.95 7.27 9.7
3/26/2021 7:45:00 AM 10.63 51.134 0.196 6.96 7.52 9.73
3/26/2021 8:00:00 AM 10.63 51.134 0.196 6.97 7.19 9.79
3/26/2021 8:15:00 AM 10.66 51.188 0.196 6.99 7.35 9.88
3/26/2021 8:30:00 AM 10.68 51.224 0.196 7 7.35 9.96
3/26/2021 8:45:00 AM 10.71 51.278 0.196 7.02 7.17 10.02
3/26/2021 9:00:00 AM 10.74 51.332 0.196 7.03 7.34 10.09
3/26/2021 9:15:00 AM 10.8 51.44 0.196 7.05 6.92 10.16
3/26/2021 9:30:00 AM 10.85 51.53 0.195 7.05 6.72 10.2
3/26/2021 9:45:00 AM 10.9 51.62 0.196 7.05 6.69 10.24
3/26/2021 10:00:00 AM 11.01 51.818 0.195 7.08 7.11 10.3
3/26/2021 10:15:00 AM 11.08 51.944 0.195 7.08 6.95 10.34
3/26/2021 10:30:00 AM 11.21 52.178 0.195 7.09 7.02 10.37
3/26/2021 10:45:00 AM 11.34 52.412 0.195 7.11 6.91 10.41
3/26/2021 11:00:00 AM 11.53 52.754 0.195 7.12 7.03 10.45
3/26/2021 11:15:00 AM 11.71 53.078 0.195 7.13 7.32 10.48
3/26/2021 11:30:00 AM 11.85 53.33 0.195 7.13 6.92 10.49
3/26/2021 11:45:00 AM 11.97 53.546 0.195 7.13 7.16 10.5
3/26/2021 12:00:00 PM 12.08 53.744 0.195 7.14 6.56 10.52
3/26/2021 12:15:00 PM 12.18 53.924 0.195 7.14 7.08 10.54
3/26/2021 12:30:00 PM 12.36 54.248 0.195 7.16 6.94 10.57
3/26/2021 12:45:00 PM 12.34 54.212 0.195 7.14 6.79 10.56
3/26/2021 1:00:00 PM 12.29 54.122 0.195 7.14 6.73 10.57
3/26/2021 1:15:00 PM 12.16 53.888 0.195 7.15 6.88 10.57
3/26/2021 1:30:00 PM 12.01 53.618 0.195 7.14 6.76 10.54
3/26/2021 1:45:00 PM 11.87 53.366 0.195 7.13 6.81 10.49
3/26/2021 2:00:00 PM 11.75 53.15 0.195 7.14 6.86 10.5
3/26/2021 2:15:00 PM 11.73 53.114 0.195 7.14 6.88 10.56
3/26/2021 2:30:00 PM 11.76 53.168 0.195 7.14 7.13 10.6
3/26/2021 2:45:00 PM 11.74 53.132 0.195 7.14 7.11 10.58
3/26/2021 3:00:00 PM 11.76 53.168 0.195 7.15 6.79 10.61
3/26/2021 3:15:00 PM 11.74 53.132 0.195 7.16 6.86 10.64
3/26/2021 3:30:00 PM 11.71 53.078 0.195 7.16 6.98 10.65
3/26/2021 3:45:00 PM 11.72 53.096 0.195 7.18 7.32 10.67
3/26/2021 4:00:00 PM 11.73 53.114 0.194 7.17 6.8 10.68
3/26/2021 4:15:00 PM 11.77 53.186 0.194 7.18 6.83 10.7
3/26/2021 4:30:00 PM 11.75 53.15 0.194 7.18 6.72 10.69
3/26/2021 4:45:00 PM 11.72 53.096 0.195 7.18 6.68 10.69
3/26/2021 5:00:00 PM 11.78 53.204 0.194 7.19 7.14 10.69
3/26/2021 5:15:00 PM 11.76 53.168 0.194 7.18 6.98 10.67
3/26/2021 5:30:00 PM 11.72 53.096 0.194 7.17 7.76 10.63
3/26/2021 5:45:00 PM 11.67 53.006 0.194 7.16 7.36 10.61
3/26/2021 6:00:00 PM 11.6 52.88 0.194 7.16 7.31 10.56
3/26/2021 6:15:00 PM 11.5 52.7 0.194 7.14 6.85 10.5
3/26/2021 6:30:00 PM 11.4 52.52 0.194 7.13 6.94 10.43
3/26/2021 6:45:00 PM 11.32 52.376 0.194 7.12 6.94 10.38
3/26/2021 7:00:00 PM 11.24 52.232 0.194 7.11 7.24 10.33
3/26/2021 7:15:00 PM 11.19 52.142 0.194 7.11 7.28 10.27
3/26/2021 7:30:00 PM 11.14 52.052 0.195 7.09 7.03 10.22
3/26/2021 7:45:00 PM 11.09 51.962 0.195 7.08 7.38 10.17
3/26/2021 8:00:00 PM 11.04 51.872 0.195 7.07 7.09 10.12
3/26/2021 8:15:00 PM 10.99 51.782 0.195 7.05 7.22 10.08
3/26/2021 8:30:00 PM 10.95 51.71 0.195 7.05 7.57 10.04
3/26/2021 8:45:00 PM 10.91 51.638 0.195 7.05 7.65 10.02
3/26/2021 9:00:00 PM 10.88 51.584 0.195 7.04 7.97 10
3/26/2021 9:15:00 PM 10.85 51.53 0.195 7.04 7.69 9.99
3/26/2021 9:30:00 PM 10.81 51.458 0.195 7.04 7.55 9.97
3/26/2021 9:45:00 PM 10.79 51.422 0.195 7.03 7.61 9.96
3/26/2021 10:00:00 PM 10.77 51.386 0.195 7.02 7.86 9.95
3/26/2021 10:15:00 PM 10.76 51.368 0.195 7.02 7.57 9.94
3/26/2021 10:30:00 PM 10.76 51.368 0.195 7.03 7.59 9.93
3/26/2021 10:45:00 PM 10.73 51.314 0.195 7.02 7.72 9.92
3/26/2021 11:00:00 PM 10.7 51.26 0.195 7.01 7.36 9.91
3/26/2021 11:15:00 PM 10.66 51.188 0.195 7.01 7.42 9.9
3/26/2021 11:30:00 PM 10.62 51.116 0.196 7 7.32 9.89
3/26/2021 11:45:00 PM 10.57 51.026 0.196 7 8.02 9.89
3/27/2021 12:00:00 AM 10.53 50.954 0.196 7.01 7.41 9.89
3/27/2021 12:15:00 AM 10.48 50.864 0.196 7 7.68 9.89
3/27/2021 12:30:00 AM 10.43 50.774 0.196 7 7.52 9.89
3/27/2021 12:45:00 AM 10.38 50.684 0.196 7.01 7.63 9.89
3/27/2021 1:00:00 AM 10.33 50.594 0.196 7 7.59 9.9
3/27/2021 1:15:00 AM 10.28 50.504 0.197 7.01 7.72 9.9
3/27/2021 1:30:00 AM 10.23 50.414 0.197 7 7.72 9.9
3/27/2021 1:45:00 AM 10.18 50.324 0.197 7.01 8.08 9.91
3/27/2021 2:00:00 AM 10.12 50.216 0.197 7.01 7.79 9.91
3/27/2021 2:15:00 AM 10.07 50.126 0.197 7.01 7.67 9.92
3/27/2021 2:30:00 AM 10.02 50.036 0.197 7 7.84 9.92
3/27/2021 2:45:00 AM 9.98 49.964 0.197 7.01 7.89 9.93
3/27/2021 3:00:00 AM 9.93 49.874 0.198 7 7.59 9.93
3/27/2021 3:15:00 AM 9.88 49.784 0.198 7 7.74 9.94
3/27/2021 3:30:00 AM 9.83 49.694 0.198 7 7.53 9.95
3/27/2021 3:45:00 AM 9.79 49.622 0.198 7.01 7.79 9.96
3/27/2021 4:00:00 AM 9.73 49.514 0.198 7.01 7.96 9.97
3/27/2021 4:15:00 AM 9.68 49.424 0.198 7 7.73 9.97
3/27/2021 4:30:00 AM 9.62 49.316 0.199 7 7.79 9.98
3/27/2021 4:45:00 AM 9.57 49.226 0.199 7 7.66 9.99
3/27/2021 5:00:00 AM 9.52 49.136 0.199 7 7.82 10
3/27/2021 5:15:00 AM 9.47 49.046 0.199 7 7.9 10.01
3/27/2021 5:30:00 AM 9.42 48.956 0.199 7 7.83 10.02
3/27/2021 5:45:00 AM 9.36 48.848 0.199 7 8.24 10.03
3/27/2021 6:00:00 AM 9.3 48.74 0.199 7.01 8.22 10.04
3/27/2021 6:15:00 AM 9.24 48.632 0.199 7 7.97 10.06
3/27/2021 6:30:00 AM 9.19 48.542 0.2 7.01 7.98 10.07
3/27/2021 6:45:00 AM 9.14 48.452 0.199 7 7.47 10.08
3/27/2021 7:00:00 AM 9.09 48.362 0.2 7.01 7.76 10.09
3/27/2021 7:15:00 AM 9.04 48.272 0.199 7.01 8.12 10.12
3/27/2021 7:30:00 AM 8.98 48.164 0.2 7.01 7.15 10.15
3/27/2021 7:45:00 AM 8.94 48.092 0.2 7.01 7.3 10.2
3/27/2021 8:00:00 AM 8.9 48.02 0.2 7.02 7.18 10.27
3/27/2021 8:15:00 AM 8.88 47.984 0.2 7.03 7.44 10.35
3/27/2021 8:30:00 AM 8.88 47.984 0.2 7.04 7.22 10.44
3/27/2021 8:45:00 AM 8.89 48.002 0.2 7.05 7.23 10.52
3/27/2021 9:00:00 AM 8.92 48.056 0.2 7.07 7.31 10.6
3/27/2021 9:15:00 AM 9.02 48.236 0.2 7.08 7.16 10.7
3/27/2021 9:30:00 AM 9.12 48.416 0.2 7.09 7.32 10.76
3/27/2021 9:45:00 AM 9.23 48.614 0.2 7.09 7.33 10.82
3/27/2021 10:00:00 AM 9.35 48.83 0.2 7.11 8.08 10.86
3/27/2021 10:15:00 AM 9.47 49.046 0.2 7.12 7.88 10.9
3/27/2021 10:30:00 AM 9.57 49.226 0.2 7.11 7.7 10.93
3/27/2021 10:45:00 AM 9.76 49.568 0.2 7.14 8.07 10.97
3/27/2021 11:00:00 AM 9.95 49.91 0.2 7.14 7.88 10.99
3/27/2021 11:15:00 AM 10.14 50.252 0.201 7.15 7.52 11.03
3/27/2021 11:30:00 AM 10.31 50.558 0.2 7.15 7.34 11.02
3/27/2021 11:45:00 AM 10.54 50.972 0.2 7.16 7.07 11.05
3/27/2021 12:00:00 PM 10.74 51.332 0.2 7.15 7.01 11.06
3/27/2021 12:15:00 PM 10.94 51.692 0.201 7.13 7.1 11.07
3/27/2021 12:30:00 PM 11.11 51.998 0.2 7.14 7.2 11.08
3/27/2021 12:45:00 PM 11.23 52.214 0.201 7.14 6.86 11.09
3/27/2021 1:00:00 PM 11.36 52.448 0.2 7.15 7.13 11.11
3/27/2021 1:15:00 PM 11.43 52.574 0.201 7.14 7.13 11.12
3/27/2021 1:30:00 PM 11.52 52.736 0.2 7.14 7.61 11.14
3/27/2021 1:45:00 PM 11.59 52.862 0.201 7.16 7.14 11.16
3/27/2021 2:00:00 PM 11.64 52.952 0.2 7.16 7 11.16
3/27/2021 2:15:00 PM 11.69 53.042 0.2 7.16 6.93 11.18
3/27/2021 2:30:00 PM 11.69 53.042 0.2 7.16 7.12 11.18
3/27/2021 2:45:00 PM 11.66 52.988 0.201 7.14 6.92 11.18
3/27/2021 3:00:00 PM 11.63 52.934 0.201 7.15 6.76 11.18
3/27/2021 3:15:00 PM 11.6 52.88 0.2 7.15 6.89 11.17
3/27/2021 3:30:00 PM 11.55 52.79 0.2 7.16 7.16 11.16
3/27/2021 3:45:00 PM 11.52 52.736 0.2 7.16 7.01 11.14
3/27/2021 4:00:00 PM 11.5 52.7 0.201 7.15 7.02 11.13
3/27/2021 4:15:00 PM 11.48 52.664 0.201 7.14 6.81 11.11
3/27/2021 4:30:00 PM 11.47 52.646 0.201 7.14 7.14 11.11
3/27/2021 4:45:00 PM 11.47 52.646 0.201 7.15 6.91 11.1
3/27/2021 5:00:00 PM 11.48 52.664 0.201 7.16 6.94 11.1
3/27/2021 5:15:00 PM 11.46 52.628 0.201 7.15 7.13 11.07
3/27/2021 5:30:00 PM 11.46 52.628 0.201 7.15 6.98 11.05
3/27/2021 5:45:00 PM 11.44 52.592 0.201 7.15 6.83 11.02
3/27/2021 6:00:00 PM 11.41 52.538 0.201 7.14 6.92 10.99
3/27/2021 6:15:00 PM 11.37 52.466 0.201 7.14 7.11 10.94
3/27/2021 6:30:00 PM 11.33 52.394 0.201 7.13 6.67 10.89
3/27/2021 6:45:00 PM 11.27 52.286 0.201 7.12 7.02 10.8
3/27/2021 7:00:00 PM 11.19 52.142 0.202 7.11 6.85 10.69
3/27/2021 7:15:00 PM 11.14 52.052 0.202 7.1 6.72 10.62
3/27/2021 7:30:00 PM 11.09 51.962 0.202 7.09 7.19 10.52
3/27/2021 7:45:00 PM 11.03 51.854 0.203 7.07 6.7 10.43
3/27/2021 8:00:00 PM 10.98 51.764 0.203 7.05 6.86 10.35
3/27/2021 8:15:00 PM 10.93 51.674 0.203 7.05 7.17 10.29
3/27/2021 8:30:00 PM 10.86 51.548 0.203 7.04 7.64 10.24
3/27/2021 8:45:00 PM 10.8 51.44 0.203 7.03 7 10.2
3/27/2021 9:00:00 PM 10.74 51.332 0.203 7.02 7.07 10.17
3/27/2021 9:15:00 PM 10.68 51.224 0.203 7.02 7.51 10.15
3/27/2021 9:30:00 PM 10.62 51.116 0.203 7.02 7.32 10.13
3/27/2021 9:45:00 PM 10.56 51.008 0.204 7.01 7.42 10.12
3/27/2021 10:00:00 PM 10.51 50.918 0.204 7.01 7.07 10.11
3/27/2021 10:15:00 PM 10.45 50.81 0.204 7.01 6.88 10.1
3/27/2021 10:30:00 PM 10.4 50.72 0.204 7.01 7.42 10.09
3/27/2021 10:45:00 PM 10.35 50.63 0.204 7.01 7.43 10.08
3/27/2021 11:00:00 PM 10.3 50.54 0.204 7.01 7.53 10.07
3/27/2021 11:15:00 PM 10.25 50.45 0.204 7.01 7.08 10.07
3/27/2021 11:30:00 PM 10.21 50.378 0.204 7 7.27 10.06
3/27/2021 11:45:00 PM 10.16 50.288 0.204 7 7.05 10.05
3/28/2021 12:00:00 AM 10.12 50.216 0.205 7.01 7.06 10.04
3/28/2021 12:15:00 AM 10.08 50.144 0.204 7 7.36 10.02
3/28/2021 12:30:00 AM 10.03 50.054 0.205 7.01 7.26 10.02
3/28/2021 12:45:00 AM 9.99 49.982 0.205 7.01 7.43 10.01
3/28/2021 1:00:00 AM 9.95 49.91 0.205 7.01 7.92 10
3/28/2021 1:15:00 AM 9.91 49.838 0.205 7.01 7.64 10
3/28/2021 1:30:00 AM 9.87 49.766 0.205 7.01 7.66 9.99
3/28/2021 1:45:00 AM 9.84 49.712 0.205 7.01 8.46 9.99
3/28/2021 2:00:00 AM 9.8 49.64 0.205 7 7.97 9.99
3/28/2021 2:15:00 AM 9.77 49.586 0.205 7.01 7.6 9.98
3/28/2021 2:30:00 AM 9.74 49.532 0.205 7.01 7.54 9.98
3/28/2021 2:45:00 AM 9.71 49.478 0.205 7 7.68 9.98
3/28/2021 3:00:00 AM 9.68 49.424 0.205 7 7.52 9.98
3/28/2021 3:15:00 AM 9.66 49.388 0.205 7 7.42 9.97
3/28/2021 3:30:00 AM 9.63 49.334 0.205 7 7.49 9.97
3/28/2021 3:45:00 AM 9.61 49.298 0.205 7 7.72 9.97
3/28/2021 4:00:00 AM 9.59 49.262 0.205 7 7.31 9.97
3/28/2021 4:15:00 AM 9.56 49.208 0.205 7 7.53 9.96
3/28/2021 4:30:00 AM 9.54 49.172 0.205 7.01 7.41 9.96
3/28/2021 4:45:00 AM 9.51 49.118 0.206 7 7.15 9.97
3/28/2021 5:00:00 AM 9.5 49.1 0.206 7 7.17 9.96
3/28/2021 5:15:00 AM 9.48 49.064 0.205 7 7.56 9.97
3/28/2021 5:30:00 AM 9.46 49.028 0.206 7 7.14 9.97
3/28/2021 5:45:00 AM 9.44 48.992 0.206 7.01 7.45 9.96
3/28/2021 6:00:00 AM 9.43 48.974 0.206 7.01 7.07 9.97
3/28/2021 6:15:00 AM 9.41 48.938 0.206 7 6.89 9.98
3/28/2021 6:30:00 AM 9.39 48.902 0.206 7 7.88 9.99
3/28/2021 6:45:00 AM 9.36 48.848 0.208 7.01 10.51 10
3/28/2021 7:00:00 AM 9.35 48.83 0.206 7.04 26.81 10.02
3/28/2021 7:15:00 AM 9.32 48.776 0.208 7.04 17.53 10.01
3/28/2021 7:30:00 AM 9.3 48.74 0.212 7.03 16.15 9.99
3/28/2021 7:45:00 AM 9.29 48.722 0.21 7.05 18.56 9.98
3/28/2021 8:00:00 AM 9.29 48.722 0.207 7.05 15.12 9.99
3/28/2021 8:15:00 AM 9.3 48.74 0.205 7.04 13.04 9.98
3/28/2021 8:30:00 AM 9.31 48.758 0.205 7.02 12.69 10
3/28/2021 8:45:00 AM 9.31 48.758 0.206 7.01 10.04 10.02
3/28/2021 9:00:00 AM 9.32 48.776 0.206 7.01 9.26 10.07
3/28/2021 9:15:00 AM 9.34 48.812 0.205 7.02 8.83 10.1
3/28/2021 9:30:00 AM 9.37 48.866 0.205 7.02 8.32 10.15
3/28/2021 9:45:00 AM 9.38 48.884 0.206 7.02 7.84 10.17
3/28/2021 10:00:00 AM 9.41 48.938 0.206 7.03 7.68 10.26
3/28/2021 10:15:00 AM 9.43 48.974 0.206 7.04 7.47 10.3
3/28/2021 10:30:00 AM 9.46 49.028 0.206 7.04 7.35 10.34
3/28/2021 10:45:00 AM 9.51 49.118 0.206 7.05 7.53 10.45
3/28/2021 11:00:00 AM 9.59 49.262 0.206 7.07 7.25 10.56
3/28/2021 11:15:00 AM 9.66 49.388 0.206 7.09 7.42 10.62
3/28/2021 11:30:00 AM 9.74 49.532 0.205 7.09 7.11 10.66
3/28/2021 11:45:00 AM 9.77 49.586 0.205 7.09 6.8 10.67
3/28/2021 12:00:00 PM 9.8 49.64 0.204 7.09 7.07 10.67
3/28/2021 12:15:00 PM 9.86 49.748 0.204 7.11 7.04 10.72
3/28/2021 12:30:00 PM 9.9 49.82 0.204 7.11 7.21 10.72
3/28/2021 12:45:00 PM 9.97 49.946 0.204 7.12 7.33 10.76
3/28/2021 1:00:00 PM 10 50 0.204 7.12 7.14 10.74
3/28/2021 1:15:00 PM 10.02 50.036 0.205 7.12 7.14 10.7
3/28/2021 1:30:00 PM 10.02 50.036 0.206 7.13 8.19 10.67
3/28/2021 1:45:00 PM 10.04 50.072 0.205 7.12 7.07 10.66
3/28/2021 2:00:00 PM 10.03 50.054 0.204 7.11 6.87 10.63
3/28/2021 2:15:00 PM 10.08 50.144 0.204 7.12 9.96 10.67
3/28/2021 2:30:00 PM 10.09 50.162 0.203 7.14 9.16 10.68
3/28/2021 2:45:00 PM 10.18 50.324 0.202 7.15 11.59 10.72
3/28/2021 3:00:00 PM 10.2 50.36 0.203 7.17 11.33 10.68
3/28/2021 3:15:00 PM 10.25 50.45 0.202 7.17 11.23 10.73
3/28/2021 3:30:00 PM 10.23 50.414 0.199 7.16 11.09 10.69
3/28/2021 3:45:00 PM 10.24 50.432 0.196 7.18 14.4 10.67
3/28/2021 4:00:00 PM 10.24 50.432 0.195 7.22 26.01 10.58
3/28/2021 4:15:00 PM 10.18 50.324 0.199 7.2 18.4 10.62
3/28/2021 4:30:00 PM 10.16 50.288 0.197 7.21 20.16 10.61
3/28/2021 4:45:00 PM 10.08 50.144 0.196 7.19 17.47 10.57
3/28/2021 5:00:00 PM 10.06 50.108 0.196 7.18 16.13 10.63
3/28/2021 5:15:00 PM 10.08 50.144 0.196 7.18 13.81 10.71
3/28/2021 5:30:00 PM 10.09 50.162 0.197 7.17 12.56 10.73
3/28/2021 5:45:00 PM 10.02 50.036 0.198 7.17 11.98 10.69
3/28/2021 6:00:00 PM 9.96 49.928 0.2 7.17 12.55 10.69
3/28/2021 6:15:00 PM 9.87 49.766 0.201 7.16 12.98 10.65
3/28/2021 6:30:00 PM 9.76 49.568 0.202 7.16 12.65 10.62
3/28/2021 6:45:00 PM 9.65 49.37 0.202 7.15 13.02 10.57
3/28/2021 7:00:00 PM 9.52 49.136 0.204 7.15 12.98 10.54
3/28/2021 7:15:00 PM 9.42 48.956 0.203 7.15 13.1 10.51
3/28/2021 7:30:00 PM 9.32 48.776 0.203 7.15 15.54 10.48
3/28/2021 7:45:00 PM 9.25 48.65 0.201 7.14 15.28 10.45
3/28/2021 8:00:00 PM 9.16 48.488 0.2 7.14 15.5 10.43
3/28/2021 8:15:00 PM 9.1 48.38 0.198 7.14 16.24 10.41
3/28/2021 8:30:00 PM 9.06 48.308 0.196 7.13 16.78 10.4
3/28/2021 8:45:00 PM 9.01 48.218 0.194 7.14 18.05 10.4
3/28/2021 9:00:00 PM 8.97 48.146 0.193 7.14 18.34 10.39
3/28/2021 9:15:00 PM 8.92 48.056 0.191 7.14 19.52 10.4
3/28/2021 9:30:00 PM 8.89 48.002 0.189 7.14 17.25 10.39
3/28/2021 9:45:00 PM 8.83 47.894 0.188 7.13 16.78 10.4
3/28/2021 10:00:00 PM 8.8 47.84 0.187 7.12 16.15 10.39
3/28/2021 10:15:00 PM 8.77 47.786 0.186 7.12 15.75 10.39
3/28/2021 10:30:00 PM 8.73 47.714 0.185 7.11 16.13 10.39
3/28/2021 10:45:00 PM 8.7 47.66 0.185 7.11 16.24 10.38
3/28/2021 11:00:00 PM 8.66 47.588 0.185 7.11 14.7 10.39
3/28/2021 11:15:00 PM 8.62 47.516 0.184 7.1 15.18 10.39
3/28/2021 11:30:00 PM 8.59 47.462 0.184 7.11 16.31 10.39
3/28/2021 11:45:00 PM 8.52 47.336 0.184 7.1 14.48 10.39
3/29/2021 12:00:00 AM 8.46 47.228 0.184 7.1 13.96 10.4
3/29/2021 12:15:00 AM 8.4 47.12 0.183 7.1 14.61 10.4
3/29/2021 12:30:00 AM 8.35 47.03 0.182 7.1 15.02 10.42
3/29/2021 12:45:00 AM 8.31 46.958 0.182 7.09 14.65 10.42
3/29/2021 1:00:00 AM 8.26 46.868 0.181 7.09 14.39 10.43
3/29/2021 1:15:00 AM 8.21 46.778 0.18 7.09 15.03 10.44
3/29/2021 1:30:00 AM 8.16 46.688 0.178 7.07 15.51 10.45
3/29/2021 1:45:00 AM 8.12 46.616 0.179 7.07 15.84 10.45
3/29/2021 2:00:00 AM 8.07 46.526 0.178 7.08 16.21 10.47
3/29/2021 2:15:00 AM 8.02 46.436 0.178 7.08 16.84 10.47
3/29/2021 2:30:00 AM 7.97 46.346 0.178 7.08 17.23 10.48
3/29/2021 2:45:00 AM 7.92 46.256 0.177 7.08 19.81 10.49
3/29/2021 3:00:00 AM 7.88 46.184 0.176 7.09 17.58 10.5
3/29/2021 3:15:00 AM 7.82 46.076 0.176 7.08 17.89 10.51
3/29/2021 3:30:00 AM 7.73 45.914 0.175 7.07 18.11 10.53
3/29/2021 3:45:00 AM 7.67 45.806 0.175 7.08 17.51 10.53
3/29/2021 4:00:00 AM 7.62 45.716 0.175 7.07 18.05 10.55
3/29/2021 4:15:00 AM 7.59 45.662 0.175 7.08 17.82 10.56
3/29/2021 4:30:00 AM 7.53 45.554 0.175 7.08 17.95 10.57
3/29/2021 4:45:00 AM 7.47 45.446 0.175 7.08 16.78 10.58
3/29/2021 5:00:00 AM 7.42 45.356 0.175 7.09 17.55 10.6
3/29/2021 5:15:00 AM 7.38 45.284 0.175 7.09 16.88 10.61
3/29/2021 5:30:00 AM 7.34 45.212 0.175 7.09 16.73 10.63
3/29/2021 5:45:00 AM 7.32 45.176 0.176 7.09 17.06 10.64
3/29/2021 6:00:00 AM 7.28 45.104 0.176 7.09 16.63 10.65
3/29/2021 6:15:00 AM 7.23 45.014 0.176 7.1 17.35 10.66
3/29/2021 6:30:00 AM 7.2 44.96 0.176 7.09 16.07 10.67
3/29/2021 6:45:00 AM 7.16 44.888 0.177 7.1 15.64 10.68
3/29/2021 7:00:00 AM 7.11 44.798 0.177 7.09 16.05 10.7
3/29/2021 7:15:00 AM 7.07 44.726 0.177 7.09 15.87 10.71
3/29/2021 7:30:00 AM 7.04 44.672 0.177 7.09 15.96 10.73
3/29/2021 7:45:00 AM 7.01 44.618 0.177 7.1 15.43 10.76
3/29/2021 8:00:00 AM 6.98 44.564 0.178 7.11 15.54 10.8
3/29/2021 8:15:00 AM 6.96 44.528 0.178 7.1 15.54 10.84
3/29/2021 8:30:00 AM 6.95 44.51 0.178 7.1 15.14 10.88
3/29/2021 8:45:00 AM 6.92 44.456 0.179 7.11 15.76 10.95
3/29/2021 9:00:00 AM 6.92 44.456 0.179 7.11 14.77 11
3/29/2021 9:15:00 AM 6.9 44.42 0.18 7.12 14.85 11.04
3/29/2021 9:30:00 AM 6.92 44.456 0.18 7.13 14.69 11.09
3/29/2021 9:45:00 AM 6.92 44.456 0.18 7.13 15.01 11.14
3/29/2021 10:00:00 AM 6.92 44.456 0.181 7.14 14.06 11.17
3/29/2021 10:15:00 AM 6.93 44.474 0.181 7.13 14.32 11.22
3/29/2021 10:30:00 AM 6.95 44.51 0.181 7.15 14.54 11.26
3/29/2021 10:45:00 AM 7.01 44.618 0.181 7.15 13.87 11.3
3/29/2021 11:00:00 AM 7.13 44.834 0.182 7.17 15.18 11.33
3/29/2021 11:15:00 AM 7.27 45.086 0.182 7.17 14.21 11.35
3/29/2021 11:30:00 AM 7.43 45.374 0.182 7.18 14.02 11.38
3/29/2021 11:45:00 AM 7.53 45.554 0.183 7.19 14.03 11.41
3/29/2021 12:00:00 PM 7.62 45.716 0.183 7.19 14.43 11.41
3/29/2021 12:15:00 PM 7.77 45.986 0.184 7.19 14.93 11.44
3/29/2021 12:30:00 PM 7.84 46.112 0.184 7.2 15.37 11.45
3/29/2021 12:45:00 PM 7.95 46.31 0.184 7.2 14.96 11.47
3/29/2021 1:00:00 PM 8.09 46.562 0.185 7.21 14.42 11.49
3/29/2021 1:15:00 PM 8.15 46.67 0.185 7.2 14.73 11.49
3/29/2021 1:30:00 PM 8.24 46.832 0.185 7.2 15.02 11.52
3/29/2021 1:45:00 PM 8.4 47.12 0.185 7.22 14.64 11.53
3/29/2021 2:00:00 PM 8.52 47.336 0.186 7.22 14.88 11.54
3/29/2021 2:15:00 PM 8.68 47.624 0.185 7.23 15.02 11.55
3/29/2021 2:30:00 PM 8.79 47.822 0.186 7.23 14.76 11.56
3/29/2021 2:45:00 PM 8.9 48.02 0.185 7.22 14.5 11.57
3/29/2021 3:00:00 PM 9 48.2 0.185 7.23 14.64 11.57
3/29/2021 3:15:00 PM 9.07 48.326 0.185 7.22 14.57 11.57
3/29/2021 3:30:00 PM 9.13 48.434 0.185 7.22 14.09 11.57
3/29/2021 3:45:00 PM 9.17 48.506 0.185 7.22 14.31 11.58
3/29/2021 4:00:00 PM 9.21 48.578 0.185 7.22 14.35 11.57
3/29/2021 4:15:00 PM 9.23 48.614 0.184 7.22 14.14 11.57
3/29/2021 4:30:00 PM 9.23 48.614 0.185 7.21 13.96 11.56
3/29/2021 4:45:00 PM 9.19 48.542 0.184 7.21 14.11 11.55
3/29/2021 5:00:00 PM 9.15 48.47 0.184 7.2 14.42 11.54
3/29/2021 5:15:00 PM 9.09 48.362 0.185 7.19 13.64 11.51
3/29/2021 5:30:00 PM 9.01 48.218 0.185 7.19 13.35 11.5
3/29/2021 5:45:00 PM 8.9 48.02 0.185 7.18 14.21 11.47
3/29/2021 6:00:00 PM 8.79 47.822 0.185 7.17 13.54 11.43
3/29/2021 6:15:00 PM 8.67 47.606 0.185 7.17 13.85 11.38
3/29/2021 6:30:00 PM 8.55 47.39 0.185 7.15 13 11.33
3/29/2021 6:45:00 PM 8.44 47.192 0.185 7.14 12.81 11.28
3/29/2021 7:00:00 PM 8.33 46.994 0.186 7.13 13.2 11.24
3/29/2021 7:15:00 PM 8.23 46.814 0.186 7.11 13.3 11.21
3/29/2021 7:30:00 PM 8.14 46.652 0.186 7.1 12.79 11.16
3/29/2021 7:45:00 PM 8.06 46.508 0.186 7.08 12.7 11.12
3/29/2021 8:00:00 PM 7.98 46.364 0.186 7.08 13.27 11.09
3/29/2021 8:15:00 PM 7.92 46.256 0.186 7.07 12.36 11.07
3/29/2021 8:30:00 PM 7.85 46.13 0.187 7.07 12.64 11.05
3/29/2021 8:45:00 PM 7.8 46.04 0.187 7.08 12.23 11.04
3/29/2021 9:00:00 PM 7.75 45.95 0.187 7.08 12.3 11.03
3/29/2021 9:15:00 PM 7.7 45.86 0.187 7.07 12.29 11.01
3/29/2021 9:30:00 PM 7.66 45.788 0.187 7.07 12.18 11
3/29/2021 9:45:00 PM 7.62 45.716 0.187 7.07 11.93 11
3/29/2021 10:00:00 PM 7.58 45.644 0.187 7.07 12.48 10.99
3/29/2021 10:15:00 PM 7.55 45.59 0.187 7.06 12.59 10.99
3/29/2021 10:30:00 PM 7.51 45.518 0.187 7.05 12.48 10.99
3/29/2021 10:45:00 PM 7.48 45.464 0.187 7.06 12.52 10.99
3/29/2021 11:00:00 PM 7.44 45.392 0.187 7.06 12.3 10.98
3/29/2021 11:15:00 PM 7.4 45.32 0.187 7.05 11.84 10.97
3/29/2021 11:30:00 PM 7.36 45.248 0.187 7.05 12.16 10.97
3/29/2021 11:45:00 PM 7.32 45.176 0.187 7.05 11.79 10.97
3/30/2021 12:00:00 AM 7.27 45.086 0.187 7.05 11.41 10.96
3/30/2021 12:15:00 AM 7.22 44.996 0.187 7.05 12.31 10.96
3/30/2021 12:30:00 AM 7.17 44.906 0.187 7.05 11.48 10.96
3/30/2021 12:45:00 AM 7.11 44.798 0.187 7.04 10.87 10.97
3/30/2021 1:00:00 AM 7.05 44.69 0.187 7.04 11.03 10.98
3/30/2021 1:15:00 AM 7 44.6 0.187 7.04 10.84 10.98
3/30/2021 1:30:00 AM 6.94 44.492 0.187 7.04 10.94 11
3/30/2021 1:45:00 AM 6.88 44.384 0.188 7.04 10.7 11
3/30/2021 2:00:00 AM 6.82 44.276 0.187 7.04 10.91 11.01
3/30/2021 2:15:00 AM 6.75 44.15 0.188 7.04 10.62 11.02
3/30/2021 2:30:00 AM 6.69 44.042 0.188 7.04 10.23 11.03
3/30/2021 2:45:00 AM 6.63 43.934 0.179 7.06 10.21 11.04
3/30/2021 3:00:00 AM 6.57 43.826 0.188 7.07 10.5 11.05
3/30/2021 3:15:00 AM 6.51 43.718 0.188 7.06 10.01 11.06
3/30/2021 3:30:00 AM 6.46 43.628 0.188 7.06 9.82 11.07
3/30/2021 3:45:00 AM 6.4 43.52 0.188 7.05 10.45 11.08
3/30/2021 4:00:00 AM 6.34 43.412 0.188 7.06 10.16 11.1
3/30/2021 4:15:00 AM 6.29 43.322 0.188 7.05 9.98 11.1
3/30/2021 4:30:00 AM 6.24 43.232 0.188 7.05 9.77 11.11
3/30/2021 4:45:00 AM 6.18 43.124 0.188 7.06 9.82 11.12
3/30/2021 5:00:00 AM 6.13 43.034 0.188 7.05 10 11.13
3/30/2021 5:15:00 AM 6.09 42.962 0.188 7.06 9.56 11.14
3/30/2021 5:30:00 AM 6.04 42.872 0.188 7.06 9.33 11.15
3/30/2021 5:45:00 AM 5.99 42.782 0.188 7.07 9.22 11.16
3/30/2021 6:00:00 AM 5.94 42.692 0.188 7.06 9.79 11.17
3/30/2021 6:15:00 AM 5.9 42.62 0.188 7.05 9.39 11.18
3/30/2021 6:30:00 AM 5.86 42.548 0.188 7.05 9.15 11.18
3/30/2021 6:45:00 AM 5.81 42.458 0.188 7.04 9.14 11.19
3/30/2021 7:00:00 AM 5.77 42.386 0.189 7.05 9.35 11.2
3/30/2021 7:15:00 AM 5.73 42.314 0.189 7.05 8.96 11.23
3/30/2021 7:30:00 AM 5.7 42.26 0.189 7.05 8.91 11.26
3/30/2021 7:45:00 AM 5.67 42.206 0.189 7.05 8.9 11.29
3/30/2021 8:00:00 AM 5.66 42.188 0.189 7.07 8.78 11.35
3/30/2021 8:15:00 AM 5.66 42.188 0.189 7.08 8.98 11.41
3/30/2021 8:30:00 AM 5.66 42.188 0.189 7.08 8.68 11.46
3/30/2021 8:45:00 AM 5.68 42.224 0.189 7.09 8.65 11.51
3/30/2021 9:00:00 AM 5.73 42.314 0.189 7.1 8.47 11.57
3/30/2021 9:15:00 AM 5.82 42.476 0.189 7.1 8.3 11.63
3/30/2021 9:30:00 AM 5.92 42.656 0.189 7.12 8.1 11.67
3/30/2021 9:45:00 AM 6.04 42.872 0.189 7.14 8.26 11.7
3/30/2021 10:00:00 AM 6.17 43.106 0.189 7.13 7.95 11.73
3/30/2021 10:15:00 AM 6.32 43.376 0.189 7.15 8.24 11.74
3/30/2021 10:30:00 AM 6.48 43.664 0.189 7.15 7.93 11.77
3/30/2021 10:45:00 AM 6.66 43.988 0.189 7.15 7.84 11.78
3/30/2021 11:00:00 AM 6.84 44.312 0.189 7.16 7.97 11.79
3/30/2021 11:15:00 AM 7.01 44.618 0.189 7.16 7.72 11.8
3/30/2021 11:30:00 AM 7.2 44.96 0.189 7.16 7.46 11.81
3/30/2021 11:45:00 AM 7.38 45.284 0.189 7.17 7.52 11.81
3/30/2021 12:00:00 PM 7.56 45.608 0.189 7.17 7.4 11.82
3/30/2021 12:15:00 PM 7.75 45.95 0.189 7.17 7.15 11.82
3/30/2021 12:30:00 PM 7.93 46.274 0.189 7.18 7.52 11.82
3/30/2021 12:45:00 PM 8.11 46.598 0.189 7.17 7.45 11.82
3/30/2021 1:00:00 PM 8.3 46.94 0.189 7.18 7.32 11.82
3/30/2021 1:15:00 PM 8.47 47.246 0.189 7.18 7.25 11.82
3/30/2021 1:30:00 PM 8.65 47.57 0.189 7.16 7.26 11.81
3/30/2021 1:45:00 PM 8.82 47.876 0.189 7.17 7.22 11.81
3/30/2021 2:00:00 PM 9 48.2 0.189 7.19 7.44 11.8
3/30/2021 2:15:00 PM 9.15 48.47 0.189 7.18 7.1 11.8
3/30/2021 2:30:00 PM 9.31 48.758 0.189 7.2 7.11 11.8
3/30/2021 2:45:00 PM 9.46 49.028 0.189 7.2 6.97 11.79
3/30/2021 3:00:00 PM 9.59 49.262 0.189 7.2 7.16 11.78
3/30/2021 3:15:00 PM 9.72 49.496 0.189 7.2 7.19 11.77
3/30/2021 3:30:00 PM 9.79 49.622 0.189 7.2 6.99 11.75
3/30/2021 3:45:00 PM 9.86 49.748 0.189 7.2 10.3 11.74
3/30/2021 4:00:00 PM 9.92 49.856 0.189 7.19 7.03 11.73
3/30/2021 4:15:00 PM 9.96 49.928 0.189 7.18 6.99 11.71
3/30/2021 4:30:00 PM 9.97 49.946 0.189 7.18 7.31 11.68
3/30/2021 4:45:00 PM 9.96 49.928 0.189 7.17 6.87 11.67
3/30/2021 5:00:00 PM 9.93 49.874 0.189 7.17 6.74 11.65
3/30/2021 5:15:00 PM 9.88 49.784 0.189 7.17 7.09 11.62
3/30/2021 5:30:00 PM 9.84 49.712 0.19 7.16 7.09 11.59
3/30/2021 5:45:00 PM 9.77 49.586 0.189 7.16 6.93 11.56
3/30/2021 6:00:00 PM 9.7 49.46 0.19 7.16 6.95 11.52
3/30/2021 6:15:00 PM 9.6 49.28 0.19 7.14 6.77 11.45
3/30/2021 6:30:00 PM 9.49 49.082 0.19 7.13 6.9 11.38
3/30/2021 6:45:00 PM 9.39 48.902 0.19 7.12 6.75 11.32
3/30/2021 7:00:00 PM 9.32 48.776 0.19 7.12 6.83 11.27
3/30/2021 7:15:00 PM 9.24 48.632 0.19 7.12 6.75 11.21
3/30/2021 7:30:00 PM 9.15 48.47 0.191 7.1 6.8 11.13
3/30/2021 7:45:00 PM 9.07 48.326 0.191 7.09 6.69 11.06
3/30/2021 8:00:00 PM 9 48.2 0.191 7.07 6.9 10.99
3/30/2021 8:15:00 PM 8.94 48.092 0.191 7.07 6.65 10.94
3/30/2021 8:30:00 PM 8.89 48.002 0.191 7.06 7.06 10.9
3/30/2021 8:45:00 PM 8.85 47.93 0.191 7.06 6.95 10.87
3/30/2021 9:00:00 PM 8.83 47.894 0.191 7.06 6.9 10.84
3/30/2021 9:15:00 PM 8.81 47.858 0.191 7.05 7.05 10.82
3/30/2021 9:30:00 PM 8.8 47.84 0.191 7.05 6.75 10.79
3/30/2021 9:45:00 PM 8.8 47.84 0.191 7.05 7.05 10.76
3/30/2021 10:00:00 PM 8.8 47.84 0.191 7.05 6.84 10.74
3/30/2021 10:15:00 PM 8.8 47.84 0.191 7.05 7.15 10.72
3/30/2021 10:30:00 PM 8.79 47.822 0.191 7.05 7.25 10.7
3/30/2021 10:45:00 PM 8.78 47.804 0.191 7.03 6.97 10.68
3/30/2021 11:00:00 PM 8.77 47.786 0.191 7.03 7.04 10.66
3/30/2021 11:15:00 PM 8.77 47.786 0.191 7.04 6.93 10.65
3/30/2021 11:30:00 PM 8.75 47.75 0.191 7.03 6.9 10.62
3/30/2021 11:45:00 PM 8.74 47.732 0.191 7.03 6.84 10.61
3/31/2021 12:00:00 AM 8.72 47.696 0.191 7.04 6.93 10.6
3/31/2021 12:15:00 AM 8.71 47.678 0.191 7.03 6.91 10.59
3/31/2021 12:30:00 AM 8.69 47.642 0.192 7.02 7.26 10.56
3/31/2021 12:45:00 AM 8.68 47.624 0.191 7.02 6.91 10.55
3/31/2021 1:00:00 AM 8.66 47.588 0.192 7.01 6.97 10.54
3/31/2021 1:15:00 AM 8.64 47.552 0.192 7.02 6.93 10.54
3/31/2021 1:30:00 AM 8.62 47.516 0.192 7.03 7.08 10.54
3/31/2021 1:45:00 AM 8.6 47.48 0.192 7.03 7.06 10.53
3/31/2021 2:00:00 AM 8.58 47.444 0.192 7.02 7.06 10.53
3/31/2021 2:15:00 AM 8.55 47.39 0.192 7.02 6.85 10.53
3/31/2021 2:30:00 AM 8.53 47.354 0.192 7.02 6.96 10.53
3/31/2021 2:45:00 AM 8.5 47.3 0.192 7.01 7 10.52
3/31/2021 3:00:00 AM 8.47 47.246 0.192 7.01 7.1 10.52
3/31/2021 3:15:00 AM 8.45 47.21 0.192 7.02 6.9 10.52
3/31/2021 3:30:00 AM 8.42 47.156 0.192 7.02 6.94 10.51
3/31/2021 3:45:00 AM 8.4 47.12 0.192 7.01 6.77 10.52
3/31/2021 4:00:00 AM 8.38 47.084 0.192 7.02 6.9 10.51
3/31/2021 4:15:00 AM 8.35 47.03 0.192 7.01 7.22 10.51
3/31/2021 4:30:00 AM 8.33 46.994 0.192 7 6.9 10.51
3/31/2021 4:45:00 AM 8.31 46.958 0.192 7.01 7.13 10.5
3/31/2021 5:00:00 AM 8.29 46.922 0.192 7.01 6.82 10.5
3/31/2021 5:15:00 AM 8.27 46.886 0.192 7.01 6.96 10.5
3/31/2021 5:30:00 AM 8.25 46.85 0.192 7.01 7.14 10.5
3/31/2021 5:45:00 AM 8.22 46.796 0.192 7.01 6.99 10.5
3/31/2021 6:00:00 AM 8.2 46.76 0.192 7 6.94 10.5
3/31/2021 6:15:00 AM 8.19 46.742 0.192 7 6.65 10.49
3/31/2021 6:30:00 AM 8.18 46.724 0.193 7 6.77 10.49
3/31/2021 6:45:00 AM 8.17 46.706 0.192 7.01 6.81 10.48
3/31/2021 7:00:00 AM 8.17 46.706 0.192 7 7.07 10.48
3/31/2021 7:15:00 AM 8.16 46.688 0.192 7 6.7 10.49
3/31/2021 7:30:00 AM 8.16 46.688 0.192 7.01 6.72 10.49
3/31/2021 7:45:00 AM 8.17 46.706 0.192 7 6.74 10.5
3/31/2021 8:00:00 AM 8.18 46.724 0.192 7 6.78 10.51
3/31/2021 8:15:00 AM 8.18 46.724 0.192 7.01 7.05 10.52
3/31/2021 8:30:00 AM 8.2 46.76 0.192 7.01 7.38 10.53
3/31/2021 8:45:00 AM 8.22 46.796 0.194 7.03 10.47 10.55
3/31/2021 9:00:00 AM 8.24 46.832 0.193 7.04 11.17 10.55
3/31/2021 9:15:00 AM 8.25 46.85 0.195 7.03 11.21 10.56
3/31/2021 9:30:00 AM 8.27 46.886 0.195 7.04 12.18 10.55
3/31/2021 9:45:00 AM 8.3 46.94 0.192 7.06 13.66 10.57
3/31/2021 10:00:00 AM 8.32 46.976 0.191 7.06 11.8 10.63
3/31/2021 10:15:00 AM 8.34 47.012 0.191 7.06 11.28 10.63
3/31/2021 10:30:00 AM 8.36 47.048 0.19 7.06 10.56 10.67
3/31/2021 10:45:00 AM 8.39 47.102 0.19 7.06 10.2 10.72
3/31/2021 11:00:00 AM 8.41 47.138 0.191 7.05 9.19 10.72
3/31/2021 11:15:00 AM 8.43 47.174 0.191 7.05 8.2 10.75
3/31/2021 11:30:00 AM 8.47 47.246 0.191 7.06 8 10.8
3/31/2021 11:45:00 AM 8.51 47.318 0.191 7.06 7.69 10.85
3/31/2021 12:00:00 PM 8.56 47.408 0.191 7.08 7.52 10.88
3/31/2021 12:15:00 PM 8.59 47.462 0.191 7.07 7.16 10.9
3/31/2021 12:30:00 PM 8.63 47.534 0.191 7.08 7.24 10.92
3/31/2021 12:45:00 PM 8.7 47.66 0.191 7.09 7.18 10.99
3/31/2021 1:00:00 PM 8.74 47.732 0.191 7.1 7.36 11.01
3/31/2021 1:15:00 PM 8.79 47.822 0.191 7.1 7.25 11.02
3/31/2021 1:30:00 PM 8.84 47.912 0.191 7.11 7.08 11.05
3/31/2021 1:45:00 PM 8.87 47.966 0.191 7.11 7.28 11.05
3/31/2021 2:00:00 PM 8.92 48.056 0.194 7.13 7.65 11.09
3/31/2021 2:15:00 PM 8.96 48.128 0.195 7.13 7.78 11.09
3/31/2021 2:30:00 PM 8.98 48.164 0.195 7.12 7.76 11.04
3/31/2021 2:45:00 PM 8.97 48.146 0.193 7.11 7.73 10.99
3/31/2021 3:00:00 PM 8.97 48.146 0.192 7.1 7.64 10.96
3/31/2021 3:15:00 PM 8.96 48.128 0.191 7.1 7.15 10.92
3/31/2021 3:30:00 PM 8.97 48.146 0.19 7.1 7.28 10.9
3/31/2021 3:45:00 PM 8.98 48.164 0.19 7.09 7.27 10.9
3/31/2021 4:00:00 PM 8.98 48.164 0.189 7.1 7.77 10.88
3/31/2021 4:15:00 PM 9.01 48.218 0.19 7.11 7.9 10.92
3/31/2021 4:30:00 PM 9.01 48.218 0.19 7.11 7.89 10.88
3/31/2021 4:45:00 PM 9.04 48.272 0.189 7.11 7.87 10.92
3/31/2021 5:00:00 PM 9.06 48.308 0.188 7.11 7.9 10.97
3/31/2021 5:15:00 PM 9.1 48.38 0.188 7.12 7.63 11
3/31/2021 5:30:00 PM 9.12 48.416 0.188 7.13 7.92 11.01
3/31/2021 5:45:00 PM 9.14 48.452 0.187 7.14 8.02 11.03
3/31/2021 6:00:00 PM 9.12 48.416 0.187 7.12 8.18 10.96
3/31/2021 6:15:00 PM 9.09 48.362 0.187 7.1 8.16 10.88
3/31/2021 6:30:00 PM 9.05 48.29 0.187 7.1 8.36 10.81
3/31/2021 6:45:00 PM 9.01 48.218 0.187 7.1 8.47 10.75
3/31/2021 7:00:00 PM 8.98 48.164 0.187 7.09 9 10.71
3/31/2021 7:15:00 PM 8.94 48.092 0.187 7.1 8.83 10.67
3/31/2021 7:30:00 PM 8.91 48.038 0.186 7.08 9.01 10.64
3/31/2021 7:45:00 PM 8.87 47.966 0.186 7.08 9.51 10.62
3/31/2021 8:00:00 PM 8.83 47.894 0.185 7.08 9.27 10.61
3/31/2021 8:15:00 PM 8.8 47.84 0.184 7.07 9.47 10.61
3/31/2021 8:30:00 PM 8.77 47.786 0.182 7.07 9.83 10.6
3/31/2021 8:45:00 PM 8.75 47.75 0.182 7.07 10.24 10.6
3/31/2021 9:00:00 PM 8.72 47.696 0.181 7.06 10.67 10.59
3/31/2021 9:15:00 PM 8.7 47.66 0.18 7.06 11.12 10.58
3/31/2021 9:30:00 PM 8.68 47.624 0.179 7.06 11.28 10.57
3/31/2021 9:45:00 PM 8.66 47.588 0.178 7.05 11.68 10.56
3/31/2021 10:00:00 PM 8.64 47.552 0.177 7.05 11.93 10.55
3/31/2021 10:15:00 PM 8.61 47.498 0.177 7.05 11.95 10.55
3/31/2021 10:30:00 PM 8.58 47.444 0.176 7.05 12.36 10.55
3/31/2021 10:45:00 PM 8.54 47.372 0.176 7.05 11.98 10.55
3/31/2021 11:00:00 PM 8.51 47.318 0.176 7.05 12.07 10.56
3/31/2021 11:15:00 PM 8.47 47.246 0.176 7.05 11.93 10.56
3/31/2021 11:30:00 PM 8.43 47.174 0.175 7.04 12.08 10.56
3/31/2021 11:45:00 PM 8.37 47.066 0.175 7.05 11.95 10.56
4/1/2021 12:00:00 AM 8.31 46.958 0.175 7.05 11.93 10.57
4/1/2021 12:15:00 AM 8.24 46.832 0.175 7.05 12.75 10.58
4/1/2021 12:30:00 AM 8.17 46.706 0.175 7.05 12.54 10.59
4/1/2021 12:45:00 AM 8.09 46.562 0.176 7.05 12.38 10.61
4/1/2021 1:00:00 AM 8.02 46.436 0.176 7.05 12.38 10.61
4/1/2021 1:15:00 AM 7.98 46.364 0.176 7.05 12.28 10.62
4/1/2021 1:30:00 AM 7.93 46.274 0.176 7.05 12.39 10.62
4/1/2021 1:45:00 AM 7.89 46.202 0.175 7.05 12.2 10.62
4/1/2021 2:00:00 AM 7.87 46.166 0.175 7.05 12.21 10.62
4/1/2021 2:15:00 AM 7.84 46.112 0.175 7.04 12.21 10.62
4/1/2021 2:30:00 AM 7.8 46.04 0.175 7.05 12.27 10.63
4/1/2021 2:45:00 AM 7.76 45.968 0.175 7.04 12.03 10.63
4/1/2021 3:00:00 AM 7.73 45.914 0.175 7.04 11.93 10.63
4/1/2021 3:15:00 AM 7.69 45.842 0.175 7.04 11.94 10.63
4/1/2021 3:30:00 AM 7.67 45.806 0.175 7.04 11.66 10.64
4/1/2021 3:45:00 AM 7.64 45.752 0.175 7.04 11.73 10.65
4/1/2021 4:00:00 AM 7.6 45.68 0.176 7.04 11.66 10.65
4/1/2021 4:15:00 AM 7.57 45.626 0.176 7.05 11.5 10.66
4/1/2021 4:30:00 AM 7.54 45.572 0.176 7.04 11.39 10.66
4/1/2021 4:45:00 AM 7.52 45.536 0.176 7.04 12.03 10.67
4/1/2021 5:00:00 AM 7.5 45.5 0.176 7.04 11.49 10.67
4/1/2021 5:15:00 AM 7.47 45.446 0.176 7.05 11.5 10.67
4/1/2021 5:30:00 AM 7.44 45.392 0.176 7.05 11.5 10.68
4/1/2021 5:45:00 AM 7.4 45.32 0.176 7.05 11.33 10.69
4/1/2021 6:00:00 AM 7.37 45.266 0.177 7.05 11.12 10.69
4/1/2021 6:15:00 AM 7.34 45.212 0.177 7.05 11.72 10.7
4/1/2021 6:30:00 AM 7.31 45.158 0.177 7.05 11.28 10.71
4/1/2021 6:45:00 AM 7.28 45.104 0.176 7.06 11.41 10.71
4/1/2021 7:00:00 AM 7.23 45.014 0.177 7.05 11.41 10.72
4/1/2021 7:15:00 AM 7.21 44.978 0.177 7.06 11.56 10.72
4/1/2021 7:30:00 AM 7.18 44.924 0.177 7.05 11.68 10.74
4/1/2021 7:45:00 AM 7.13 44.834 0.177 7.06 11.14 10.75
4/1/2021 8:00:00 AM 7.07 44.726 0.177 7.06 11.27 10.78
4/1/2021 8:15:00 AM 7.01 44.618 0.178 7.06 11.45 10.81
4/1/2021 8:30:00 AM 6.99 44.582 0.178 7.07 11.03 10.85
4/1/2021 8:45:00 AM 6.99 44.582 0.178 7.08 11.05 10.91
4/1/2021 9:00:00 AM 6.95 44.51 0.178 7.08 10.96 10.94
4/1/2021 9:15:00 AM 6.93 44.474 0.178 7.08 10.86 10.95
4/1/2021 9:30:00 AM 6.93 44.474 0.178 7.08 10.86 11.02
4/1/2021 9:45:00 AM 6.96 44.528 0.178 7.1 10.5 11.08
4/1/2021 10:00:00 AM 6.9 44.42 0.178 7.1 10.39 11.09
4/1/2021 10:15:00 AM 6.8 44.24 0.178 7.1 10.72 11.13
4/1/2021 10:30:00 AM 6.75 44.15 0.18 7.1 11.09 11.19
4/1/2021 10:45:00 AM 6.7 44.06 0.182 7.11 10.79 11.22
4/1/2021 11:00:00 AM 6.66 43.988 0.182 7.11 11.12 11.25
4/1/2021 11:15:00 AM 6.63 43.934 0.183 7.12 10.88 11.31
4/1/2021 11:30:00 AM 6.64 43.952 0.182 7.14 10.73 11.36
4/1/2021 11:45:00 AM 6.64 43.952 0.182 7.14 10.57 11.39
4/1/2021 12:00:00 PM 6.59 43.862 0.181 7.14 10.26 11.42
4/1/2021 12:15:00 PM 6.56 43.808 0.184 7.15 11.01 11.46
4/1/2021 12:30:00 PM 6.6 43.88 0.184 7.16 10.66 11.5
4/1/2021 12:45:00 PM 6.6 43.88 0.185 7.16 10.68 11.52
4/1/2021 1:00:00 PM 6.6 43.88 0.183 7.16 10.67 11.55
4/1/2021 1:15:00 PM 6.63 43.934 0.182 7.18 10.38 11.59
4/1/2021 1:30:00 PM 6.67 44.006 0.18 7.18 10.48 11.61
4/1/2021 1:45:00 PM 6.74 44.132 0.179 7.18 10.14 11.64
4/1/2021 2:00:00 PM 6.77 44.186 0.178 7.19 10.21 11.67
4/1/2021 2:15:00 PM 6.79 44.222 0.178 7.19 10.09 11.68
4/1/2021 2:30:00 PM 6.77 44.186 0.178 7.18 10.34 11.69
4/1/2021 2:45:00 PM 6.67 44.006 0.178 7.17 10.04 11.66
4/1/2021 3:00:00 PM 6.55 43.79 0.178 7.17 9.92 11.65
4/1/2021 3:15:00 PM 6.5 43.7 0.177 7.18 10.05 11.67
4/1/2021 3:30:00 PM 6.47 43.646 0.177 7.18 10.21 11.7
4/1/2021 3:45:00 PM 6.44 43.592 0.177 7.18 9.99 11.73
4/1/2021 4:00:00 PM 6.41 43.538 0.177 7.19 9.84 11.76
4/1/2021 4:15:00 PM 6.35 43.43 0.178 7.19 9.98 11.78
4/1/2021 4:30:00 PM 6.35 43.43 0.177 7.2 9.66 11.82
4/1/2021 4:45:00 PM 6.35 43.43 0.178 7.2 9.96 11.83
4/1/2021 5:00:00 PM 6.33 43.394 0.178 7.2 9.85 11.81
4/1/2021 5:15:00 PM 6.31 43.358 0.178 7.2 9.4 11.83
4/1/2021 5:30:00 PM 6.22 43.196 0.178 7.19 9.78 11.82
4/1/2021 5:45:00 PM 6.14 43.052 0.178 7.18 9.79 11.79
4/1/2021 6:00:00 PM 6.07 42.926 0.178 7.17 9.71 11.78
4/1/2021 6:15:00 PM 6.03 42.854 0.178 7.17 9.66 11.77
4/1/2021 6:30:00 PM 5.97 42.746 0.178 7.16 9.38 11.77
4/1/2021 6:45:00 PM 5.9 42.62 0.178 7.17 9.36 11.76
4/1/2021 7:00:00 PM 5.8 42.44 0.178 7.16 9.26 11.75
4/1/2021 7:15:00 PM 5.7 42.26 0.178 7.15 8.96 11.73
4/1/2021 7:30:00 PM 5.63 42.134 0.178 7.15 9.04 11.71
4/1/2021 7:45:00 PM 5.56 42.008 0.178 7.14 9.35 11.69
4/1/2021 8:00:00 PM 5.49 41.882 0.178 7.14 9.23 11.67
4/1/2021 8:15:00 PM 5.43 41.774 0.178 7.12 9.46 11.65
4/1/2021 8:30:00 PM 5.36 41.648 0.178 7.12 9.26 11.64
4/1/2021 8:45:00 PM 5.3 41.54 0.178 7.11 9.31 11.64
4/1/2021 9:00:00 PM 5.25 41.45 0.179 7.11 9.26 11.64
4/1/2021 9:15:00 PM 5.21 41.378 0.179 7.1 9.33 11.64
4/1/2021 9:30:00 PM 5.17 41.306 0.178 7.1 9.23 11.65
4/1/2021 9:45:00 PM 5.13 41.234 0.179 7.1 9.07 11.65
4/1/2021 10:00:00 PM 5.08 41.144 0.179 7.1 9.2 11.66
4/1/2021 10:15:00 PM 5.02 41.036 0.179 7.1 9.15 11.66
4/1/2021 10:30:00 PM 4.95 40.91 0.179 7.09 9.04 11.67
4/1/2021 10:45:00 PM 4.9 40.82 0.179 7.09 9.59 11.67
4/1/2021 11:00:00 PM 4.83 40.694 0.179 7.08 8.95 11.69
4/1/2021 11:15:00 PM 4.8 40.64 0.179 7.09 8.86 11.7
4/1/2021 11:30:00 PM 4.76 40.568 0.179 7.09 8.88 11.72
4/1/2021 11:45:00 PM 4.7 40.46 0.179 7.09 8.81 11.73
4/2/2021 12:00:00 AM 4.65 40.37 0.179 7.09 8.81 11.74
4/2/2021 12:15:00 AM 4.61 40.298 0.179 7.09 8.91 11.74
4/2/2021 12:30:00 AM 4.55 40.19 0.179 7.08 8.86 11.75
4/2/2021 12:45:00 AM 4.5 40.1 0.18 7.08 8.69 11.76
4/2/2021 1:00:00 AM 4.46 40.028 0.179 7.08 8.6 11.78
4/2/2021 1:15:00 AM 4.42 39.956 0.18 7.08 8.69 11.78
4/2/2021 1:30:00 AM 4.36 39.848 0.18 7.08 8.9 11.8
4/2/2021 1:45:00 AM 4.3 39.74 0.18 7.08 8.64 11.8
4/2/2021 2:00:00 AM 4.24 39.632 0.18 7.08 8.85 11.82
4/2/2021 2:15:00 AM 4.18 39.524 0.18 7.08 8.58 11.84
4/2/2021 2:30:00 AM 4.13 39.434 0.18 7.08 8.43 11.85
4/2/2021 2:45:00 AM 4.09 39.362 0.18 7.08 8.48 11.86
4/2/2021 3:00:00 AM 4.05 39.29 0.18 7.08 8.58 11.87
4/2/2021 3:15:00 AM 4 39.2 0.18 7.08 8.34 11.88
4/2/2021 3:30:00 AM 3.93 39.074 0.18 7.08 8.52 11.9
4/2/2021 3:45:00 AM 3.87 38.966 0.18 7.08 8.26 11.91
4/2/2021 4:00:00 AM 3.82 38.876 0.18 7.08 8.7 11.92
4/2/2021 4:15:00 AM 3.77 38.786 0.18 7.08 8.1 11.93
4/2/2021 4:30:00 AM 3.72 38.696 0.18 7.08 8.67 11.96
4/2/2021 4:45:00 AM 3.66 38.588 0.181 7.08 8.13 11.97
4/2/2021 5:00:00 AM 3.61 38.498 0.181 7.08 8.05 11.98
4/2/2021 5:15:00 AM 3.56 38.408 0.181 7.08 7.93 11.99
4/2/2021 5:30:00 AM 3.51 38.318 0.181 7.08 8.12 12.02
4/2/2021 5:45:00 AM 3.45 38.21 0.181 7.07 7.95 12.02
4/2/2021 6:00:00 AM 3.41 38.138 0.181 7.08 7.84 12.05
4/2/2021 6:15:00 AM 3.37 38.066 0.181 7.08 7.8 12.05
4/2/2021 6:30:00 AM 3.32 37.976 0.181 7.08 7.76 12.08
4/2/2021 6:45:00 AM 3.27 37.886 0.181 7.08 7.86 12.09
4/2/2021 7:00:00 AM 3.22 37.796 0.181 7.08 7.84 12.11
4/2/2021 7:15:00 AM 3.18 37.724 0.181 7.08 7.9 12.14
4/2/2021 7:30:00 AM 3.14 37.652 0.181 7.08 7.65 12.18
4/2/2021 7:45:00 AM 3.1 37.58 0.182 7.09 7.65 12.23
4/2/2021 8:00:00 AM 3.07 37.526 0.181 7.1 7.68 12.29
4/2/2021 8:15:00 AM 3.04 37.472 0.182 7.09 7.55 12.34
4/2/2021 8:30:00 AM 3.02 37.436 0.182 7.1 7.46 12.4
4/2/2021 8:45:00 AM 3.03 37.454 0.181 7.11 7.4 12.45
4/2/2021 9:00:00 AM 3.06 37.508 0.182 7.12 7.28 12.5
4/2/2021 9:15:00 AM 3.1 37.58 0.182 7.12 7.23 12.54
4/2/2021 9:30:00 AM 3.14 37.652 0.182 7.13 7.22 12.58
4/2/2021 9:45:00 AM 3.2 37.76 0.182 7.14 7.26 12.61
4/2/2021 10:00:00 AM 3.3 37.94 0.181 7.14 7.12 12.65
4/2/2021 10:15:00 AM 3.39 38.102 0.182 7.15 7.26 12.67
4/2/2021 10:30:00 AM 3.49 38.282 0.182 7.15 7.19 12.68
4/2/2021 10:45:00 AM 3.62 38.516 0.182 7.15 6.93 12.7
4/2/2021 11:00:00 AM 3.73 38.714 0.182 7.15 7.03 12.71
4/2/2021 11:15:00 AM 3.86 38.948 0.182 7.16 7 12.72
4/2/2021 11:30:00 AM 3.99 39.182 0.182 7.16 6.72 12.73
4/2/2021 11:45:00 AM 4.11 39.398 0.182 7.16 6.79 12.73
4/2/2021 12:00:00 PM 4.24 39.632 0.182 7.16 6.92 12.75
4/2/2021 12:15:00 PM 4.37 39.866 0.182 7.16 6.62 12.75
4/2/2021 12:30:00 PM 4.5 40.1 0.182 7.17 6.67 12.75
4/2/2021 12:45:00 PM 4.63 40.334 0.182 7.17 6.49 12.75
4/2/2021 1:00:00 PM 4.74 40.532 0.182 7.18 6.59 12.76
4/2/2021 1:15:00 PM 4.86 40.748 0.182 7.18 6.36 12.77
4/2/2021 1:30:00 PM 4.98 40.964 0.182 7.19 6.42 12.77
4/2/2021 1:45:00 PM 5.11 41.198 0.182 7.18 6.33 12.77
4/2/2021 2:00:00 PM 5.22 41.396 0.182 7.2 6.28 12.76
4/2/2021 2:15:00 PM 5.36 41.648 0.181 7.19 6.31 12.75
4/2/2021 2:30:00 PM 5.49 41.882 0.182 7.21 6.21 12.75
4/2/2021 2:45:00 PM 5.58 42.044 0.181 7.19 6.41 12.74
4/2/2021 3:00:00 PM 5.68 42.224 0.182 7.2 6.28 12.73
4/2/2021 3:15:00 PM 5.76 42.368 0.182 7.2 6.27 12.72
4/2/2021 3:30:00 PM 5.83 42.494 0.182 7.2 6.39 12.71
4/2/2021 3:45:00 PM 5.86 42.548 0.182 7.2 6.39 12.7
4/2/2021 4:00:00 PM 5.88 42.584 0.182 7.19 6.26 12.69
4/2/2021 4:15:00 PM 5.88 42.584 0.181 7.19 6.27 12.68
4/2/2021 4:30:00 PM 5.88 42.584 0.182 7.2 6.15 12.67
4/2/2021 4:45:00 PM 5.86 42.548 0.182 7.19 6.15 12.66
4/2/2021 5:00:00 PM 5.8 42.44 0.182 7.2 6.34 12.65
4/2/2021 5:15:00 PM 5.72 42.296 0.182 7.18 6.19 12.63
4/2/2021 5:30:00 PM 5.6 42.08 0.182 7.18 6.22 12.62
4/2/2021 5:45:00 PM 5.49 41.882 0.182 7.18 6.05 12.6
4/2/2021 6:00:00 PM 5.37 41.666 0.182 7.18 6.03 12.59
4/2/2021 6:15:00 PM 5.25 41.45 0.182 7.17 6.08 12.56
4/2/2021 6:30:00 PM 5.14 41.252 0.182 7.15 6.05 12.52
4/2/2021 6:45:00 PM 5.01 41.018 0.182 7.15 5.86 12.49
4/2/2021 7:00:00 PM 4.9 40.82 0.182 7.14 6.07 12.46
4/2/2021 7:15:00 PM 4.82 40.676 0.183 7.14 5.79 12.43
4/2/2021 7:30:00 PM 4.74 40.532 0.182 7.13 6.08 12.39
4/2/2021 7:45:00 PM 4.67 40.406 0.183 7.12 5.84 12.35
4/2/2021 8:00:00 PM 4.6 40.28 0.183 7.12 5.9 12.3
4/2/2021 8:15:00 PM 4.56 40.208 0.183 7.11 5.71 12.27
4/2/2021 8:30:00 PM 4.53 40.154 0.183 7.11 5.91 12.24
4/2/2021 8:45:00 PM 4.51 40.118 0.183 7.1 5.98 12.21
4/2/2021 9:00:00 PM 4.49 40.082 0.183 7.1 5.97 12.19
4/2/2021 9:15:00 PM 4.49 40.082 0.183 7.09 5.9 12.17
4/2/2021 9:30:00 PM 4.47 40.046 0.183 7.09 6.08 12.16
4/2/2021 9:45:00 PM 4.45 40.01 0.183 7.09 6.33 12.15
4/2/2021 10:00:00 PM 4.42 39.956 0.183 7.09 6.16 12.14
4/2/2021 10:15:00 PM 4.4 39.92 0.183 7.08 6.16 12.13
4/2/2021 10:30:00 PM 4.37 39.866 0.183 7.09 6.13 12.12
4/2/2021 10:45:00 PM 4.34 39.812 0.183 7.08 6.15 12.11
4/2/2021 11:00:00 PM 4.31 39.758 0.183 7.08 5.99 12.11
4/2/2021 11:15:00 PM 4.28 39.704 0.183 7.08 6.43 12.1
4/2/2021 11:30:00 PM 4.24 39.632 0.183 7.07 6.1 12.1
4/2/2021 11:45:00 PM 4.2 39.56 0.184 7.07 6.14 12.1
4/3/2021 12:00:00 AM 4.16 39.488 0.184 7.07 6.18 12.09
4/3/2021 12:15:00 AM 4.12 39.416 0.184 7.06 6.13 12.09
4/3/2021 12:30:00 AM 4.07 39.326 0.184 7.07 6.25 12.1
4/3/2021 12:45:00 AM 4.03 39.254 0.184 7.07 6 12.1
4/3/2021 1:00:00 AM 3.98 39.164 0.184 7.07 6.05 12.1
4/3/2021 1:15:00 AM 3.93 39.074 0.184 7.07 6.14 12.11
4/3/2021 1:30:00 AM 3.88 38.984 0.184 7.07 6.13 12.12
4/3/2021 1:45:00 AM 3.83 38.894 0.184 7.07 5.98 12.12
4/3/2021 2:00:00 AM 3.79 38.822 0.184 7.07 5.87 12.13
4/3/2021 2:15:00 AM 3.74 38.732 0.184 7.07 6.11 12.13
4/3/2021 2:30:00 AM 3.7 38.66 0.184 7.07 5.94 12.14
4/3/2021 2:45:00 AM 3.65 38.57 0.184 7.07 6.17 12.15
4/3/2021 3:00:00 AM 3.6 38.48 0.184 7.07 6.14 12.16
4/3/2021 3:15:00 AM 3.56 38.408 0.184 7.07 6.13 12.16
4/3/2021 3:30:00 AM 3.51 38.318 0.185 7.07 6.18 12.17
4/3/2021 3:45:00 AM 3.48 38.264 0.184 7.07 6.3 12.17
4/3/2021 4:00:00 AM 3.44 38.192 0.184 7.07 6.2 12.19
4/3/2021 4:15:00 AM 3.41 38.138 0.185 7.06 6.13 12.19
4/3/2021 4:30:00 AM 3.37 38.066 0.185 7.07 6.14 12.19
4/3/2021 4:45:00 AM 3.33 37.994 0.185 7.06 6.07 12.2
4/3/2021 5:00:00 AM 3.3 37.94 0.185 7.06 5.97 12.2
4/3/2021 5:15:00 AM 3.27 37.886 0.184 7.06 5.99 12.21
4/3/2021 5:30:00 AM 3.24 37.832 0.185 7.06 5.83 12.22
4/3/2021 5:45:00 AM 3.21 37.778 0.184 7.06 5.99 12.22
4/3/2021 6:00:00 AM 3.18 37.724 0.185 7.06 5.99 12.23
4/3/2021 6:15:00 AM 3.15 37.67 0.184 7.06 6.13 12.24
4/3/2021 6:30:00 AM 3.12 37.616 0.185 7.06 5.84 12.25
4/3/2021 6:45:00 AM 3.1 37.58 0.184 7.06 5.79 12.25
4/3/2021 7:00:00 AM 3.07 37.526 0.184 7.06 5.92 12.27
4/3/2021 7:15:00 AM 3.05 37.49 0.185 7.06 5.62 12.29
4/3/2021 7:30:00 AM 3.03 37.454 0.184 7.07 5.66 12.32
4/3/2021 7:45:00 AM 3.02 37.436 0.185 7.08 5.76 12.37
4/3/2021 8:00:00 AM 3.03 37.454 0.184 7.08 5.61 12.43
4/3/2021 8:15:00 AM 3.04 37.472 0.185 7.09 5.73 12.48
4/3/2021 8:30:00 AM 3.06 37.508 0.185 7.1 5.89 12.53
4/3/2021 8:45:00 AM 3.1 37.58 0.184 7.12 6.01 12.58
4/3/2021 9:00:00 AM 3.17 37.706 0.184 7.11 5.79 12.62
4/3/2021 9:15:00 AM 3.24 37.832 0.184 7.13 5.79 12.65
4/3/2021 9:30:00 AM 3.34 38.012 0.184 7.13 5.59 12.68
4/3/2021 9:45:00 AM 3.43 38.174 0.184 7.14 5.68 12.71
4/3/2021 10:00:00 AM 3.53 38.354 0.184 7.15 5.77 12.72
4/3/2021 10:15:00 AM 3.66 38.588 0.184 7.15 5.7 12.74
4/3/2021 10:30:00 AM 3.8 38.84 0.184 7.16 5.61 12.75
4/3/2021 10:45:00 AM 3.95 39.11 0.184 7.16 5.91 12.76
4/3/2021 11:00:00 AM 4.11 39.398 0.184 7.16 5.71 12.76
4/3/2021 11:15:00 AM 4.26 39.668 0.184 7.16 5.9 12.76
4/3/2021 11:30:00 AM 4.43 39.974 0.184 7.16 5.79 12.76
4/3/2021 11:45:00 AM 4.55 40.19 0.184 7.16 5.67 12.75
4/3/2021 12:00:00 PM 4.71 40.478 0.184 7.16 5.78 12.76
4/3/2021 12:15:00 PM 4.84 40.712 0.183 7.16 5.69 12.76
4/3/2021 12:30:00 PM 4.95 40.91 0.183 7.17 5.72 12.76
4/3/2021 12:45:00 PM 5.1 41.18 0.183 7.18 5.66 12.76
4/3/2021 1:00:00 PM 5.21 41.378 0.184 7.18 5.73 12.75
4/3/2021 1:15:00 PM 5.33 41.594 0.183 7.18 5.64 12.75
4/3/2021 1:30:00 PM 5.51 41.918 0.183 7.18 5.65 12.74
4/3/2021 1:45:00 PM 5.59 42.062 0.183 7.18 6.1 12.73
4/3/2021 2:00:00 PM 5.7 42.26 0.183 7.19 5.62 12.73
4/3/2021 2:15:00 PM 5.76 42.368 0.183 7.18 5.5 12.73
4/3/2021 2:30:00 PM 5.89 42.602 0.184 7.19 5.51 12.72
4/3/2021 2:45:00 PM 6.03 42.854 0.183 7.19 5.68 12.7
4/3/2021 3:00:00 PM 6.08 42.944 0.183 7.2 5.58 12.68
4/3/2021 3:15:00 PM 6.1 42.98 0.184 7.18 5.53 12.67
4/3/2021 3:30:00 PM 6.23 43.214 0.183 7.19 5.88 12.66
4/3/2021 3:45:00 PM 6.22 43.196 0.183 7.18 5.45 12.64
4/3/2021 4:00:00 PM 6.29 43.322 0.184 7.18 5.28 12.64
4/3/2021 4:15:00 PM 6.32 43.376 0.183 7.18 5.47 12.63
4/3/2021 4:30:00 PM 6.33 43.394 0.183 7.18 5.29 12.61
4/3/2021 4:45:00 PM 6.31 43.358 0.184 7.17 5.48 12.59
4/3/2021 5:00:00 PM 6.27 43.286 0.184 7.17 5.38 12.58
4/3/2021 5:15:00 PM 6.22 43.196 0.183 7.17 5.38 12.58
4/3/2021 5:30:00 PM 6.19 43.142 0.184 7.18 5.39 12.56
4/3/2021 5:45:00 PM 6.14 43.052 0.184 7.18 5.44 12.54
4/3/2021 6:00:00 PM 6.09 42.962 0.184 7.18 5.45 12.53
4/3/2021 6:15:00 PM 6.01 42.818 0.184 7.17 5.29 12.49
4/3/2021 6:30:00 PM 5.95 42.71 0.184 7.15 5.47 12.46
4/3/2021 6:45:00 PM 5.89 42.602 0.184 7.15 5.47 12.41
4/3/2021 7:00:00 PM 5.83 42.494 0.184 7.14 5.43 12.33
4/3/2021 7:15:00 PM 5.77 42.386 0.184 7.13 5.32 12.26
4/3/2021 7:30:00 PM 5.73 42.314 0.184 7.12 5.32 12.18
4/3/2021 7:45:00 PM 5.7 42.26 0.185 7.11 5.46 12.12
4/3/2021 8:00:00 PM 5.68 42.224 0.185 7.1 5.48 12.06
4/3/2021 8:15:00 PM 5.65 42.17 0.185 7.09 5.46 12.01
4/3/2021 8:30:00 PM 5.64 42.152 0.185 7.08 5.58 11.97
4/3/2021 8:45:00 PM 5.63 42.134 0.185 7.08 5.87 11.94
4/3/2021 9:00:00 PM 5.62 42.116 0.185 7.07 5.75 11.91
4/3/2021 9:15:00 PM 5.61 42.098 0.184 7.07 5.99 11.89
4/3/2021 9:30:00 PM 5.6 42.08 0.185 7.06 5.69 11.87
4/3/2021 9:45:00 PM 5.59 42.062 0.184 7.06 5.84 11.85
4/3/2021 10:00:00 PM 5.59 42.062 0.185 7.06 6.2 11.83
4/3/2021 10:15:00 PM 5.58 42.044 0.184 7.06 5.92 11.81
4/3/2021 10:30:00 PM 5.58 42.044 0.184 7.05 5.99 11.79
4/3/2021 10:45:00 PM 5.58 42.044 0.184 7.05 6.09 11.77
4/3/2021 11:00:00 PM 5.58 42.044 0.184 7.04 6.12 11.75
4/3/2021 11:15:00 PM 5.57 42.026 0.185 7.05 6.05 11.74
4/3/2021 11:30:00 PM 5.56 42.008 0.185 7.04 6.15 11.73
4/3/2021 11:45:00 PM 5.54 41.972 0.184 7.04 5.96 11.71
4/4/2021 12:00:00 AM 5.53 41.954 0.184 7.04 5.92 11.7
4/4/2021 12:15:00 AM 5.5 41.9 0.185 7.04 6.02 11.69
4/4/2021 12:30:00 AM 5.47 41.846 0.185 7.03 6.01 11.68
4/4/2021 12:45:00 AM 5.44 41.792 0.185 7.04 6.1 11.67
4/4/2021 1:00:00 AM 5.41 41.738 0.185 7.04 6.51 11.66
4/4/2021 1:15:00 AM 5.37 41.666 0.185 7.03 6.16 11.66
4/4/2021 1:30:00 AM 5.34 41.612 0.185 7.03 6.05 11.65
4/4/2021 1:45:00 AM 5.31 41.558 0.185 7.04 6.22 11.65
4/4/2021 2:00:00 AM 5.29 41.522 0.185 7.04 6.35 11.65
4/4/2021 2:15:00 AM 5.27 41.486 0.185 7.04 6.32 11.64
4/4/2021 2:30:00 AM 5.26 41.468 0.185 7.05 6.92 11.64
4/4/2021 2:45:00 AM 5.24 41.432 0.185 7.04 6.62 11.64
4/4/2021 3:00:00 AM 5.24 41.432 0.185 7.04 6.49 11.63
4/4/2021 3:15:00 AM 5.23 41.414 0.185 7.03 6.17 11.63
4/4/2021 3:30:00 AM 5.22 41.396 0.185 7.04 6.61 11.62
4/4/2021 3:45:00 AM 5.22 41.396 0.185 7.04 6.62 11.61
4/4/2021 4:00:00 AM 5.2 41.36 0.185 7.04 6.83 11.6
4/4/2021 4:15:00 AM 5.18 41.324 0.185 7.05 6.56 11.6
4/4/2021 4:30:00 AM 5.15 41.27 0.185 7.03 6.82 11.59
4/4/2021 4:45:00 AM 5.12 41.216 0.185 7.03 6.79 11.59
4/4/2021 5:00:00 AM 5.1 41.18 0.185 7.03 6.92 11.58
4/4/2021 5:15:00 AM 5.08 41.144 0.185 7.03 6.89 11.59
4/4/2021 5:30:00 AM 5.06 41.108 0.185 7.03 6.88 11.58
4/4/2021 5:45:00 AM 5.04 41.072 0.185 7.04 6.84 11.58
4/4/2021 6:00:00 AM 5.02 41.036 0.186 7.04 6.97 11.58
4/4/2021 6:15:00 AM 5.01 41.018 0.186 7.04 6.83 11.58
4/4/2021 6:30:00 AM 4.99 40.982 0.185 7.04 6.89 11.57
4/4/2021 6:45:00 AM 4.98 40.964 0.186 7.04 6.9 11.58
4/4/2021 7:00:00 AM 4.97 40.946 0.185 7.04 7.02 11.58
4/4/2021 7:15:00 AM 4.97 40.946 0.186 7.04 7.21 11.6
4/4/2021 7:30:00 AM 4.97 40.946 0.186 7.05 7.31 11.64
4/4/2021 7:45:00 AM 4.98 40.964 0.185 7.06 7.19 11.69
4/4/2021 8:00:00 AM 5 41 0.185 7.06 7.42 11.75
4/4/2021 8:15:00 AM 5.02 41.036 0.185 7.07 6.98 11.81
4/4/2021 8:30:00 AM 5.07 41.126 0.185 7.09 6.85 11.86
4/4/2021 8:45:00 AM 5.12 41.216 0.185 7.09 6.42 11.91
4/4/2021 9:00:00 AM 5.2 41.36 0.185 7.1 6.28 11.95
4/4/2021 9:15:00 AM 5.29 41.522 0.185 7.11 6.23 11.98
4/4/2021 9:30:00 AM 5.4 41.72 0.185 7.13 5.98 12.01
4/4/2021 9:45:00 AM 5.53 41.954 0.185 7.13 5.92 12.03
4/4/2021 10:00:00 AM 5.67 42.206 0.185 7.14 5.69 12.05
4/4/2021 10:15:00 AM 5.82 42.476 0.185 7.14 5.59 12.07
4/4/2021 10:30:00 AM 6 42.8 0.185 7.16 5.86 12.07
4/4/2021 10:45:00 AM 6.17 43.106 0.185 7.16 5.4 12.08
4/4/2021 11:00:00 AM 6.36 43.448 0.185 7.16 5.46 12.08
4/4/2021 11:15:00 AM 6.54 43.772 0.185 7.16 5.4 12.07
4/4/2021 11:30:00 AM 6.73 44.114 0.185 7.16 5.51 12.08
4/4/2021 11:45:00 AM 6.91 44.438 0.185 7.18 5.47 12.07
4/4/2021 12:00:00 PM 7.09 44.762 0.185 7.18 5.34 12.08
4/4/2021 12:15:00 PM 7.28 45.104 0.185 7.18 5.53 12.07
4/4/2021 12:30:00 PM 7.46 45.428 0.185 7.18 5.3 12.07
4/4/2021 12:45:00 PM 7.64 45.752 0.185 7.19 5.31 12.07
4/4/2021 1:00:00 PM 7.81 46.058 0.184 7.19 5.2 12.05
4/4/2021 1:15:00 PM 7.97 46.346 0.184 7.2 5.35 12.04
4/4/2021 1:30:00 PM 8.15 46.67 0.184 7.2 5.37 12.04
4/4/2021 1:45:00 PM 8.33 46.994 0.184 7.21 5.28 12.03
4/4/2021 2:00:00 PM 8.48 47.264 0.184 7.2 5.27 12.02
4/4/2021 2:15:00 PM 8.63 47.534 0.184 7.21 5.14 12.01
4/4/2021 2:30:00 PM 8.79 47.822 0.185 7.2 5.13 11.98
4/4/2021 2:45:00 PM 8.93 48.074 0.184 7.2 5.1 11.97
4/4/2021 3:00:00 PM 9.07 48.326 0.185 7.21 5.4 11.95
4/4/2021 3:15:00 PM 9.19 48.542 0.184 7.21 5.15 11.93
4/4/2021 3:30:00 PM 9.3 48.74 0.184 7.21 5.25 11.91
4/4/2021 3:45:00 PM 9.38 48.884 0.184 7.2 5.24 11.88
4/4/2021 4:00:00 PM 9.45 49.01 0.185 7.21 5.15 11.87
4/4/2021 4:15:00 PM 9.49 49.082 0.184 7.2 5.32 11.84
4/4/2021 4:30:00 PM 9.51 49.118 0.185 7.2 5.27 11.81
4/4/2021 4:45:00 PM 9.52 49.136 0.184 7.2 5.28 11.78
4/4/2021 5:00:00 PM 9.5 49.1 0.185 7.19 5.2 11.75
4/4/2021 5:15:00 PM 9.47 49.046 0.185 7.19 5.34 11.72
4/4/2021 5:30:00 PM 9.41 48.938 0.185 7.18 5.27 11.69
4/4/2021 5:45:00 PM 9.32 48.776 0.185 7.17 5.42 11.66
4/4/2021 6:00:00 PM 9.21 48.578 0.185 7.17 5.3 11.62
4/4/2021 6:15:00 PM 9.1 48.38 0.185 7.14 5.61 11.56
4/4/2021 6:30:00 PM 8.98 48.164 0.185 7.12 5.29 11.5
4/4/2021 6:45:00 PM 8.88 47.984 0.185 7.11 5.13 11.44
4/4/2021 7:00:00 PM 8.79 47.822 0.185 7.11 5.34 11.38
4/4/2021 7:15:00 PM 8.71 47.678 0.186 7.11 5.22 11.32
4/4/2021 7:30:00 PM 8.63 47.534 0.185 7.1 5.34 11.25
4/4/2021 7:45:00 PM 8.56 47.408 0.186 7.09 5.45 11.18
4/4/2021 8:00:00 PM 8.5 47.3 0.186 7.08 5.36 11.12
4/4/2021 8:15:00 PM 8.45 47.21 0.186 7.07 5.53 11.07
4/4/2021 8:30:00 PM 8.41 47.138 0.186 7.06 5.56 11.03
4/4/2021 8:45:00 PM 8.38 47.084 0.186 7.06 5.56 10.99
4/4/2021 9:00:00 PM 8.36 47.048 0.186 7.06 5.67 10.96
4/4/2021 9:15:00 PM 8.34 47.012 0.186 7.05 5.57 10.93
4/4/2021 9:30:00 PM 8.33 46.994 0.187 7.04 5.7 10.9
4/4/2021 9:45:00 PM 8.31 46.958 0.186 7.04 5.77 10.88
4/4/2021 10:00:00 PM 8.29 46.922 0.187 7.03 5.66 10.86
4/4/2021 10:15:00 PM 8.28 46.904 0.186 7.04 5.93 10.84
4/4/2021 10:30:00 PM 8.26 46.868 0.187 7.03 5.9 10.82
4/4/2021 10:45:00 PM 8.23 46.814 0.187 7.03 5.91 10.8
4/4/2021 11:00:00 PM 8.21 46.778 0.187 7.02 5.9 10.79
4/4/2021 11:15:00 PM 8.17 46.706 0.187 7.03 5.67 10.78
4/4/2021 11:30:00 PM 8.14 46.652 0.187 7.03 5.84 10.77
4/4/2021 11:45:00 PM 8.11 46.598 0.187 7.02 5.91 10.76
4/5/2021 12:00:00 AM 8.07 46.526 0.187 7.02 5.76 10.75
4/5/2021 12:15:00 AM 8.03 46.454 0.187 7.02 5.99 10.74
4/5/2021 12:30:00 AM 7.98 46.364 0.187 7.02 5.91 10.74
4/5/2021 12:45:00 AM 7.94 46.292 0.187 7.02 6.1 10.74
4/5/2021 1:00:00 AM 7.89 46.202 0.188 7.02 6.17 10.74
4/5/2021 1:15:00 AM 7.84 46.112 0.187 7.02 6.15 10.73
4/5/2021 1:30:00 AM 7.79 46.022 0.188 7.02 6.18 10.73
4/5/2021 1:45:00 AM 7.74 45.932 0.188 7.01 6.32 10.74
4/5/2021 2:00:00 AM 7.69 45.842 0.188 7.02 6.15 10.74
4/5/2021 2:15:00 AM 7.63 45.734 0.188 7.02 6.33 10.74
4/5/2021 2:30:00 AM 7.58 45.644 0.188 7.02 6.4 10.74
4/5/2021 2:45:00 AM 7.52 45.536 0.188 7.02 6.3 10.75
4/5/2021 3:00:00 AM 7.46 45.428 0.188 7.02 6.34 10.76
4/5/2021 3:15:00 AM 7.41 45.338 0.189 7.01 6.17 10.77
4/5/2021 3:30:00 AM 7.35 45.23 0.189 7.02 6.08 10.77
4/5/2021 3:45:00 AM 7.3 45.14 0.189 7.01 6.35 10.78
4/5/2021 4:00:00 AM 7.25 45.05 0.189 7.02 6.38 10.78
4/5/2021 4:15:00 AM 7.19 44.942 0.189 7.02 6.47 10.79
4/5/2021 4:30:00 AM 7.14 44.852 0.189 7.02 6.41 10.8
4/5/2021 4:45:00 AM 7.09 44.762 0.189 7.02 6.29 10.81
4/5/2021 5:00:00 AM 7.04 44.672 0.189 7.03 6.36 10.81
4/5/2021 5:15:00 AM 6.99 44.582 0.189 7.02 6.4 10.82
4/5/2021 5:30:00 AM 6.94 44.492 0.189 7.02 6.11 10.83
4/5/2021 5:45:00 AM 6.89 44.402 0.189 7.02 6.15 10.84
4/5/2021 6:00:00 AM 6.84 44.312 0.19 7.02 6.19 10.84
4/5/2021 6:15:00 AM 6.79 44.222 0.19 7.02 6.23 10.86
4/5/2021 6:30:00 AM 6.75 44.15 0.19 7.02 6.26 10.86
4/5/2021 6:45:00 AM 6.71 44.078 0.19 7.02 6.03 10.88
4/5/2021 7:00:00 AM 6.67 44.006 0.19 7.02 5.77 10.89
4/5/2021 7:15:00 AM 6.63 43.934 0.19 7.03 5.7 10.93
4/5/2021 7:30:00 AM 6.6 43.88 0.19 7.04 5.76 10.97
4/5/2021 7:45:00 AM 6.58 43.844 0.19 7.05 5.73 11.03
4/5/2021 8:00:00 AM 6.58 43.844 0.19 7.06 5.67 11.12
4/5/2021 8:15:00 AM 6.58 43.844 0.19 7.07 5.58 11.2
4/5/2021 8:30:00 AM 6.6 43.88 0.19 7.08 5.54 11.27
4/5/2021 8:45:00 AM 6.64 43.952 0.19 7.09 5.49 11.34
4/5/2021 9:00:00 AM 6.7 44.06 0.19 7.09 5.47 11.4
4/5/2021 9:15:00 AM 6.79 44.222 0.19 7.1 5.84 11.45
4/5/2021 9:30:00 AM 6.9 44.42 0.19 7.11 5.52 11.5
4/5/2021 9:45:00 AM 7.02 44.636 0.19 7.13 5.44 11.53
4/5/2021 10:00:00 AM 7.17 44.906 0.19 7.13 5.51 11.56
4/5/2021 10:15:00 AM 7.33 45.194 0.19 7.15 5.86 11.6
4/5/2021 10:30:00 AM 7.49 45.482 0.19 7.16 5.67 11.61
4/5/2021 10:45:00 AM 7.67 45.806 0.19 7.16 5.66 11.64
4/5/2021 11:00:00 AM 7.85 46.13 0.189 7.15 5.68 11.64
4/5/2021 11:15:00 AM 8.02 46.436 0.19 7.15 5.67 11.66
4/5/2021 11:30:00 AM 8.19 46.742 0.189 7.16 6.13 11.67
4/5/2021 11:45:00 AM 8.38 47.084 0.19 7.17 5.59 11.68
4/5/2021 12:00:00 PM 8.55 47.39 0.189 7.18 5.71 11.69
4/5/2021 12:15:00 PM 8.73 47.714 0.189 7.18 5.56 11.69
4/5/2021 12:30:00 PM 8.88 47.984 0.19 7.18 5.6 11.7
4/5/2021 12:45:00 PM 9.01 48.218 0.19 7.17 5.64 11.7
4/5/2021 1:00:00 PM 9.15 48.47 0.19 7.19 5.6 11.71
4/5/2021 1:15:00 PM 9.33 48.794 0.189 7.19 5.54 11.72
4/5/2021 1:30:00 PM 9.5 49.1 0.189 7.2 5.59 11.73
4/5/2021 1:45:00 PM 9.65 49.37 0.19 7.21 5.53 11.73
4/5/2021 2:00:00 PM 9.8 49.64 0.189 7.2 5.53 11.73
4/5/2021 2:15:00 PM 9.96 49.928 0.189 7.2 5.53 11.72
4/5/2021 2:30:00 PM 10.12 50.216 0.189 7.21 5.65 11.73
4/5/2021 2:45:00 PM 10.26 50.468 0.19 7.21 5.68 11.72
4/5/2021 3:00:00 PM 10.34 50.612 0.189 7.22 5.47 11.7
4/5/2021 3:15:00 PM 10.39 50.702 0.189 7.21 5.41 11.68
4/5/2021 3:30:00 PM 10.43 50.774 0.189 7.21 5.39 11.68
4/5/2021 3:45:00 PM 10.52 50.936 0.189 7.22 5.26 11.68
4/5/2021 4:00:00 PM 10.6 51.08 0.19 7.23 5.33 11.66
4/5/2021 4:15:00 PM 10.69 51.242 0.189 7.23 5.43 11.64
4/5/2021 4:30:00 PM 10.65 51.17 0.19 7.22 5.47 11.6
4/5/2021 4:45:00 PM 10.6 51.08 0.189 7.21 5.58 11.58
4/5/2021 5:00:00 PM 10.52 50.936 0.19 7.21 5.24 11.55
4/5/2021 5:15:00 PM 10.41 50.738 0.19 7.2 5.17 11.5
4/5/2021 5:30:00 PM 10.31 50.558 0.19 7.18 5.2 11.44
4/5/2021 5:45:00 PM 10.23 50.414 0.19 7.17 5.32 11.37
4/5/2021 6:00:00 PM 10.15 50.27 0.19 7.17 5.22 11.3
4/5/2021 6:15:00 PM 10.08 50.144 0.19 7.14 5.44 11.24
4/5/2021 6:30:00 PM 10.03 50.054 0.19 7.13 5.21 11.21
4/5/2021 6:45:00 PM 9.97 49.946 0.19 7.13 5.3 11.17
4/5/2021 7:00:00 PM 9.92 49.856 0.19 7.12 5.28 11.07
4/5/2021 7:15:00 PM 9.86 49.748 0.191 7.11 5.25 10.99
4/5/2021 7:30:00 PM 9.79 49.622 0.19 7.1 5.39 10.92
4/5/2021 7:45:00 PM 9.73 49.514 0.191 7.08 5.36 10.84
4/5/2021 8:00:00 PM 9.69 49.442 0.191 7.06 5.38 10.76
4/5/2021 8:15:00 PM 9.65 49.37 0.191 7.06 5.56 10.71
4/5/2021 8:30:00 PM 9.62 49.316 0.191 7.05 5.62 10.67
4/5/2021 8:45:00 PM 9.6 49.28 0.191 7.05 5.63 10.64
4/5/2021 9:00:00 PM 9.58 49.244 0.191 7.04 5.77 10.61
4/5/2021 9:15:00 PM 9.57 49.226 0.191 7.04 5.79 10.57
4/5/2021 9:30:00 PM 9.57 49.226 0.191 7.03 5.98 10.55
4/5/2021 9:45:00 PM 9.57 49.226 0.191 7.03 6.01 10.52
4/5/2021 10:00:00 PM 9.57 49.226 0.191 7.03 5.88 10.49
4/5/2021 10:15:00 PM 9.58 49.244 0.191 7.02 5.87 10.47
4/5/2021 10:30:00 PM 9.58 49.244 0.191 7.01 5.96 10.44
4/5/2021 10:45:00 PM 9.57 49.226 0.191 7.01 5.98 10.42
4/5/2021 11:00:00 PM 9.55 49.19 0.191 7 6.15 10.39
4/5/2021 11:15:00 PM 9.54 49.172 0.191 7 5.68 10.39
4/5/2021 11:30:00 PM 9.52 49.136 0.191 7 5.94 10.37
4/5/2021 11:45:00 PM 9.49 49.082 0.191 6.99 5.8 10.36
4/6/2021 12:00:00 AM 9.45 49.01 0.191 6.98 5.76 10.34
4/6/2021 12:15:00 AM 9.43 48.974 0.192 6.99 5.84 10.33
4/6/2021 12:30:00 AM 9.41 48.938 0.192 7 5.69 10.33
4/6/2021 12:45:00 AM 9.4 48.92 0.192 6.99 5.96 10.32
4/6/2021 1:00:00 AM 9.38 48.884 0.192 6.99 5.73 10.31
4/6/2021 1:15:00 AM 9.35 48.83 0.192 6.99 5.82 10.31
4/6/2021 1:30:00 AM 9.31 48.758 0.192 6.99 6.26 10.29
4/6/2021 1:45:00 AM 9.26 48.668 0.192 6.99 5.92 10.29
4/6/2021 2:00:00 AM 9.21 48.578 0.192 6.98 6.02 10.28
4/6/2021 2:15:00 AM 9.17 48.506 0.192 6.98 6.44 10.29
4/6/2021 2:30:00 AM 9.12 48.416 0.192 6.98 6.01 10.29
4/6/2021 2:45:00 AM 9.07 48.326 0.192 6.98 6.06 10.29
4/6/2021 3:00:00 AM 9.02 48.236 0.192 6.99 6.09 10.29
4/6/2021 3:15:00 AM 8.99 48.182 0.193 6.99 6.33 10.3
4/6/2021 3:30:00 AM 8.94 48.092 0.193 6.99 6.1 10.3
4/6/2021 3:45:00 AM 8.9 48.02 0.193 6.99 6.16 10.3
4/6/2021 4:00:00 AM 8.85 47.93 0.193 6.99 6.07 10.31
4/6/2021 4:15:00 AM 8.8 47.84 0.193 6.99 5.83 10.31
4/6/2021 4:30:00 AM 8.75 47.75 0.193 6.99 6.08 10.32
4/6/2021 4:45:00 AM 8.7 47.66 0.193 6.99 6.03 10.32
4/6/2021 5:00:00 AM 8.65 47.57 0.193 6.99 6.09 10.33
4/6/2021 5:15:00 AM 8.6 47.48 0.194 6.99 6.02 10.33
4/6/2021 5:30:00 AM 8.55 47.39 0.194 6.99 5.83 10.34
4/6/2021 5:45:00 AM 8.52 47.336 0.194 7 5.95 10.35
4/6/2021 6:00:00 AM 8.49 47.282 0.194 7 6.1 10.35
4/6/2021 6:15:00 AM 8.47 47.246 0.194 7 5.82 10.35
4/6/2021 6:30:00 AM 8.45 47.21 0.194 7 5.79 10.36
4/6/2021 6:45:00 AM 8.43 47.174 0.194 7 5.88 10.37
4/6/2021 7:00:00 AM 8.4 47.12 0.194 7 6.01 10.38
4/6/2021 7:15:00 AM 8.37 47.066 0.195 7 5.77 10.42
4/6/2021 7:30:00 AM 8.35 47.03 0.195 7.01 5.44 10.48
4/6/2021 7:45:00 AM 8.33 46.994 0.195 7.02 5.47 10.57
4/6/2021 8:00:00 AM 8.33 46.994 0.195 7.04 5.5 10.66
4/6/2021 8:15:00 AM 8.34 47.012 0.195 7.05 5.55 10.76
4/6/2021 8:30:00 AM 8.37 47.066 0.195 7.06 5.58 10.85
4/6/2021 8:45:00 AM 8.41 47.138 0.194 7.07 5.47 10.93
4/6/2021 9:00:00 AM 8.48 47.264 0.194 7.09 5.58 11
4/6/2021 9:15:00 AM 8.51 47.318 0.195 7.1 5.36 11.03
4/6/2021 9:30:00 AM 8.62 47.516 0.194 7.11 5.65 11.09
4/6/2021 9:45:00 AM 8.73 47.714 0.195 7.12 5.53 11.14
4/6/2021 10:00:00 AM 8.87 47.966 0.194 7.13 5.26 11.18
4/6/2021 10:15:00 AM 9.04 48.272 0.194 7.13 5.22 11.22
4/6/2021 10:30:00 AM 9.22 48.596 0.194 7.14 5.38 11.25
4/6/2021 10:45:00 AM 9.4 48.92 0.194 7.15 5.31 11.28
4/6/2021 11:00:00 AM 9.59 49.262 0.194 7.16 5.28 11.3
4/6/2021 11:15:00 AM 9.77 49.586 0.194 7.17 5.25 11.32
4/6/2021 11:30:00 AM 9.96 49.928 0.194 7.17 5.86 11.34
4/6/2021 11:45:00 AM 10.13 50.234 0.194 7.18 5.21 11.35
4/6/2021 12:00:00 PM 10.3 50.54 0.194 7.18 5.49 11.37
4/6/2021 12:15:00 PM 10.46 50.828 0.194 7.19 5.32 11.37
4/6/2021 12:30:00 PM 10.67 51.206 0.195 7.21 5.23 11.4
4/6/2021 12:45:00 PM 10.87 51.566 0.194 7.21 5.19 11.4
4/6/2021 1:00:00 PM 11.06 51.908 0.194 7.22 5.05 11.4
4/6/2021 1:15:00 PM 11.26 52.268 0.194 7.23 4.95 11.4
4/6/2021 1:30:00 PM 11.44 52.592 0.194 7.23 5.14 11.4
4/6/2021 1:45:00 PM 11.62 52.916 0.194 7.24 5.22 11.38
4/6/2021 2:00:00 PM 11.82 53.276 0.194 7.24 5.07 11.39
4/6/2021 2:15:00 PM 11.96 53.528 0.194 7.24 5.07 11.37
4/6/2021 2:30:00 PM 12.15 53.87 0.194 7.24 5.88 11.36
4/6/2021 2:45:00 PM 12.34 54.212 0.194 7.26 4.95 11.36
4/6/2021 3:00:00 PM 12.37 54.266 0.194 7.25 6.39 11.3
4/6/2021 3:15:00 PM 12.51 54.518 0.194 7.26 5.2 11.31
4/6/2021 3:30:00 PM 12.57 54.626 0.194 7.25 5.28 11.28
4/6/2021 3:45:00 PM 12.76 54.968 0.194 7.27 5.26 11.29
4/6/2021 4:00:00 PM 12.74 54.932 0.194 7.24 5.3 11.24
4/6/2021 4:15:00 PM 12.7 54.86 0.194 7.24 5.06 11.19
4/6/2021 4:30:00 PM 12.73 54.914 0.194 7.23 5.31 11.16
4/6/2021 4:45:00 PM 12.7 54.86 0.194 7.22 5.3 11.09
4/6/2021 5:00:00 PM 12.72 54.896 0.194 7.21 5.41 11.05
4/6/2021 5:15:00 PM 12.67 54.806 0.194 7.2 5.29 11.03
4/6/2021 5:30:00 PM 12.63 54.734 0.195 7.2 5.1 11.01
4/6/2021 5:45:00 PM 12.55 54.59 0.195 7.19 5.25 10.94
4/6/2021 6:00:00 PM 12.46 54.428 0.194 7.17 5.37 10.88
4/6/2021 6:15:00 PM 12.37 54.266 0.194 7.15 6.14 10.8
4/6/2021 6:30:00 PM 12.29 54.122 0.195 7.14 5.28 10.74
4/6/2021 6:45:00 PM 12.23 54.014 0.195 7.13 5.15 10.69
4/6/2021 7:00:00 PM 12.15 53.87 0.195 7.12 5.14 10.61
4/6/2021 7:15:00 PM 12.06 53.708 0.195 7.1 5.24 10.51
4/6/2021 7:30:00 PM 11.98 53.564 0.195 7.08 5.39 10.41
4/6/2021 7:45:00 PM 11.9 53.42 0.196 7.07 5.13 10.32
4/6/2021 8:00:00 PM 11.82 53.276 0.195 7.04 5.44 10.23
4/6/2021 8:15:00 PM 11.75 53.15 0.196 7.02 5.45 10.16
4/6/2021 8:30:00 PM 11.68 53.024 0.196 7.01 5.85 10.1
4/6/2021 8:45:00 PM 11.63 52.934 0.196 7.01 5.45 10.05
4/6/2021 9:00:00 PM 11.57 52.826 0.196 7.01 5.52 10.02
4/6/2021 9:15:00 PM 11.53 52.754 0.196 7.01 5.69 9.99
4/6/2021 9:30:00 PM 11.49 52.682 0.196 6.99 5.71 9.96
4/6/2021 9:45:00 PM 11.45 52.61 0.196 6.99 5.59 9.93
4/6/2021 10:00:00 PM 11.43 52.574 0.196 6.99 5.77 9.91
4/6/2021 10:15:00 PM 11.41 52.538 0.196 6.99 5.6 9.9
4/6/2021 10:30:00 PM 11.4 52.52 0.196 6.99 5.56 9.87
4/6/2021 10:45:00 PM 11.38 52.484 0.196 6.99 5.71 9.85
4/6/2021 11:00:00 PM 11.36 52.448 0.196 6.98 5.62 9.84
4/6/2021 11:15:00 PM 11.34 52.412 0.196 6.98 5.73 9.83
4/6/2021 11:30:00 PM 11.32 52.376 0.196 6.98 5.9 9.81
4/6/2021 11:45:00 PM 11.32 52.376 0.196 6.98 5.96 9.79
4/7/2021 12:00:00 AM 11.3 52.34 0.197 6.97 5.64 9.78
4/7/2021 12:15:00 AM 11.28 52.304 0.196 6.98 5.62 9.77
4/7/2021 12:30:00 AM 11.27 52.286 0.197 6.98 5.7 9.75
4/7/2021 12:45:00 AM 11.27 52.286 0.197 6.98 5.83 9.73
4/7/2021 1:00:00 AM 11.26 52.268 0.197 6.98 5.71 9.73
4/7/2021 1:15:00 AM 11.25 52.25 0.197 6.97 5.87 9.72
4/7/2021 1:30:00 AM 11.23 52.214 0.197 6.96 6.02 9.71
4/7/2021 1:45:00 AM 11.2 52.16 0.197 6.96 5.97 9.7
4/7/2021 2:00:00 AM 11.16 52.088 0.197 6.96 5.62 9.7
4/7/2021 2:15:00 AM 11.11 51.998 0.197 6.96 5.93 9.69
4/7/2021 2:30:00 AM 11.07 51.926 0.197 6.96 5.83 9.68
4/7/2021 2:45:00 AM 11.03 51.854 0.197 6.95 6.55 9.68
4/7/2021 3:00:00 AM 10.98 51.764 0.198 6.95 5.83 9.68
4/7/2021 3:15:00 AM 10.93 51.674 0.198 6.95 5.96 9.68
4/7/2021 3:30:00 AM 10.89 51.602 0.197 6.95 5.99 9.69
4/7/2021 3:45:00 AM 10.83 51.494 0.198 6.95 5.85 9.69
4/7/2021 4:00:00 AM 10.78 51.404 0.198 6.95 5.86 9.69
4/7/2021 4:15:00 AM 10.74 51.332 0.198 6.96 5.8 9.7
4/7/2021 4:30:00 AM 10.69 51.242 0.198 6.95 5.94 9.7
4/7/2021 4:45:00 AM 10.64 51.152 0.198 6.95 6.11 9.71
4/7/2021 5:00:00 AM 10.59 51.062 0.198 6.95 5.98 9.72
4/7/2021 5:15:00 AM 10.54 50.972 0.198 6.96 5.93 9.72
4/7/2021 5:30:00 AM 10.49 50.882 0.199 6.96 5.94 9.73
4/7/2021 5:45:00 AM 10.44 50.792 0.199 6.96 5.82 9.74
4/7/2021 6:00:00 AM 10.39 50.702 0.199 6.96 5.73 9.75
4/7/2021 6:15:00 AM 10.35 50.63 0.199 6.96 6 9.75
4/7/2021 6:30:00 AM 10.3 50.54 0.199 6.96 5.79 9.75
4/7/2021 6:45:00 AM 10.26 50.468 0.199 6.96 6.05 9.76
4/7/2021 7:00:00 AM 10.22 50.396 0.199 6.96 5.96 9.79
4/7/2021 7:15:00 AM 10.18 50.324 0.199 6.96 5.98 9.82
4/7/2021 7:30:00 AM 10.14 50.252 0.2 6.97 5.66 9.89
4/7/2021 7:45:00 AM 10.12 50.216 0.199 6.98 5.75 9.96
4/7/2021 8:00:00 AM 10.12 50.216 0.199 6.99 5.68 10.07
4/7/2021 8:15:00 AM 10.12 50.216 0.199 7.01 5.78 10.17
4/7/2021 8:30:00 AM 10.15 50.27 0.2 7.03 5.58 10.28
4/7/2021 8:45:00 AM 10.2 50.36 0.199 7.04 5.73 10.38
4/7/2021 9:00:00 AM 10.31 50.558 0.199 7.06 5.58 10.49
4/7/2021 9:15:00 AM 10.42 50.756 0.199 7.08 5.46 10.57
4/7/2021 9:30:00 AM 10.54 50.972 0.2 7.1 5.44 10.64
4/7/2021 9:45:00 AM 10.69 51.242 0.199 7.11 5.39 10.69
4/7/2021 10:00:00 AM 10.82 51.476 0.199 7.12 6.09 10.74
4/7/2021 10:15:00 AM 10.9 51.62 0.199 7.12 5.32 10.76
4/7/2021 10:30:00 AM 11.03 51.854 0.199 7.13 5.43 10.8
4/7/2021 10:45:00 AM 11.11 51.998 0.199 7.13 5.31 10.82
4/7/2021 11:00:00 AM 11.17 52.106 0.2 7.13 5.66 10.84
4/7/2021 11:15:00 AM 11.17 52.106 0.2 7.13 5.32 10.81
4/7/2021 11:30:00 AM 11.18 52.124 0.2 7.13 5.33 10.82
4/7/2021 11:45:00 AM 11.15 52.07 0.2 7.11 5.35 10.76
4/7/2021 12:00:00 PM 11.19 52.142 0.2 7.13 5.26 10.83
4/7/2021 12:15:00 PM 11.3 52.34 0.199 7.14 5.39 10.9
4/7/2021 12:30:00 PM 11.43 52.574 0.2 7.15 5.25 10.96
4/7/2021 12:45:00 PM 11.68 53.024 0.2 7.16 5.36 10.98
4/7/2021 1:00:00 PM 11.97 53.546 0.2 7.17 5.46 11.04
4/7/2021 1:15:00 PM 12.11 53.798 0.2 7.18 5.2 11.03
4/7/2021 1:30:00 PM 12.42 54.356 0.2 7.2 5.28 11.07
4/7/2021 1:45:00 PM 12.66 54.788 0.2 7.22 5.16 11.08
4/7/2021 2:00:00 PM 12.93 55.274 0.2 7.23 5.15 11.09
4/7/2021 2:15:00 PM 13.22 55.796 0.199 7.25 5.27 11.09
4/7/2021 2:30:00 PM 13.49 56.282 0.199 7.25 5.4 11.1
4/7/2021 2:45:00 PM 13.74 56.732 0.199 7.26 5.18 11.11
4/7/2021 3:00:00 PM 13.89 57.002 0.2 7.26 5.18 11.08
4/7/2021 3:15:00 PM 13.97 57.146 0.2 7.26 5.23 11.02
4/7/2021 3:30:00 PM 14.04 57.272 0.199 7.26 5.2 11.01
4/7/2021 3:45:00 PM 14.04 57.272 0.199 7.25 5.27 10.97
4/7/2021 4:00:00 PM 14.15 57.47 0.2 7.26 5.28 10.99
4/7/2021 4:15:00 PM 14.14 57.452 0.2 7.26 5.09 10.94
4/7/2021 4:30:00 PM 14.08 57.344 0.2 7.23 5.38 10.81
4/7/2021 4:45:00 PM 13.99 57.182 0.2 7.18 5.18 10.64
4/7/2021 5:00:00 PM 13.87 56.966 0.2 7.16 5.29 10.56
4/7/2021 5:15:00 PM 13.74 56.732 0.2 7.14 5.33 10.43
4/7/2021 5:30:00 PM 13.65 56.57 0.2 7.13 5.35 10.43
4/7/2021 5:45:00 PM 13.58 56.444 0.2 7.12 5.76 10.4
4/7/2021 6:00:00 PM 13.55 56.39 0.2 7.12 5.41 10.41
4/7/2021 6:15:00 PM 13.53 56.354 0.2 7.13 5.39 10.43
4/7/2021 6:30:00 PM 13.49 56.282 0.201 7.13 5.28 10.41
4/7/2021 6:45:00 PM 13.41 56.138 0.2 7.11 5.39 10.34
4/7/2021 7:00:00 PM 13.32 55.976 0.201 7.09 5.28 10.26
4/7/2021 7:15:00 PM 13.25 55.85 0.201 7.07 5.39 10.18
4/7/2021 7:30:00 PM 13.18 55.724 0.201 7.06 5.33 10.08
4/7/2021 7:45:00 PM 13.09 55.562 0.201 7.04 5.3 9.98
4/7/2021 8:00:00 PM 13 55.4 0.201 7.03 5.36 9.89
4/7/2021 8:15:00 PM 12.92 55.256 0.201 7.01 5.55 9.81
4/7/2021 8:30:00 PM 12.85 55.13 0.201 7.01 6.01 9.74
4/7/2021 8:45:00 PM 12.79 55.022 0.201 6.99 5.63 9.69
4/7/2021 9:00:00 PM 12.74 54.932 0.201 6.99 5.93 9.65
4/7/2021 9:15:00 PM 12.7 54.86 0.201 6.99 5.73 9.61
4/7/2021 9:30:00 PM 12.66 54.788 0.201 6.98 5.58 9.59
4/7/2021 9:45:00 PM 12.62 54.716 0.201 6.98 5.94 9.56
4/7/2021 10:00:00 PM 12.58 54.644 0.201 6.97 5.67 9.55
4/7/2021 10:15:00 PM 12.54 54.572 0.202 6.97 5.67 9.53
4/7/2021 10:30:00 PM 12.52 54.536 0.201 6.97 5.92 9.52
4/7/2021 10:45:00 PM 12.48 54.464 0.202 6.97 5.63 9.5
4/7/2021 11:00:00 PM 12.44 54.392 0.202 6.97 5.71 9.48
4/7/2021 11:15:00 PM 12.41 54.338 0.201 6.96 5.97 9.47
4/7/2021 11:30:00 PM 12.37 54.266 0.202 6.95 6.31 9.44
4/7/2021 11:45:00 PM 12.33 54.194 0.202 6.95 6.18 9.43
4/8/2021 12:00:00 AM 12.29 54.122 0.202 6.95 5.94 9.43
4/8/2021 12:15:00 AM 12.25 54.05 0.202 6.95 5.92 9.42
4/8/2021 12:30:00 AM 12.2 53.96 0.202 6.96 6.17 9.42
4/8/2021 12:45:00 AM 12.17 53.906 0.202 6.96 6.46 9.42
4/8/2021 1:00:00 AM 12.12 53.816 0.202 6.97 5.98 9.41
4/8/2021 1:15:00 AM 12.08 53.744 0.202 6.98 6.21 9.41
4/8/2021 1:30:00 AM 12.04 53.672 0.202 6.98 5.95 9.41
4/8/2021 1:45:00 AM 12 53.6 0.202 6.98 5.92 9.4
4/8/2021 2:00:00 AM 11.96 53.528 0.202 6.98 6.3 9.4
4/8/2021 2:15:00 AM 11.92 53.456 0.202 6.97 6.02 9.4
4/8/2021 2:30:00 AM 11.89 53.402 0.202 6.97 6.06 9.4
4/8/2021 2:45:00 AM 11.85 53.33 0.202 6.97 6.07 9.4
4/8/2021 3:00:00 AM 11.81 53.258 0.202 6.97 6.59 9.4
4/8/2021 3:15:00 AM 11.77 53.186 0.203 6.97 6.07 9.4
4/8/2021 3:30:00 AM 11.73 53.114 0.203 6.97 6.14 9.4
4/8/2021 3:45:00 AM 11.69 53.042 0.203 6.97 6.07 9.41
4/8/2021 4:00:00 AM 11.65 52.97 0.203 6.97 6.21 9.4
4/8/2021 4:15:00 AM 11.6 52.88 0.203 6.97 6.44 9.41
4/8/2021 4:30:00 AM 11.56 52.808 0.203 6.96 6.23 9.42
4/8/2021 4:45:00 AM 11.52 52.736 0.203 6.96 6.22 9.42
4/8/2021 5:00:00 AM 11.48 52.664 0.203 6.96 6.17 9.42
4/8/2021 5:15:00 AM 11.45 52.61 0.203 6.97 6.21 9.43
4/8/2021 5:30:00 AM 11.42 52.556 0.204 6.97 6.39 9.43
4/8/2021 5:45:00 AM 11.39 52.502 0.204 6.96 6.27 9.44
4/8/2021 6:00:00 AM 11.35 52.43 0.204 6.96 6.2 9.45
4/8/2021 6:15:00 AM 11.32 52.376 0.204 6.97 6.38 9.45
4/8/2021 6:30:00 AM 11.28 52.304 0.204 6.97 6.3 9.45
4/8/2021 6:45:00 AM 11.25 52.25 0.204 6.96 6.09 9.47
4/8/2021 7:00:00 AM 11.22 52.196 0.204 6.96 5.99 9.49
4/8/2021 7:15:00 AM 11.2 52.16 0.204 6.97 6.08 9.52
4/8/2021 7:30:00 AM 11.17 52.106 0.204 6.98 5.84 9.6
4/8/2021 7:45:00 AM 11.16 52.088 0.204 6.99 5.88 9.7
4/8/2021 8:00:00 AM 11.14 52.052 0.204 7 5.77 9.8
4/8/2021 8:15:00 AM 11.16 52.088 0.204 7.01 5.83 9.93
4/8/2021 8:30:00 AM 11.18 52.124 0.204 7.03 5.89 10.05
4/8/2021 8:45:00 AM 11.21 52.178 0.204 7.04 5.86 10.15
4/8/2021 9:00:00 AM 11.29 52.322 0.204 7.06 5.55 10.26
4/8/2021 9:15:00 AM 11.39 52.502 0.204 7.08 5.74 10.35
4/8/2021 9:30:00 AM 11.49 52.682 0.204 7.1 5.57 10.43
4/8/2021 9:45:00 AM 11.6 52.88 0.204 7.11 5.43 10.5
4/8/2021 10:00:00 AM 11.71 53.078 0.204 7.12 5.47 10.56
4/8/2021 10:15:00 AM 11.82 53.276 0.204 7.13 5.27 10.6
4/8/2021 10:30:00 AM 11.94 53.492 0.204 7.14 5.61 10.65
4/8/2021 10:45:00 AM 12.15 53.87 0.204 7.15 5.41 10.71
4/8/2021 11:00:00 AM 12.34 54.212 0.204 7.17 5.46 10.75
4/8/2021 11:15:00 AM 12.56 54.608 0.204 7.18 5.37 10.78
4/8/2021 11:30:00 AM 12.73 54.914 0.204 7.19 5.43 10.81
4/8/2021 11:45:00 AM 12.92 55.256 0.204 7.2 5.33 10.84
4/8/2021 12:00:00 PM 13.11 55.598 0.204 7.21 5.27 10.86
4/8/2021 12:15:00 PM 13.3 55.94 0.204 7.21 5.44 10.89
4/8/2021 12:30:00 PM 13.49 56.282 0.204 7.23 5.32 10.9
4/8/2021 12:45:00 PM 13.69 56.642 0.204 7.24 5.45 10.91
4/8/2021 1:00:00 PM 13.88 56.984 0.204 7.25 5.46 10.94
4/8/2021 1:15:00 PM 14.06 57.308 0.204 7.26 5.32 10.92
4/8/2021 1:30:00 PM 14.25 57.65 0.204 7.26 5.36 10.94
4/8/2021 1:45:00 PM 14.4 57.92 0.204 7.27 5.47 10.94
4/8/2021 2:00:00 PM 14.58 58.244 0.204 7.29 5.46 10.95
4/8/2021 2:15:00 PM 14.73 58.514 0.204 7.3 5.45 10.95
4/8/2021 2:30:00 PM 14.83 58.694 0.204 7.3 5.2 10.93
4/8/2021 2:45:00 PM 14.95 58.91 0.204 7.31 5.34 10.92
4/8/2021 3:00:00 PM 15.05 59.09 0.204 7.31 5.56 10.91
4/8/2021 3:15:00 PM 15.16 59.288 0.204 7.32 5.52 10.91
4/8/2021 3:30:00 PM 15.23 59.414 0.204 7.32 5.65 10.87
4/8/2021 3:45:00 PM 15.31 59.558 0.204 7.32 5.54 10.86
4/8/2021 4:00:00 PM 15.36 59.648 0.205 7.31 5.63 10.84
4/8/2021 4:15:00 PM 15.37 59.666 0.205 7.31 5.51 10.81
4/8/2021 4:30:00 PM 15.32 59.576 0.205 7.29 5.44 10.76
4/8/2021 4:45:00 PM 15.31 59.558 0.205 7.28 5.55 10.74
4/8/2021 5:00:00 PM 15.28 59.504 0.205 7.27 5.68 10.71
4/8/2021 5:15:00 PM 15.2 59.36 0.205 7.26 5.54 10.66
4/8/2021 5:30:00 PM 15.12 59.216 0.205 7.25 5.68 10.61
4/8/2021 5:45:00 PM 15.01 59.018 0.205 7.23 5.45 10.54
4/8/2021 6:00:00 PM 14.88 58.784 0.206 7.2 5.45 10.46
4/8/2021 6:15:00 PM 14.74 58.532 0.206 7.19 5.5 10.4
4/8/2021 6:30:00 PM 14.62 58.316 0.205 7.17 5.55 10.33
4/8/2021 6:45:00 PM 14.5 58.1 0.206 7.16 5.55 10.23
4/8/2021 7:00:00 PM 14.38 57.884 0.206 7.14 5.39 10.11
4/8/2021 7:15:00 PM 14.27 57.686 0.206 7.12 5.57 10
4/8/2021 7:30:00 PM 14.17 57.506 0.206 7.11 5.13 9.88
4/8/2021 7:45:00 PM 14.06 57.308 0.206 7.09 5.57 9.77
4/8/2021 8:00:00 PM 13.96 57.128 0.207 7.07 5.68 9.65
4/8/2021 8:15:00 PM 13.85 56.93 0.207 7.06 5.63 9.56
4/8/2021 8:30:00 PM 13.76 56.768 0.207 7.04 5.6 9.49
4/8/2021 8:45:00 PM 13.67 56.606 0.207 7.04 5.71 9.45
4/8/2021 9:00:00 PM 13.57 56.426 0.207 7.03 5.79 9.41
4/8/2021 9:15:00 PM 13.49 56.282 0.207 7.03 5.84 9.39
4/8/2021 9:30:00 PM 13.42 56.156 0.208 7.02 6.08 9.36
4/8/2021 9:45:00 PM 13.35 56.03 0.208 7.02 6.1 9.34
4/8/2021 10:00:00 PM 13.31 55.958 0.207 7.02 6.06 9.33
4/8/2021 10:15:00 PM 13.25 55.85 0.208 7.02 5.82 9.31
4/8/2021 10:30:00 PM 13.22 55.796 0.207 7.01 6.07 9.3
4/8/2021 10:45:00 PM 13.18 55.724 0.208 7.02 5.88 9.29
4/8/2021 11:00:00 PM 13.15 55.67 0.208 7.01 6.1 9.27
4/8/2021 11:15:00 PM 13.12 55.616 0.208 7.01 6.28 9.25
4/8/2021 11:30:00 PM 13.09 55.562 0.207 7 6.05 9.23
4/8/2021 11:45:00 PM 13.05 55.49 0.208 6.99 6.15 9.21
4/9/2021 12:00:00 AM 13.02 55.436 0.208 6.99 6.15 9.2
4/9/2021 12:15:00 AM 13.01 55.418 0.208 6.99 6.78 9.2
4/9/2021 12:30:00 AM 12.99 55.382 0.208 6.99 6.04 9.19
4/9/2021 12:45:00 AM 12.97 55.346 0.208 6.99 6.09 9.18
4/9/2021 1:00:00 AM 12.94 55.292 0.208 6.99 6.09 9.17
4/9/2021 1:15:00 AM 12.9 55.22 0.208 7 6.31 9.17
4/9/2021 1:30:00 AM 12.87 55.166 0.208 7 6.34 9.17
4/9/2021 1:45:00 AM 12.84 55.112 0.209 7 6.36 9.16
4/9/2021 2:00:00 AM 12.82 55.076 0.209 7 6.56 9.16
4/9/2021 2:15:00 AM 12.8 55.04 0.209 7 7.47 9.15
4/9/2021 2:30:00 AM 12.78 55.004 0.209 7 5.98 9.14
4/9/2021 2:45:00 AM 12.76 54.968 0.208 7 6.42 9.13
4/9/2021 3:00:00 AM 12.72 54.896 0.208 7 5.93 9.13
4/9/2021 3:15:00 AM 12.69 54.842 0.208 7 6.19 9.13
4/9/2021 3:30:00 AM 12.65 54.77 0.209 6.99 5.95 9.13
4/9/2021 3:45:00 AM 12.64 54.752 0.209 7 5.99 9.12
4/9/2021 4:00:00 AM 12.61 54.698 0.209 6.99 6.28 9.12
4/9/2021 4:15:00 AM 12.58 54.644 0.209 6.99 5.95 9.12
4/9/2021 4:30:00 AM 12.55 54.59 0.209 6.99 6.16 9.12
4/9/2021 4:45:00 AM 12.52 54.536 0.209 6.99 5.83 9.12
4/9/2021 5:00:00 AM 12.5 54.5 0.209 6.99 6.14 9.11
4/9/2021 5:15:00 AM 12.46 54.428 0.209 6.98 5.83 9.11
4/9/2021 5:30:00 AM 12.44 54.392 0.21 6.98 6.09 9.11
4/9/2021 5:45:00 AM 12.4 54.32 0.21 6.98 6.22 9.11
4/9/2021 6:00:00 AM 12.37 54.266 0.21 6.98 5.95 9.12
4/9/2021 6:15:00 AM 12.34 54.212 0.21 6.98 5.95 9.13
4/9/2021 6:30:00 AM 12.32 54.176 0.21 6.98 6.83 9.12
4/9/2021 6:45:00 AM 12.28 54.104 0.21 6.98 6.05 9.14
4/9/2021 7:00:00 AM 12.26 54.068 0.21 6.98 5.89 9.14
4/9/2021 7:15:00 AM 12.23 54.014 0.21 6.98 5.8 9.16
4/9/2021 7:30:00 AM 12.2 53.96 0.21 6.99 5.8 9.19
4/9/2021 7:45:00 AM 12.18 53.924 0.21 6.99 6.04 9.24
4/9/2021 8:00:00 AM 12.15 53.87 0.211 7 5.84 9.26
4/9/2021 8:15:00 AM 12.12 53.816 0.211 7 5.62 9.29
4/9/2021 8:30:00 AM 12.11 53.798 0.211 7.01 5.77 9.34
4/9/2021 8:45:00 AM 12.11 53.798 0.211 7.02 5.71 9.44
4/9/2021 9:00:00 AM 12.11 53.798 0.211 7.03 5.69 9.54
4/9/2021 9:15:00 AM 12.1 53.78 0.211 7.03 5.5 9.59
4/9/2021 9:30:00 AM 12.13 53.834 0.211 7.05 5.49 9.73
4/9/2021 9:45:00 AM 12.13 53.834 0.211 7.06 5.58 9.78
4/9/2021 10:00:00 AM 12.12 53.816 0.21 7.06 5.43 9.82
4/9/2021 10:15:00 AM 12.18 53.924 0.211 7.08 5.47 9.97
4/9/2021 10:30:00 AM 12.21 53.978 0.211 7.09 5.56 10.05
4/9/2021 10:45:00 AM 12.35 54.23 0.21 7.11 5.48 10.21
4/9/2021 11:00:00 AM 12.46 54.428 0.211 7.13 5.35 10.31
4/9/2021 11:15:00 AM 12.51 54.518 0.21 7.13 5.38 10.34
4/9/2021 11:30:00 AM 12.56 54.608 0.211 7.14 5.48 10.36
4/9/2021 11:45:00 AM 12.56 54.608 0.211 7.14 5.43 10.36
4/9/2021 12:00:00 PM 12.58 54.644 0.211 7.15 5.28 10.41
4/9/2021 12:15:00 PM 12.61 54.698 0.211 7.16 5.42 10.46
4/9/2021 12:30:00 PM 12.69 54.842 0.21 7.17 5.44 10.53
4/9/2021 12:45:00 PM 12.8 55.04 0.211 7.19 5.5 10.59
4/9/2021 1:00:00 PM 12.96 55.328 0.211 7.2 5.28 10.66
4/9/2021 1:15:00 PM 13.19 55.742 0.211 7.22 5.45 10.72
4/9/2021 1:30:00 PM 13.38 56.084 0.21 7.23 5.4 10.76
4/9/2021 1:45:00 PM 13.55 56.39 0.21 7.24 5.59 10.78
4/9/2021 2:00:00 PM 13.72 56.696 0.211 7.25 5.37 10.79
4/9/2021 2:15:00 PM 14.03 57.254 0.21 7.28 5.48 10.83
4/9/2021 2:30:00 PM 14.02 57.236 0.211 7.28 5.4 10.81
4/9/2021 2:45:00 PM 14.23 57.614 0.211 7.29 5.61 10.83
4/9/2021 3:00:00 PM 14.37 57.866 0.211 7.29 5.44 10.83
4/9/2021 3:15:00 PM 14.36 57.848 0.21 7.29 5.43 10.79
4/9/2021 3:30:00 PM 14.22 57.596 0.211 7.28 5.48 10.75
4/9/2021 3:45:00 PM 14.19 57.542 0.211 7.28 5.64 10.74
4/9/2021 4:00:00 PM 14.02 57.236 0.211 7.26 5.44 10.66
4/9/2021 4:15:00 PM 13.93 57.074 0.211 7.26 5.57 10.66
4/9/2021 4:30:00 PM 13.83 56.894 0.211 7.25 5.52 10.63
4/9/2021 4:45:00 PM 13.73 56.714 0.211 7.23 5.35 10.56
4/9/2021 5:00:00 PM 13.61 56.498 0.211 7.21 5.72 10.48
4/9/2021 5:15:00 PM 13.49 56.282 0.211 7.19 5.51 10.38
4/9/2021 5:30:00 PM 13.39 56.102 0.211 7.17 5.49 10.33
4/9/2021 5:45:00 PM 13.31 55.958 0.211 7.17 5.58 10.31
4/9/2021 6:00:00 PM 13.24 55.832 0.212 7.16 5.42 10.24
4/9/2021 6:15:00 PM 13.17 55.706 0.212 7.14 5.44 10.12
4/9/2021 6:30:00 PM 13.12 55.616 0.211 7.13 6.32 10.03
4/9/2021 6:45:00 PM 13.08 55.544 0.211 7.12 5.42 9.98
4/9/2021 7:00:00 PM 13.04 55.472 0.212 7.11 5.43 9.94
4/9/2021 7:15:00 PM 13 55.4 0.212 7.1 5.47 9.87
4/9/2021 7:30:00 PM 12.96 55.328 0.212 7.09 5.58 9.8
4/9/2021 7:45:00 PM 12.93 55.274 0.212 7.08 5.61 9.73
4/9/2021 8:00:00 PM 12.89 55.202 0.212 7.07 5.86 9.65
4/9/2021 8:15:00 PM 12.86 55.148 0.212 7.05 5.89 9.59
4/9/2021 8:30:00 PM 12.83 55.094 0.212 7.04 5.84 9.54
4/9/2021 8:45:00 PM 12.8 55.04 0.212 7.04 5.61 9.5
4/9/2021 9:00:00 PM 12.78 55.004 0.212 7.04 6.12 9.48
4/9/2021 9:15:00 PM 12.77 54.986 0.212 7.04 6.03 9.45
4/9/2021 9:30:00 PM 12.76 54.968 0.212 7.03 6.11 9.43
4/9/2021 9:45:00 PM 12.75 54.95 0.212 7.03 6.15 9.42
4/9/2021 10:00:00 PM 12.74 54.932 0.212 7.03 5.95 9.39
4/9/2021 10:15:00 PM 12.73 54.914 0.212 7.03 5.75 9.38
4/9/2021 10:30:00 PM 12.72 54.896 0.212 7.02 5.78 9.36
4/9/2021 10:45:00 PM 12.72 54.896 0.212 7.01 5.71 9.33
4/9/2021 11:00:00 PM 12.71 54.878 0.212 7.01 5.87 9.32
4/9/2021 11:15:00 PM 12.7 54.86 0.212 7.01 5.94 9.29
4/9/2021 11:30:00 PM 12.69 54.842 0.212 7.01 5.94 9.29
4/9/2021 11:45:00 PM 12.67 54.806 0.212 7.01 5.8 9.29
4/10/2021 12:00:00 AM 12.65 54.77 0.212 7 5.75 9.28
4/10/2021 12:15:00 AM 12.63 54.734 0.212 7 5.99 9.26
4/10/2021 12:30:00 AM 12.61 54.698 0.212 6.99 5.68 9.25
4/10/2021 12:45:00 AM 12.58 54.644 0.212 6.99 5.74 9.25
4/10/2021 1:00:00 AM 12.56 54.608 0.212 6.99 5.75 9.24
4/10/2021 1:15:00 AM 12.53 54.554 0.213 6.99 5.81 9.25
4/10/2021 1:30:00 AM 12.5 54.5 0.213 7 5.91 9.25
4/10/2021 1:45:00 AM 12.48 54.464 0.213 7 5.89 9.25
4/10/2021 2:00:00 AM 12.45 54.41 0.212 7 5.98 9.25
4/10/2021 2:15:00 AM 12.43 54.374 0.212 7 5.68 9.25
4/10/2021 2:30:00 AM 12.4 54.32 0.213 7 5.86 9.25
4/10/2021 2:45:00 AM 12.38 54.284 0.213 6.99 5.81 9.24
4/10/2021 3:00:00 AM 12.36 54.248 0.213 6.99 5.84 9.24
4/10/2021 3:15:00 AM 12.34 54.212 0.212 6.99 6.1 9.23
4/10/2021 3:30:00 AM 12.31 54.158 0.213 6.99 5.89 9.24
4/10/2021 3:45:00 AM 12.29 54.122 0.213 6.99 6.07 9.24
4/10/2021 4:00:00 AM 12.28 54.104 0.213 6.99 6.15 9.23
4/10/2021 4:15:00 AM 12.25 54.05 0.213 6.99 6.07 9.23
4/10/2021 4:30:00 AM 12.23 54.014 0.213 6.99 6.15 9.23
4/10/2021 4:45:00 AM 12.21 53.978 0.213 6.99 6.09 9.23
4/10/2021 5:00:00 AM 12.19 53.942 0.213 6.99 6.37 9.23
4/10/2021 5:15:00 AM 12.18 53.924 0.213 6.99 6.17 9.23
4/10/2021 5:30:00 AM 12.16 53.888 0.213 6.99 6.42 9.23
4/10/2021 5:45:00 AM 12.14 53.852 0.213 6.99 6.08 9.23
4/10/2021 6:00:00 AM 12.12 53.816 0.213 6.99 6.03 9.23
4/10/2021 6:15:00 AM 12.09 53.762 0.213 6.99 5.89 9.24
4/10/2021 6:30:00 AM 12.07 53.726 0.213 6.99 6.29 9.24
4/10/2021 6:45:00 AM 12.05 53.69 0.213 6.99 6.01 9.24
4/10/2021 7:00:00 AM 12.03 53.654 0.214 6.99 5.54 9.26
4/10/2021 7:15:00 AM 12.02 53.636 0.214 7 6.35 9.29
4/10/2021 7:30:00 AM 12.01 53.618 0.214 7 5.99 9.34
4/10/2021 7:45:00 AM 12.02 53.636 0.214 7.01 5.78 9.4
4/10/2021 8:00:00 AM 12.02 53.636 0.213 7.02 5.66 9.5
4/10/2021 8:15:00 AM 12.04 53.672 0.213 7.03 5.7 9.6
4/10/2021 8:30:00 AM 12.06 53.708 0.213 7.04 5.56 9.74
4/10/2021 8:45:00 AM 12.11 53.798 0.214 7.06 5.71 9.89
4/10/2021 9:00:00 AM 12.18 53.924 0.214 7.08 5.52 10.02
4/10/2021 9:15:00 AM 12.33 54.194 0.213 7.09 5.53 10.15
4/10/2021 9:30:00 AM 12.44 54.392 0.213 7.11 5.51 10.23
4/10/2021 9:45:00 AM 12.55 54.59 0.213 7.13 5.44 10.3
4/10/2021 10:00:00 AM 12.71 54.878 0.213 7.14 5.51 10.37
4/10/2021 10:15:00 AM 12.88 55.184 0.214 7.15 5.41 10.43
4/10/2021 10:30:00 AM 13.08 55.544 0.213 7.16 5.15 10.49
4/10/2021 10:45:00 AM 13.28 55.904 0.214 7.18 5.45 10.54
4/10/2021 11:00:00 AM 13.46 56.228 0.213 7.19 5.38 10.58
4/10/2021 11:15:00 AM 13.66 56.588 0.213 7.2 5.41 10.62
4/10/2021 11:30:00 AM 13.85 56.93 0.213 7.21 5.38 10.65
4/10/2021 11:45:00 AM 14.03 57.254 0.213 7.22 5.4 10.68
4/10/2021 12:00:00 PM 14.25 57.65 0.214 7.23 5.42 10.7
4/10/2021 12:15:00 PM 14.46 58.028 0.214 7.23 5.43 10.73
4/10/2021 12:30:00 PM 14.64 58.352 0.214 7.24 5.36 10.75
4/10/2021 12:45:00 PM 14.84 58.712 0.214 7.25 5.32 10.76
4/10/2021 1:00:00 PM 15.02 59.036 0.213 7.26 5.3 10.77
4/10/2021 1:15:00 PM 15.18 59.324 0.213 7.27 5.4 10.78
4/10/2021 1:30:00 PM 15.34 59.612 0.214 7.28 5.42 10.8
4/10/2021 1:45:00 PM 15.47 59.846 0.214 7.29 5.36 10.79
4/10/2021 2:00:00 PM 15.62 60.116 0.214 7.31 5.36 10.8
4/10/2021 2:15:00 PM 15.74 60.332 0.213 7.32 5.47 10.8
4/10/2021 2:30:00 PM 15.86 60.548 0.213 7.32 5.54 10.8
4/10/2021 2:45:00 PM 15.95 60.71 0.214 7.33 5.38 10.8
4/10/2021 3:00:00 PM 16.01 60.818 0.214 7.34 5.44 10.78
4/10/2021 3:15:00 PM 15.99 60.782 0.214 7.33 5.25 10.75
4/10/2021 3:30:00 PM 16.03 60.854 0.214 7.32 5.24 10.75
4/10/2021 3:45:00 PM 16 60.8 0.214 7.31 5.41 10.72
4/10/2021 4:00:00 PM 16.02 60.836 0.214 7.3 5.41 10.71
4/10/2021 4:15:00 PM 16.03 60.854 0.214 7.31 5.76 10.69
4/10/2021 4:30:00 PM 16 60.8 0.214 7.3 5.49 10.66
4/10/2021 4:45:00 PM 15.95 60.71 0.214 7.28 5.89 10.63
4/10/2021 5:00:00 PM 15.88 60.584 0.214 7.27 5.63 10.58
4/10/2021 5:15:00 PM 15.78 60.404 0.214 7.27 5.47 10.52
4/10/2021 5:30:00 PM 15.68 60.224 0.214 7.26 5.43 10.45
4/10/2021 5:45:00 PM 15.58 60.044 0.214 7.24 5.33 10.4
4/10/2021 6:00:00 PM 15.48 59.864 0.214 7.22 5.46 10.32
4/10/2021 6:15:00 PM 15.38 59.684 0.214 7.21 5.56 10.24
4/10/2021 6:30:00 PM 15.28 59.504 0.215 7.19 5.5 10.13
4/10/2021 6:45:00 PM 15.2 59.36 0.215 7.17 5.31 10.01
4/10/2021 7:00:00 PM 15.1 59.18 0.215 7.14 5.45 9.85
4/10/2021 7:15:00 PM 15.02 59.036 0.215 7.11 5.45 9.71
4/10/2021 7:30:00 PM 14.93 58.874 0.215 7.1 5.55 9.58
4/10/2021 7:45:00 PM 14.85 58.73 0.216 7.08 5.65 9.45
4/10/2021 8:00:00 PM 14.78 58.604 0.216 7.07 5.89 9.34
4/10/2021 8:15:00 PM 14.71 58.478 0.215 7.06 5.74 9.26
4/10/2021 8:30:00 PM 14.64 58.352 0.216 7.05 5.7 9.19
4/10/2021 8:45:00 PM 14.58 58.244 0.216 7.04 6.03 9.13
4/10/2021 9:00:00 PM 14.52 58.136 0.216 7.04 5.84 9.1
4/10/2021 9:15:00 PM 14.46 58.028 0.217 7.03 5.62 9.06
4/10/2021 9:30:00 PM 14.41 57.938 0.216 7.03 5.55 9.02
4/10/2021 9:45:00 PM 14.37 57.866 0.216 7.03 5.84 9.01
4/10/2021 10:00:00 PM 14.34 57.812 0.216 7.02 5.59 8.98
4/10/2021 10:15:00 PM 14.3 57.74 0.216 7.02 5.51 8.97
4/10/2021 10:30:00 PM 14.27 57.686 0.216 7.02 5.58 8.95
4/10/2021 10:45:00 PM 14.24 57.632 0.216 7.02 5.78 8.93
4/10/2021 11:00:00 PM 14.21 57.578 0.216 7.02 5.76 8.91
4/10/2021 11:15:00 PM 14.19 57.542 0.216 7.02 5.82 8.91
4/10/2021 11:30:00 PM 14.16 57.488 0.216 7.02 5.81 8.9
4/10/2021 11:45:00 PM 14.14 57.452 0.216 7.02 5.94 8.88
4/11/2021 12:00:00 AM 14.12 57.416 0.217 7.01 6.6 8.86
4/11/2021 12:15:00 AM 14.09 57.362 0.218 7.01 7.44 8.85
4/11/2021 12:30:00 AM 14.07 57.326 0.22 7.01 9.59 8.83
4/11/2021 12:45:00 AM 14.03 57.254 0.218 7.01 8.45 8.83
4/11/2021 1:00:00 AM 14 57.2 0.218 7 9.8 8.81
4/11/2021 1:15:00 AM 13.98 57.164 0.218 7 12.5 8.79
4/11/2021 1:30:00 AM 13.94 57.092 0.218 6.99 10.4 8.77
4/11/2021 1:45:00 AM 13.9 57.02 0.218 6.99 10.32 8.76
4/11/2021 2:00:00 AM 13.87 56.966 0.217 6.99 11.64 8.76
4/11/2021 2:15:00 AM 13.85 56.93 0.214 7 13.29 8.76
4/11/2021 2:30:00 AM 13.82 56.876 0.214 7 12.33 8.77
4/11/2021 2:45:00 AM 13.78 56.804 0.214 7 11.59 8.76
4/11/2021 3:00:00 AM 13.77 56.786 0.211 7 13.09 8.76
4/11/2021 3:15:00 AM 13.74 56.732 0.211 7 11.79 8.76
4/11/2021 3:30:00 AM 13.71 56.678 0.211 7 11.22 8.75
4/11/2021 3:45:00 AM 13.68 56.624 0.211 7 10.89 8.75
4/11/2021 4:00:00 AM 13.66 56.588 0.211 7 10.16 8.76
4/11/2021 4:15:00 AM 13.64 56.552 0.21 7 10.92 8.75
4/11/2021 4:30:00 AM 13.6 56.48 0.211 7 10.79 8.77
4/11/2021 4:45:00 AM 13.56 56.408 0.212 7 10.22 8.77
4/11/2021 5:00:00 AM 13.54 56.372 0.211 6.99 10.59 8.77
4/11/2021 5:15:00 AM 13.52 56.336 0.21 6.99 11.04 8.78
4/11/2021 5:30:00 AM 13.48 56.264 0.21 6.99 11.34 8.78
4/11/2021 5:45:00 AM 13.46 56.228 0.208 7 12.37 8.79
4/11/2021 6:00:00 AM 13.43 56.174 0.208 7 12.15 8.81
4/11/2021 6:15:00 AM 13.39 56.102 0.207 7 13.25 8.84
4/11/2021 6:30:00 AM 13.38 56.084 0.201 7.03 32.08 8.87
4/11/2021 6:45:00 AM 13.26 55.868 0.205 7.04 26.33 8.91
4/11/2021 7:00:00 AM 13.21 55.778 0.205 7.05 23.86 8.93
4/11/2021 7:15:00 AM 13.2 55.76 0.203 7.06 27.74 8.93
4/11/2021 7:30:00 AM 13.14 55.652 0.205 7.05 24.79 8.96
4/11/2021 7:45:00 AM 13.1 55.58 0.205 7.04 25.03 8.98
4/11/2021 8:00:00 AM 13.08 55.544 0.205 7.04 24.45 9.01
4/11/2021 8:15:00 AM 13.05 55.49 0.206 7.04 26.27 9.03
4/11/2021 8:30:00 AM 13.02 55.436 0.207 7.04 35.14 9.05
4/11/2021 8:45:00 AM 13.01 55.418 0.207 7.04 37.28 9.09
4/11/2021 9:00:00 AM 13.03 55.454 0.207 7.06 36.09 9.15
4/11/2021 9:15:00 AM 13.04 55.472 0.207 7.07 34.21 9.21
4/11/2021 9:30:00 AM 13.05 55.49 0.207 7.08 32.82 9.26
4/11/2021 9:45:00 AM 13.08 55.544 0.206 7.09 37.72 9.32
4/11/2021 10:00:00 AM 13.15 55.67 0.204 7.11 32.56 9.35
4/11/2021 10:15:00 AM 13.22 55.796 0.202 7.12 29.99 9.37
4/11/2021 10:30:00 AM 13.37 56.066 0.199 7.13 26.08 9.43
4/11/2021 10:45:00 AM 13.39 56.102 0.195 7.12 24.33 9.38
4/11/2021 11:00:00 AM 13.55 56.39 0.192 7.13 23.55 9.43
4/11/2021 11:15:00 AM 13.69 56.642 0.188 7.14 22.94 9.45
4/11/2021 11:30:00 AM 13.74 56.732 0.186 7.14 21.46 9.47
4/11/2021 11:45:00 AM 13.78 56.804 0.185 7.13 21.03 9.47
4/11/2021 12:00:00 PM 13.8 56.84 0.183 7.13 20.74 9.47
4/11/2021 12:15:00 PM 13.82 56.876 0.182 7.11 20.99 9.48
4/11/2021 12:30:00 PM 13.82 56.876 0.181 7.12 20.27 9.5
4/11/2021 12:45:00 PM 13.84 56.912 0.179 7.12 22.14 9.49
4/11/2021 1:00:00 PM 13.86 56.948 0.177 7.12 22.59 9.49
4/11/2021 1:15:00 PM 13.88 56.984 0.176 7.11 22.21 9.48
4/11/2021 1:30:00 PM 13.89 57.002 0.174 7.11 23.28 9.47
4/11/2021 1:45:00 PM 14 57.2 0.173 7.12 24.68 9.51
4/11/2021 2:00:00 PM 14.02 57.236 0.172 7.11 26.71 9.48
4/11/2021 2:15:00 PM 14.19 57.542 0.171 7.13 24.99 9.52
4/11/2021 2:30:00 PM 14.24 57.632 0.17 7.12 27.7 9.48
4/11/2021 2:45:00 PM 14.29 57.722 0.169 7.11 25.59 9.46
4/11/2021 3:00:00 PM 14.26 57.668 0.168 7.08 25.83 9.42
4/11/2021 3:15:00 PM 14.31 57.758 0.168 7.09 26.24 9.4
4/11/2021 3:30:00 PM 14.42 57.956 0.167 7.09 26.52 9.4
4/11/2021 3:45:00 PM 14.54 58.172 0.167 7.1 27.29 9.4
4/11/2021 4:00:00 PM 14.65 58.37 0.166 7.1 27.07 9.39
4/11/2021 4:15:00 PM 14.58 58.244 0.166 7.07 28.49 9.32
4/11/2021 4:30:00 PM 14.43 57.974 0.166 7.05 29.59 9.27
4/11/2021 4:45:00 PM 14.31 57.758 0.166 7.04 30.41 9.21
4/11/2021 5:00:00 PM 14.24 57.632 0.165 7.03 29.89 9.16
4/11/2021 5:15:00 PM 14.15 57.47 0.165 7.02 31.78 9.13
4/11/2021 5:30:00 PM 14.08 57.344 0.165 7.02 31.07 9.09
4/11/2021 5:45:00 PM 14.02 57.236 0.165 7.03 35.58 9.08
4/11/2021 6:00:00 PM 13.97 57.146 0.165 7.02 29.85 9.07
4/11/2021 6:15:00 PM 13.94 57.092 0.165 7.02 30.25 9.06
4/11/2021 6:30:00 PM 13.91 57.038 0.164 7.02 29.58 9.05
4/11/2021 6:45:00 PM 13.89 57.002 0.165 7.02 28.63 9.04
4/11/2021 7:00:00 PM 13.86 56.948 0.165 7.01 25.09 9.02
4/11/2021 7:15:00 PM 13.83 56.894 0.165 7.02 27.64 9.01
4/11/2021 7:30:00 PM 13.8 56.84 0.165 7.02 29.83 8.99
4/11/2021 7:45:00 PM 13.77 56.786 0.166 7.02 27.67 8.98
4/11/2021 8:00:00 PM 13.75 56.75 0.166 7.02 26.32 8.97
4/11/2021 8:15:00 PM 13.71 56.678 0.166 7.02 25.38 8.97
4/11/2021 8:30:00 PM 13.67 56.606 0.166 7.01 25.12 8.97
4/11/2021 8:45:00 PM 13.63 56.534 0.167 7.01 25.38 8.97
4/11/2021 9:00:00 PM 13.59 56.462 0.167 7.01 24.71 8.97
4/11/2021 9:15:00 PM 13.55 56.39 0.167 7.01 23.9 8.98
4/11/2021 9:30:00 PM 13.51 56.318 0.168 7.01 24.35 8.98
4/11/2021 9:45:00 PM 13.46 56.228 0.168 7.01 23.73 8.99
4/11/2021 10:00:00 PM 13.41 56.138 0.169 7.01 24.08 8.99
4/11/2021 10:15:00 PM 13.36 56.048 0.169 7.01 23.32 9
4/11/2021 10:30:00 PM 13.31 55.958 0.17 7.01 22.57 9
4/11/2021 10:45:00 PM 13.26 55.868 0.17 7.01 22.44 9.01
4/11/2021 11:00:00 PM 13.21 55.778 0.171 7.01 22.41 9.01
4/11/2021 11:15:00 PM 13.15 55.67 0.171 7 22.66 9.02
4/11/2021 11:30:00 PM 13.09 55.562 0.171 7 22.55 9.02
4/11/2021 11:45:00 PM 13.03 55.454 0.171 7 21.7 9.02
4/12/2021 12:00:00 AM 12.99 55.382 0.171 7.01 21.49 9.03
4/12/2021 12:15:00 AM 12.95 55.31 0.171 7.01 21.88 9.03
4/12/2021 12:30:00 AM 12.91 55.238 0.171 7.01 20.81 9.03
4/12/2021 12:45:00 AM 12.86 55.148 0.172 7 20.96 9.04
4/12/2021 1:00:00 AM 12.82 55.076 0.172 7 20.31 9.05
4/12/2021 1:15:00 AM 12.78 55.004 0.172 7 21.01 9.05
4/12/2021 1:30:00 AM 12.74 54.932 0.172 7 20.16 9.05
4/12/2021 1:45:00 AM 12.69 54.842 0.172 7 20.95 9.06
4/12/2021 2:00:00 AM 12.65 54.77 0.172 7 20.47 9.06
4/12/2021 2:15:00 AM 12.62 54.716 0.172 7 20.36 9.06
4/12/2021 2:30:00 AM 12.59 54.662 0.172 6.99 20.33 9.07
4/12/2021 2:45:00 AM 12.56 54.608 0.172 6.99 19.84 9.07
4/12/2021 3:00:00 AM 12.53 54.554 0.172 6.99 19.5 9.07
4/12/2021 3:15:00 AM 12.49 54.482 0.172 6.99 19.73 9.08
4/12/2021 3:30:00 AM 12.46 54.428 0.172 6.99 19.48 9.08
4/12/2021 3:45:00 AM 12.43 54.374 0.172 6.99 19.88 9.09
4/12/2021 4:00:00 AM 12.39 54.302 0.172 6.98 18.88 9.09
4/12/2021 4:15:00 AM 12.36 54.248 0.173 6.98 19.79 9.09
4/12/2021 4:30:00 AM 12.33 54.194 0.173 6.98 19.09 9.1
4/12/2021 4:45:00 AM 12.3 54.14 0.173 6.98 18.49 9.1
4/12/2021 5:00:00 AM 12.28 54.104 0.173 6.98 18.51 9.1
4/12/2021 5:15:00 AM 12.26 54.068 0.173 6.98 18.66 9.11
4/12/2021 5:30:00 AM 12.24 54.032 0.174 6.98 18.41 9.11
4/12/2021 5:45:00 AM 12.21 53.978 0.174 6.98 18.03 9.11
4/12/2021 6:00:00 AM 12.19 53.942 0.174 6.97 18.37 9.12
4/12/2021 6:15:00 AM 12.17 53.906 0.174 6.97 17.8 9.12
4/12/2021 6:30:00 AM 12.15 53.87 0.174 6.97 17.87 9.13
4/12/2021 6:45:00 AM 12.13 53.834 0.175 6.97 18.02 9.13
4/12/2021 7:00:00 AM 12.11 53.798 0.175 6.97 17.24 9.14
4/12/2021 7:15:00 AM 12.09 53.762 0.175 6.97 16.27 9.15
4/12/2021 7:30:00 AM 12.06 53.708 0.175 6.97 16.97 9.17
4/12/2021 7:45:00 AM 12.04 53.672 0.175 6.97 16.9 9.2
4/12/2021 8:00:00 AM 12.03 53.654 0.175 6.98 16.04 9.24
4/12/2021 8:15:00 AM 12.03 53.654 0.175 6.99 15.93 9.29
4/12/2021 8:30:00 AM 12.03 53.654 0.175 6.99 15.47 9.32
4/12/2021 8:45:00 AM 12.04 53.672 0.176 7 15.14 9.37
4/12/2021 9:00:00 AM 12.04 53.672 0.176 7 15.19 9.41
4/12/2021 9:15:00 AM 12.03 53.654 0.176 7.01 14.64 9.43
4/12/2021 9:30:00 AM 12.04 53.672 0.176 7.01 14.78 9.46
4/12/2021 9:45:00 AM 12.02 53.636 0.176 7.01 14.88 9.48
4/12/2021 10:00:00 AM 12.01 53.618 0.177 7.02 13.72 9.5
4/12/2021 10:15:00 AM 12.01 53.618 0.177 7.02 13.62 9.53
4/12/2021 10:30:00 AM 11.98 53.564 0.177 7.02 13.6 9.52
4/12/2021 10:45:00 AM 11.95 53.51 0.177 7.02 14.13 9.51
4/12/2021 11:00:00 AM 11.92 53.456 0.178 7.02 12.94 9.5
4/12/2021 11:15:00 AM 11.89 53.402 0.178 7.01 12.66 9.5
4/12/2021 11:30:00 AM 11.88 53.384 0.178 7.01 12.69 9.52
4/12/2021 11:45:00 AM 11.86 53.348 0.178 7.02 12.19 9.53
4/12/2021 12:00:00 PM 11.85 53.33 0.178 7.02 12.25 9.57
4/12/2021 12:15:00 PM 11.85 53.33 0.179 7.03 12.07 9.62
4/12/2021 12:30:00 PM 11.86 53.348 0.179 7.03 11.83 9.66
4/12/2021 12:45:00 PM 11.86 53.348 0.179 7.04 12.13 9.7
4/12/2021 1:00:00 PM 11.87 53.366 0.179 7.05 11.41 9.75
4/12/2021 1:15:00 PM 11.89 53.402 0.179 7.06 11.33 9.8
4/12/2021 1:30:00 PM 11.98 53.564 0.179 7.07 11.48 9.89
4/12/2021 1:45:00 PM 12.08 53.744 0.179 7.09 11.35 9.94
4/12/2021 2:00:00 PM 12.13 53.834 0.179 7.09 11.04 9.95
4/12/2021 2:15:00 PM 12.2 53.96 0.18 7.1 10.73 10
4/12/2021 2:30:00 PM 12.28 54.104 0.18 7.11 10.97 10.04
4/12/2021 2:45:00 PM 12.38 54.284 0.18 7.12 10.49 10.07
4/12/2021 3:00:00 PM 12.42 54.356 0.18 7.12 10.72 10.07
4/12/2021 3:15:00 PM 12.41 54.338 0.18 7.12 10.79 10.07
4/12/2021 3:30:00 PM 12.42 54.356 0.18 7.12 10.11 10.09
4/12/2021 3:45:00 PM 12.43 54.374 0.18 7.13 10.11 10.11
4/12/2021 4:00:00 PM 12.46 54.428 0.18 7.13 9.77 10.13
4/12/2021 4:15:00 PM 12.46 54.428 0.181 7.13 10.19 10.14
4/12/2021 4:30:00 PM 12.44 54.392 0.181 7.13 10.25 10.13
4/12/2021 4:45:00 PM 12.41 54.338 0.181 7.12 9.92 10.11
4/12/2021 5:00:00 PM 12.39 54.302 0.181 7.12 10 10.12
4/12/2021 5:15:00 PM 12.37 54.266 0.181 7.12 9.77 10.11
4/12/2021 5:30:00 PM 12.31 54.158 0.181 7.1 9.64 10.03
4/12/2021 5:45:00 PM 12.31 54.158 0.181 7.11 9.45 10.08
4/12/2021 6:00:00 PM 12.27 54.086 0.181 7.11 9.34 10.07
4/12/2021 6:15:00 PM 12.21 53.978 0.181 7.1 9.26 10.02
4/12/2021 6:30:00 PM 12.15 53.87 0.182 7.1 8.92 10.02
4/12/2021 6:45:00 PM 12.1 53.78 0.182 7.1 9.14 10
4/12/2021 7:00:00 PM 12.03 53.654 0.182 7.09 9.18 9.96
4/12/2021 7:15:00 PM 11.98 53.564 0.182 7.08 8.92 9.93
4/12/2021 7:30:00 PM 11.92 53.456 0.182 7.08 9.24 9.89
4/12/2021 7:45:00 PM 11.88 53.384 0.183 7.07 8.87 9.85
4/12/2021 8:00:00 PM 11.84 53.312 0.183 7.06 8.82 9.79
4/12/2021 8:15:00 PM 11.79 53.222 0.183 7.06 9.19 9.74
4/12/2021 8:30:00 PM 11.74 53.132 0.183 7.04 9.19 9.71
4/12/2021 8:45:00 PM 11.68 53.024 0.183 7.04 9.1 9.69
4/12/2021 9:00:00 PM 11.63 52.934 0.183 7.03 8.75 9.68
4/12/2021 9:15:00 PM 11.59 52.862 0.184 7.03 8.92 9.67
4/12/2021 9:30:00 PM 11.55 52.79 0.184 7.03 9.01 9.67
4/12/2021 9:45:00 PM 11.51 52.718 0.184 7.03 9.01 9.66
4/12/2021 10:00:00 PM 11.46 52.628 0.184 7.03 8.92 9.66
4/12/2021 10:15:00 PM 11.43 52.574 0.184 7.02 9.37 9.66
4/12/2021 10:30:00 PM 11.39 52.502 0.184 7.02 8.99 9.66
4/12/2021 10:45:00 PM 11.37 52.466 0.184 7.02 8.76 9.66
4/12/2021 11:00:00 PM 11.35 52.43 0.185 7.03 9.04 9.65
4/12/2021 11:15:00 PM 11.32 52.376 0.185 7.03 8.86 9.66
4/12/2021 11:30:00 PM 11.3 52.34 0.185 7.03 8.82 9.65
4/12/2021 11:45:00 PM 11.27 52.286 0.185 7.03 8.5 9.65
4/13/2021 12:00:00 AM 11.25 52.25 0.185 7.03 8.76 9.65
4/13/2021 12:15:00 AM 11.22 52.196 0.185 7.03 8.47 9.65
4/13/2021 12:30:00 AM 11.2 52.16 0.185 7.03 8.79 9.65
4/13/2021 12:45:00 AM 11.17 52.106 0.186 7.03 8.48 9.65
4/13/2021 1:00:00 AM 11.15 52.07 0.186 7.03 8.22 9.65
4/13/2021 1:15:00 AM 11.11 51.998 0.186 7.03 8.63 9.65
4/13/2021 1:30:00 AM 11.07 51.926 0.186 7.02 8.2 9.66
4/13/2021 1:45:00 AM 11.02 51.836 0.186 7.03 8.3 9.67
4/13/2021 2:00:00 AM 10.98 51.764 0.186 7.02 8.25 9.67
4/13/2021 2:15:00 AM 10.95 51.71 0.187 7.02 8.27 9.67
4/13/2021 2:30:00 AM 10.94 51.692 0.187 7.02 8.25 9.68
4/13/2021 2:45:00 AM 10.92 51.656 0.186 7.03 8.34 9.67
4/13/2021 3:00:00 AM 10.9 51.62 0.187 7.02 8.3 9.68
4/13/2021 3:15:00 AM 10.87 51.566 0.187 7.03 8.6 9.68
4/13/2021 3:30:00 AM 10.85 51.53 0.187 7.03 8.24 9.69
4/13/2021 3:45:00 AM 10.82 51.476 0.187 7.03 8.12 9.69
4/13/2021 4:00:00 AM 10.79 51.422 0.187 7.03 8.09 9.69
4/13/2021 4:15:00 AM 10.77 51.386 0.187 7.03 8.08 9.7
4/13/2021 4:30:00 AM 10.74 51.332 0.188 7.03 7.97 9.71
4/13/2021 4:45:00 AM 10.71 51.278 0.188 7.03 8.12 9.71
4/13/2021 5:00:00 AM 10.67 51.206 0.188 7.03 8.21 9.72
4/13/2021 5:15:00 AM 10.64 51.152 0.188 7.03 8.23 9.72
4/13/2021 5:30:00 AM 10.61 51.098 0.188 7.03 7.98 9.73
4/13/2021 5:45:00 AM 10.58 51.044 0.188 7.03 8.05 9.73
4/13/2021 6:00:00 AM 10.55 50.99 0.188 7.03 8.25 9.74
4/13/2021 6:15:00 AM 10.53 50.954 0.188 7.03 8.06 9.74
4/13/2021 6:30:00 AM 10.5 50.9 0.188 7.03 7.91 9.75
4/13/2021 6:45:00 AM 10.49 50.882 0.189 7.03 7.92 9.76
4/13/2021 7:00:00 AM 10.46 50.828 0.189 7.03 7.91 9.78
4/13/2021 7:15:00 AM 10.44 50.792 0.189 7.03 7.78 9.8
4/13/2021 7:30:00 AM 10.44 50.792 0.189 7.04 7.61 9.84
4/13/2021 7:45:00 AM 10.45 50.81 0.189 7.04 7.27 9.9
4/13/2021 8:00:00 AM 10.46 50.828 0.189 7.06 7.27 9.97
4/13/2021 8:15:00 AM 10.47 50.846 0.189 7.06 7.3 10.01
4/13/2021 8:30:00 AM 10.48 50.864 0.189 7.07 6.97 10.07
4/13/2021 8:45:00 AM 10.51 50.918 0.189 7.08 6.81 10.13
4/13/2021 9:00:00 AM 10.59 51.062 0.189 7.1 6.75 10.22
4/13/2021 9:15:00 AM 10.59 51.062 0.189 7.1 6.66 10.26
4/13/2021 9:30:00 AM 10.63 51.134 0.189 7.1 6.81 10.28
4/13/2021 9:45:00 AM 10.71 51.278 0.189 7.11 6.64 10.34
4/13/2021 10:00:00 AM 10.78 51.404 0.189 7.11 6.97 10.4
4/13/2021 10:15:00 AM 10.98 51.764 0.189 7.13 6.5 10.45
4/13/2021 10:30:00 AM 11.17 52.106 0.189 7.14 6.39 10.49
4/13/2021 10:45:00 AM 11.29 52.322 0.189 7.15 6.27 10.5
4/13/2021 11:00:00 AM 11.57 52.826 0.189 7.17 6.7 10.54
4/13/2021 11:15:00 AM 11.61 52.898 0.189 7.16 6.35 10.52
4/13/2021 11:30:00 AM 11.7 53.06 0.189 7.17 6.38 10.54
4/13/2021 11:45:00 AM 11.76 53.168 0.189 7.17 6.33 10.57
4/13/2021 12:00:00 PM 11.71 53.078 0.189 7.17 6.3 10.56
4/13/2021 12:15:00 PM 11.68 53.024 0.189 7.17 6.23 10.57
4/13/2021 12:30:00 PM 11.7 53.06 0.189 7.18 6.36 10.6
4/13/2021 12:45:00 PM 11.77 53.186 0.189 7.18 6.21 10.63
4/13/2021 1:00:00 PM 11.89 53.402 0.19 7.19 6.26 10.67
4/13/2021 1:15:00 PM 12.1 53.78 0.19 7.2 6.17 10.69
4/13/2021 1:30:00 PM 12.2 53.96 0.189 7.2 6.4 10.68
4/13/2021 1:45:00 PM 12.38 54.284 0.19 7.2 6.27 10.68
4/13/2021 2:00:00 PM 12.55 54.59 0.19 7.21 6.23 10.68
4/13/2021 2:15:00 PM 12.75 54.95 0.189 7.22 6.24 10.66
4/13/2021 2:30:00 PM 12.98 55.364 0.19 7.23 6.04 10.68
4/13/2021 2:45:00 PM 12.99 55.382 0.19 7.23 6.31 10.66
4/13/2021 3:00:00 PM 12.92 55.256 0.19 7.22 6.45 10.63
4/13/2021 3:15:00 PM 13.1 55.58 0.19 7.23 6.38 10.67
4/13/2021 3:30:00 PM 13.2 55.76 0.19 7.23 6.29 10.66
4/13/2021 3:45:00 PM 13.26 55.868 0.19 7.23 6 10.63
4/13/2021 4:00:00 PM 13.38 56.084 0.19 7.23 6.48 10.64
4/13/2021 4:15:00 PM 13.45 56.21 0.19 7.23 6.27 10.64
4/13/2021 4:30:00 PM 13.52 56.336 0.19 7.23 6.29 10.63
4/13/2021 4:45:00 PM 13.6 56.48 0.191 7.24 6.36 10.63
4/13/2021 5:00:00 PM 13.62 56.516 0.19 7.23 6.2 10.61
4/13/2021 5:15:00 PM 13.58 56.444 0.19 7.23 6.11 10.57
4/13/2021 5:30:00 PM 13.48 56.264 0.19 7.22 6.15 10.5
4/13/2021 5:45:00 PM 13.41 56.138 0.191 7.2 6.24 10.45
4/13/2021 6:00:00 PM 13.32 55.976 0.191 7.19 6.21 10.44
4/13/2021 6:15:00 PM 13.21 55.778 0.19 7.18 6.25 10.38
4/13/2021 6:30:00 PM 13.09 55.562 0.191 7.17 6.08 10.33
4/13/2021 6:45:00 PM 12.96 55.328 0.191 7.15 6.03 10.27
4/13/2021 7:00:00 PM 12.84 55.112 0.191 7.14 6.16 10.2
4/13/2021 7:15:00 PM 12.74 54.932 0.191 7.13 6.08 10.16
4/13/2021 7:30:00 PM 12.64 54.752 0.191 7.11 6.23 10.09
4/13/2021 7:45:00 PM 12.55 54.59 0.191 7.1 6.22 10.02
4/13/2021 8:00:00 PM 12.47 54.446 0.192 7.09 6.78 9.95
4/13/2021 8:15:00 PM 12.38 54.284 0.191 7.07 6.35 9.89
4/13/2021 8:30:00 PM 12.3 54.14 0.192 7.06 6.49 9.84
4/13/2021 8:45:00 PM 12.24 54.032 0.192 7.06 6.54 9.8
4/13/2021 9:00:00 PM 12.18 53.924 0.192 7.05 6.53 9.77
4/13/2021 9:15:00 PM 12.13 53.834 0.192 7.05 6.7 9.75
4/13/2021 9:30:00 PM 12.08 53.744 0.192 7.05 6.38 9.73
4/13/2021 9:45:00 PM 12.03 53.654 0.192 7.04 6.7 9.72
4/13/2021 10:00:00 PM 11.99 53.582 0.192 7.05 6.62 9.7
4/13/2021 10:15:00 PM 11.96 53.528 0.192 7.04 6.7 9.69
4/13/2021 10:30:00 PM 11.93 53.474 0.192 7.05 6.66 9.68
4/13/2021 10:45:00 PM 11.91 53.438 0.192 7.05 6.68 9.67
4/13/2021 11:00:00 PM 11.88 53.384 0.192 7.05 6.71 9.65
4/13/2021 11:15:00 PM 11.86 53.348 0.192 7.05 6.66 9.64
4/13/2021 11:30:00 PM 11.86 53.348 0.192 7.05 6.71 9.62
4/13/2021 11:45:00 PM 11.85 53.33 0.192 7.04 6.7 9.6
4/14/2021 12:00:00 AM 11.84 53.312 0.193 7.04 7.02 9.58
4/14/2021 12:15:00 AM 11.81 53.258 0.193 7.04 6.69 9.58
4/14/2021 12:30:00 AM 11.78 53.204 0.193 7.04 6.65 9.57
4/14/2021 12:45:00 AM 11.76 53.168 0.193 7.04 6.61 9.57
4/14/2021 1:00:00 AM 11.73 53.114 0.193 7.04 7.07 9.56
4/14/2021 1:15:00 AM 11.7 53.06 0.193 7.04 6.77 9.56
4/14/2021 1:30:00 AM 11.67 53.006 0.193 7.04 6.64 9.56
4/14/2021 1:45:00 AM 11.64 52.952 0.193 7.03 7.19 9.56
4/14/2021 2:00:00 AM 11.6 52.88 0.193 7.03 7.01 9.55
4/14/2021 2:15:00 AM 11.58 52.844 0.194 7.03 7.36 9.55
4/14/2021 2:30:00 AM 11.56 52.808 0.193 7.03 7.07 9.54
4/14/2021 2:45:00 AM 11.54 52.772 0.193 7.03 6.96 9.55
4/14/2021 3:00:00 AM 11.51 52.718 0.193 7.03 6.66 9.55
4/14/2021 3:15:00 AM 11.48 52.664 0.194 7.03 7 9.55
4/14/2021 3:30:00 AM 11.44 52.592 0.194 7.03 6.67 9.55
4/14/2021 3:45:00 AM 11.41 52.538 0.194 7.03 7.74 9.55
4/14/2021 4:00:00 AM 11.38 52.484 0.194 7.03 7.01 9.55
4/14/2021 4:15:00 AM 11.34 52.412 0.194 7.02 6.98 9.55
4/14/2021 4:30:00 AM 11.3 52.34 0.194 7.02 6.81 9.56
4/14/2021 4:45:00 AM 11.26 52.268 0.195 7.02 6.94 9.56
4/14/2021 5:00:00 AM 11.22 52.196 0.195 7.02 6.74 9.56
4/14/2021 5:15:00 AM 11.17 52.106 0.195 7.02 6.78 9.58
4/14/2021 5:30:00 AM 11.11 51.998 0.195 7.02 6.97 9.58
4/14/2021 5:45:00 AM 11.06 51.908 0.195 7.01 6.57 9.59
4/14/2021 6:00:00 AM 11.02 51.836 0.195 7.02 6.87 9.6
4/14/2021 6:15:00 AM 10.98 51.764 0.195 7.02 6.73 9.6
4/14/2021 6:30:00 AM 10.95 51.71 0.195 7.02 6.93 9.61
4/14/2021 6:45:00 AM 10.92 51.656 0.195 7.02 6.43 9.62
4/14/2021 7:00:00 AM 10.9 51.62 0.195 7.02 6.59 9.64
4/14/2021 7:15:00 AM 10.87 51.566 0.195 7.02 6.36 9.68
4/14/2021 7:30:00 AM 10.86 51.548 0.195 7.03 6.36 9.74
4/14/2021 7:45:00 AM 10.86 51.548 0.195 7.04 6.34 9.81
4/14/2021 8:00:00 AM 10.86 51.548 0.196 7.06 6.69 9.87
4/14/2021 8:15:00 AM 10.87 51.566 0.195 7.06 6.17 9.93
4/14/2021 8:30:00 AM 10.91 51.638 0.195 7.08 6.28 10.03
4/14/2021 8:45:00 AM 10.93 51.674 0.196 7.08 6.11 10.07
4/14/2021 9:00:00 AM 10.96 51.728 0.195 7.09 5.87 10.12
4/14/2021 9:15:00 AM 10.98 51.764 0.195 7.1 5.85 10.16
4/14/2021 9:30:00 AM 11 51.8 0.196 7.1 5.97 10.19
4/14/2021 9:45:00 AM 11.02 51.836 0.196 7.11 5.97 10.23
4/14/2021 10:00:00 AM 11.06 51.908 0.195 7.12 5.85 10.28
4/14/2021 10:15:00 AM 11.12 52.016 0.196 7.12 5.67 10.35
4/14/2021 10:30:00 AM 11.16 52.088 0.195 7.13 5.87 10.38
4/14/2021 10:45:00 AM 11.24 52.232 0.196 7.14 5.95 10.43
4/14/2021 11:00:00 AM 11.41 52.538 0.196 7.15 5.82 10.51
4/14/2021 11:15:00 AM 11.52 52.736 0.196 7.16 5.88 10.55
4/14/2021 11:30:00 AM 11.61 52.898 0.196 7.17 5.73 10.57
4/14/2021 11:45:00 AM 11.73 53.114 0.196 7.18 6.03 10.62
4/14/2021 12:00:00 PM 11.82 53.276 0.195 7.19 5.87 10.64
4/14/2021 12:15:00 PM 11.93 53.474 0.195 7.2 5.7 10.67
4/14/2021 12:30:00 PM 12.03 53.654 0.196 7.2 6.23 10.69
4/14/2021 12:45:00 PM 12.26 54.068 0.196 7.22 6.17 10.73
4/14/2021 1:00:00 PM 12.4 54.32 0.196 7.22 5.76 10.74
4/14/2021 1:15:00 PM 12.55 54.59 0.196 7.23 5.81 10.75
4/14/2021 1:30:00 PM 12.75 54.95 0.196 7.23 6.04 10.74
4/14/2021 1:45:00 PM 12.86 55.148 0.196 7.23 5.83 10.75
4/14/2021 2:00:00 PM 12.95 55.31 0.196 7.24 5.77 10.74
4/14/2021 2:15:00 PM 13.1 55.58 0.196 7.24 5.67 10.76
4/14/2021 2:30:00 PM 13.24 55.832 0.196 7.25 5.66 10.76
4/14/2021 2:45:00 PM 13.3 55.94 0.196 7.25 5.63 10.77
4/14/2021 3:00:00 PM 13.34 56.012 0.196 7.26 5.81 10.77
4/14/2021 3:15:00 PM 13.34 56.012 0.196 7.26 5.61 10.77
4/14/2021 3:30:00 PM 13.33 55.994 0.196 7.26 5.68 10.77
4/14/2021 3:45:00 PM 13.32 55.976 0.196 7.26 5.89 10.77
4/14/2021 4:00:00 PM 13.3 55.94 0.196 7.26 5.8 10.75
4/14/2021 4:15:00 PM 13.23 55.814 0.196 7.25 5.63 10.71
4/14/2021 4:30:00 PM 13.23 55.814 0.196 7.24 5.56 10.7
4/14/2021 4:45:00 PM 13.24 55.832 0.197 7.24 5.69 10.69
4/14/2021 5:00:00 PM 13.26 55.868 0.196 7.25 6.01 10.68
4/14/2021 5:15:00 PM 13.3 55.94 0.196 7.24 5.73 10.67
4/14/2021 5:30:00 PM 13.21 55.778 0.196 7.23 5.58 10.6
4/14/2021 5:45:00 PM 13.13 55.634 0.197 7.22 5.76 10.54
4/14/2021 6:00:00 PM 13.08 55.544 0.196 7.21 5.87 10.53
4/14/2021 6:15:00 PM 13.01 55.418 0.196 7.21 5.75 10.5
4/14/2021 6:30:00 PM 12.94 55.292 0.196 7.2 5.74 10.44
4/14/2021 6:45:00 PM 12.88 55.184 0.196 7.19 5.81 10.39
4/14/2021 7:00:00 PM 12.81 55.058 0.196 7.18 5.92 10.31
4/14/2021 7:15:00 PM 12.73 54.914 0.196 7.16 5.76 10.22
4/14/2021 7:30:00 PM 12.64 54.752 0.197 7.14 5.85 10.13
4/14/2021 7:45:00 PM 12.55 54.59 0.197 7.12 5.73 10.04
4/14/2021 8:00:00 PM 12.47 54.446 0.197 7.1 5.87 9.96
4/14/2021 8:15:00 PM 12.4 54.32 0.197 7.1 5.85 9.89
4/14/2021 8:30:00 PM 12.33 54.194 0.197 7.08 6.01 9.84
4/14/2021 8:45:00 PM 12.25 54.05 0.197 7.08 6 9.8
4/14/2021 9:00:00 PM 12.17 53.906 0.197 7.07 5.9 9.76
4/14/2021 9:15:00 PM 12.09 53.762 0.197 7.07 6.19 9.74
4/14/2021 9:30:00 PM 12.02 53.636 0.197 7.06 6.21 9.72
4/14/2021 9:45:00 PM 11.96 53.528 0.197 7.06 6.34 9.71
4/14/2021 10:00:00 PM 11.89 53.402 0.197 7.06 6 9.7
4/14/2021 10:15:00 PM 11.84 53.312 0.197 7.06 6.65 9.68
4/14/2021 10:30:00 PM 11.79 53.222 0.197 7.06 6.32 9.67
4/14/2021 10:45:00 PM 11.74 53.132 0.197 7.06 6.43 9.67
4/14/2021 11:00:00 PM 11.69 53.042 0.197 7.06 6.59 9.65
4/14/2021 11:15:00 PM 11.63 52.934 0.197 7.05 6.33 9.65
4/14/2021 11:30:00 PM 11.59 52.862 0.197 7.05 6.23 9.64
4/14/2021 11:45:00 PM 11.54 52.772 0.197 7.05 6.43 9.63
4/15/2021 12:00:00 AM 11.5 52.7 0.197 7.05 6.64 9.61
4/15/2021 12:15:00 AM 11.45 52.61 0.197 7.05 6.34 9.61
4/15/2021 12:30:00 AM 11.41 52.538 0.197 7.05 6.56 9.61
4/15/2021 12:45:00 AM 11.37 52.466 0.197 7.05 6.28 9.6
4/15/2021 1:00:00 AM 11.33 52.394 0.197 7.06 6.3 9.6
4/15/2021 1:15:00 AM 11.3 52.34 0.197 7.05 6.31 9.59
4/15/2021 1:30:00 AM 11.27 52.286 0.198 7.06 6.36 9.59
4/15/2021 1:45:00 AM 11.26 52.268 0.197 7.06 6.43 9.59
4/15/2021 2:00:00 AM 11.23 52.214 0.198 7.06 6.4 9.59
4/15/2021 2:15:00 AM 11.2 52.16 0.197 7.06 6.97 9.58
4/15/2021 2:30:00 AM 11.17 52.106 0.197 7.06 6.83 9.58
4/15/2021 2:45:00 AM 11.14 52.052 0.198 7.06 6.57 9.58
4/15/2021 3:00:00 AM 11.12 52.016 0.198 7.06 6.54 9.58
4/15/2021 3:15:00 AM 11.11 51.998 0.198 7.06 6.62 9.57
4/15/2021 3:30:00 AM 11.08 51.944 0.198 7.05 6.34 9.57
4/15/2021 3:45:00 AM 11.04 51.872 0.198 7.06 6.4 9.57
4/15/2021 4:00:00 AM 11.01 51.818 0.198 7.06 6.53 9.57
4/15/2021 4:15:00 AM 10.98 51.764 0.198 7.06 6.42 9.57
4/15/2021 4:30:00 AM 10.95 51.71 0.198 7.05 6.46 9.57
4/15/2021 4:45:00 AM 10.92 51.656 0.199 7.06 6.61 9.57
4/15/2021 5:00:00 AM 10.9 51.62 0.198 7.06 6.53 9.57
4/15/2021 5:15:00 AM 10.87 51.566 0.198 7.06 6.3 9.58
4/15/2021 5:30:00 AM 10.83 51.494 0.198 7.06 6.52 9.58
4/15/2021 5:45:00 AM 10.79 51.422 0.199 7.05 6.37 9.59
4/15/2021 6:00:00 AM 10.75 51.35 0.199 7.06 6.42 9.59
4/15/2021 6:15:00 AM 10.71 51.278 0.199 7.06 6.48 9.6
4/15/2021 6:30:00 AM 10.66 51.188 0.199 7.06 6.5 9.6
4/15/2021 6:45:00 AM 10.63 51.134 0.199 7.06 7.01 9.61
4/15/2021 7:00:00 AM 10.6 51.08 0.199 7.06 6.82 9.63
4/15/2021 7:15:00 AM 10.56 51.008 0.199 7.06 6.59 9.65
4/15/2021 7:30:00 AM 10.54 50.972 0.199 7.07 6.53 9.7
4/15/2021 7:45:00 AM 10.52 50.936 0.199 7.07 6.35 9.74
4/15/2021 8:00:00 AM 10.49 50.882 0.2 7.08 6.17 9.78
4/15/2021 8:15:00 AM 10.47 50.846 0.2 7.08 6.17 9.81
4/15/2021 8:30:00 AM 10.46 50.828 0.2 7.09 5.82 9.91
4/15/2021 8:45:00 AM 10.43 50.774 0.2 7.1 5.96 9.97
4/15/2021 9:00:00 AM 10.37 50.666 0.2 7.1 5.97 9.96
4/15/2021 9:15:00 AM 10.34 50.612 0.2 7.11 5.74 10
4/15/2021 9:30:00 AM 10.31 50.558 0.2 7.11 5.92 10.06
4/15/2021 9:45:00 AM 10.3 50.54 0.2 7.12 5.65 10.15
4/15/2021 10:00:00 AM 10.32 50.576 0.2 7.14 5.86 10.25
4/15/2021 10:15:00 AM 10.35 50.63 0.2 7.15 5.55 10.33
4/15/2021 10:30:00 AM 10.39 50.702 0.2 7.16 5.74 10.38
4/15/2021 10:45:00 AM 10.39 50.702 0.2 7.16 5.72 10.42
4/15/2021 11:00:00 AM 10.38 50.684 0.2 7.17 5.56 10.45
4/15/2021 11:15:00 AM 10.41 50.738 0.2 7.18 5.52 10.51
4/15/2021 11:30:00 AM 10.42 50.756 0.2 7.19 5.64 10.55
4/15/2021 11:45:00 AM 10.48 50.864 0.2 7.2 5.56 10.6
4/15/2021 12:00:00 PM 10.56 51.008 0.2 7.21 5.63 10.65
4/15/2021 12:15:00 PM 10.67 51.206 0.2 7.22 5.49 10.71
4/15/2021 12:30:00 PM 10.68 51.224 0.2 7.22 5.39 10.71
4/15/2021 12:45:00 PM 10.73 51.314 0.2 7.23 5.68 10.74
4/15/2021 1:00:00 PM 10.75 51.35 0.2 7.24 5.62 10.77
4/15/2021 1:15:00 PM 10.67 51.206 0.2 7.23 5.43 10.68
4/15/2021 1:30:00 PM 10.59 51.062 0.201 7.23 5.5 10.63
4/15/2021 1:45:00 PM 10.49 50.882 0.2 7.21 5.72 10.55
4/15/2021 2:00:00 PM 10.39 50.702 0.2 7.2 5.9 10.51
4/15/2021 2:15:00 PM 10.3 50.54 0.201 7.19 5.74 10.47
4/15/2021 2:30:00 PM 10.22 50.396 0.2 7.18 5.68 10.45
4/15/2021 2:45:00 PM 10.15 50.27 0.201 7.18 5.54 10.47
4/15/2021 3:00:00 PM 10.09 50.162 0.201 7.18 5.49 10.48
4/15/2021 3:15:00 PM 10.04 50.072 0.201 7.18 5.55 10.53
4/15/2021 3:30:00 PM 10.06 50.108 0.2 7.19 5.58 10.64
4/15/2021 3:45:00 PM 10.07 50.126 0.201 7.2 5.56 10.71
4/15/2021 4:00:00 PM 10.04 50.072 0.2 7.21 5.4 10.7
4/15/2021 4:15:00 PM 10.2 50.36 0.2 7.23 5.43 10.8
4/15/2021 4:30:00 PM 10.23 50.414 0.2 7.24 5.48 10.85
4/15/2021 4:45:00 PM 10.25 50.45 0.201 7.24 5.44 10.84
4/15/2021 5:00:00 PM 10.21 50.378 0.2 7.24 5.88 10.78
4/15/2021 5:15:00 PM 10.29 50.522 0.2 7.25 5.35 10.84
4/15/2021 5:30:00 PM 10.27 50.486 0.2 7.25 5.69 10.86
4/15/2021 5:45:00 PM 10.28 50.504 0.2 7.25 5.4 10.86
4/15/2021 6:00:00 PM 10.25 50.45 0.2 7.25 5.47 10.84
4/15/2021 6:15:00 PM 10.17 50.306 0.2 7.24 5.37 10.79
4/15/2021 6:30:00 PM 10.05 50.09 0.2 7.23 5.44 10.7
4/15/2021 6:45:00 PM 9.96 49.928 0.201 7.21 5.18 10.64
4/15/2021 7:00:00 PM 9.84 49.712 0.201 7.2 5.48 10.57
4/15/2021 7:15:00 PM 9.72 49.496 0.201 7.19 5.51 10.51
4/15/2021 7:30:00 PM 9.63 49.334 0.2 7.18 5.4 10.47
4/15/2021 7:45:00 PM 9.57 49.226 0.2 7.17 5.39 10.43
4/15/2021 8:00:00 PM 9.51 49.118 0.2 7.16 5.5 10.39
4/15/2021 8:15:00 PM 9.46 49.028 0.201 7.15 5.62 10.36
4/15/2021 8:30:00 PM 9.41 48.938 0.2 7.14 5.59 10.32
4/15/2021 8:45:00 PM 9.36 48.848 0.201 7.13 5.56 10.3
4/15/2021 9:00:00 PM 9.32 48.776 0.2 7.13 5.76 10.28
4/15/2021 9:15:00 PM 9.27 48.686 0.201 7.13 5.71 10.27
4/15/2021 9:30:00 PM 9.21 48.578 0.2 7.12 5.55 10.27
4/15/2021 9:45:00 PM 9.14 48.452 0.2 7.12 5.52 10.26
4/15/2021 10:00:00 PM 9.06 48.308 0.2 7.12 5.81 10.27
4/15/2021 10:15:00 PM 9.03 48.254 0.201 7.12 6.05 10.26
4/15/2021 10:30:00 PM 8.99 48.182 0.201 7.12 5.91 10.26
4/15/2021 10:45:00 PM 8.95 48.11 0.201 7.12 6.04 10.26
4/15/2021 11:00:00 PM 8.9 48.02 0.201 7.11 5.71 10.25
4/15/2021 11:15:00 PM 8.87 47.966 0.201 7.11 5.92 10.25
4/15/2021 11:30:00 PM 8.83 47.894 0.2 7.11 5.91 10.24
4/15/2021 11:45:00 PM 8.79 47.822 0.2 7.1 5.84 10.24
4/16/2021 12:00:00 AM 8.75 47.75 0.2 7.1 6.08 10.25
4/16/2021 12:15:00 AM 8.72 47.696 0.201 7.11 5.91 10.25
4/16/2021 12:30:00 AM 8.69 47.642 0.201 7.11 5.65 10.25
4/16/2021 12:45:00 AM 8.64 47.552 0.201 7.11 5.59 10.25
4/16/2021 1:00:00 AM 8.61 47.498 0.201 7.11 5.8 10.26
4/16/2021 1:15:00 AM 8.57 47.426 0.201 7.11 5.7 10.27
4/16/2021 1:30:00 AM 8.52 47.336 0.201 7.11 5.81 10.27
4/16/2021 1:45:00 AM 8.48 47.264 0.201 7.11 5.58 10.27
4/16/2021 2:00:00 AM 8.44 47.192 0.201 7.11 5.97 10.28
4/16/2021 2:15:00 AM 8.4 47.12 0.202 7.11 5.69 10.28
4/16/2021 2:30:00 AM 8.36 47.048 0.201 7.11 5.77 10.28
4/16/2021 2:45:00 AM 8.31 46.958 0.201 7.11 5.72 10.29
4/16/2021 3:00:00 AM 8.27 46.886 0.201 7.11 5.7 10.3
4/16/2021 3:15:00 AM 8.22 46.796 0.201 7.11 5.59 10.31
4/16/2021 3:30:00 AM 8.14 46.652 0.201 7.11 5.66 10.31
4/16/2021 3:45:00 AM 8.09 46.562 0.201 7.11 5.66 10.32
4/16/2021 4:00:00 AM 8.05 46.49 0.201 7.11 5.93 10.33
4/16/2021 4:15:00 AM 8 46.4 0.202 7.11 5.89 10.34
4/16/2021 4:30:00 AM 7.98 46.364 0.202 7.11 5.88 10.34
4/16/2021 4:45:00 AM 7.95 46.31 0.202 7.11 5.93 10.35
4/16/2021 5:00:00 AM 7.93 46.274 0.202 7.1 5.83 10.35
4/16/2021 5:15:00 AM 7.91 46.238 0.202 7.1 5.95 10.36
4/16/2021 5:30:00 AM 7.88 46.184 0.202 7.11 5.73 10.37
4/16/2021 5:45:00 AM 7.86 46.148 0.202 7.11 5.67 10.38
4/16/2021 6:00:00 AM 7.83 46.094 0.202 7.11 5.66 10.38
4/16/2021 6:15:00 AM 7.8 46.04 0.202 7.11 5.89 10.39
4/16/2021 6:30:00 AM 7.77 45.986 0.202 7.11 5.84 10.4
4/16/2021 6:45:00 AM 7.75 45.95 0.202 7.11 5.61 10.41
4/16/2021 7:00:00 AM 7.72 45.896 0.202 7.11 5.49 10.43
4/16/2021 7:15:00 AM 7.7 45.86 0.202 7.11 5.54 10.45
4/16/2021 7:30:00 AM 7.68 45.824 0.202 7.12 5.67 10.48
4/16/2021 7:45:00 AM 7.68 45.824 0.202 7.12 5.77 10.52
4/16/2021 8:00:00 AM 7.66 45.788 0.203 7.13 5.79 10.56
4/16/2021 8:15:00 AM 7.65 45.77 0.202 7.13 5.69 10.61
4/16/2021 8:30:00 AM 7.65 45.77 0.202 7.13 5.46 10.65
4/16/2021 8:45:00 AM 7.65 45.77 0.202 7.13 5.57 10.7
4/16/2021 9:00:00 AM 7.65 45.77 0.202 7.14 5.43 10.77
4/16/2021 9:15:00 AM 7.65 45.77 0.202 7.14 5.35 10.79
4/16/2021 9:30:00 AM 7.64 45.752 0.202 7.15 5.39 10.83
4/16/2021 9:45:00 AM 7.64 45.752 0.202 7.16 5.29 10.87
4/16/2021 10:00:00 AM 7.64 45.752 0.202 7.16 5.28 10.94
4/16/2021 10:15:00 AM 7.66 45.788 0.201 7.17 5.19 11.01
4/16/2021 10:30:00 AM 7.72 45.896 0.201 7.19 5.17 11.09